<?xml version="1.0" encoding="UTF-8" standalone="no" ?>
<gpx xmlns="http://www.topografix.com/GPX/1/1" xmlns:xsi="http://www.w3.org/2001/XMLSchema-instance" xsi:schemaLocation="http://www.topografix.com/GPX/1/1 http://www.topografix.com/GPX/1/1/gpx.xsd" version="1.1" creator="VisuGPX - https://www.visugpx.com">
  <metadata>
    <name>PIC de l'ETANG de REBENTY en boucle le 21 mai 2017</name>
    <desc><![CDATA[Très bel itinéraire dont une grande partie en crête.
Boucle assez longue.
Quelques névés assez conséquents étaient encore présents, et même si la neige était bien praticable, du fait de températures assez chaude ce jour là, pour plus de sécurité, les crampons et le piolet sont conseillés dans le sac.
Point d'attention : la pente sous la crête de la Lhasse est assez prononcée et le sentier est au milieu du gispet => pour quitter la crête, attention à ne pas manquer la bifurcation du GR si l'on fait la boucle dans le même sens que ci-dessous.
Plus simple si l'on choisit de faire la boucle en montant d'abord vers l'étang de Comte, c'est à dire dans le sens inverse (sens conseillé). ]]></desc>
  </metadata>
  <trk>
    <name><![CDATA[21-MAI-17 17:10:22]]></name>
    <trkseg>
      <trkpt lat="42.64789" lon="1.81286">
        <ele>1444.52</ele>
        <time>2017-05-21T07:15:33Z</time>
      </trkpt>
      <trkpt lat="42.64794" lon="1.81286">
        <ele>1446.92</ele>
        <time>2017-05-21T07:16:30Z</time>
      </trkpt>
      <trkpt lat="42.64789" lon="1.81296">
        <ele>1446.44</ele>
        <time>2017-05-21T07:16:47Z</time>
      </trkpt>
      <trkpt lat="42.64789" lon="1.81311">
        <ele>1445</ele>
        <time>2017-05-21T07:17:00Z</time>
      </trkpt>
      <trkpt lat="42.64791" lon="1.81327">
        <ele>1444.52</ele>
        <time>2017-05-21T07:17:15Z</time>
      </trkpt>
      <trkpt lat="42.64792" lon="1.81341">
        <ele>1444.52</ele>
        <time>2017-05-21T07:17:31Z</time>
      </trkpt>
      <trkpt lat="42.64797" lon="1.81355">
        <ele>1444.04</ele>
        <time>2017-05-21T07:17:42Z</time>
      </trkpt>
      <trkpt lat="42.64801" lon="1.81368">
        <ele>1444.04</ele>
        <time>2017-05-21T07:17:51Z</time>
      </trkpt>
      <trkpt lat="42.64807" lon="1.8138">
        <ele>1444.52</ele>
        <time>2017-05-21T07:18:02Z</time>
      </trkpt>
      <trkpt lat="42.64804" lon="1.81401">
        <ele>1445.96</ele>
        <time>2017-05-21T07:18:15Z</time>
      </trkpt>
      <trkpt lat="42.64805" lon="1.81415">
        <ele>1446.44</ele>
        <time>2017-05-21T07:18:26Z</time>
      </trkpt>
      <trkpt lat="42.64797" lon="1.8142">
        <ele>1448.84</ele>
        <time>2017-05-21T07:18:46Z</time>
      </trkpt>
      <trkpt lat="42.64787" lon="1.814">
        <ele>1454.13</ele>
        <time>2017-05-21T07:19:18Z</time>
      </trkpt>
      <trkpt lat="42.6478" lon="1.8139">
        <ele>1456.53</ele>
        <time>2017-05-21T07:19:37Z</time>
      </trkpt>
      <trkpt lat="42.64774" lon="1.8138">
        <ele>1459.9</ele>
        <time>2017-05-21T07:20:04Z</time>
      </trkpt>
      <trkpt lat="42.6476" lon="1.81363">
        <ele>1463.74</ele>
        <time>2017-05-21T07:20:33Z</time>
      </trkpt>
      <trkpt lat="42.64753" lon="1.81351">
        <ele>1466.63</ele>
        <time>2017-05-21T07:20:56Z</time>
      </trkpt>
      <trkpt lat="42.64745" lon="1.8134">
        <ele>1469.51</ele>
        <time>2017-05-21T07:21:20Z</time>
      </trkpt>
      <trkpt lat="42.64738" lon="1.81328">
        <ele>1472.88</ele>
        <time>2017-05-21T07:21:44Z</time>
      </trkpt>
      <trkpt lat="42.64729" lon="1.81317">
        <ele>1475.76</ele>
        <time>2017-05-21T07:22:08Z</time>
      </trkpt>
      <trkpt lat="42.64726" lon="1.813">
        <ele>1478.65</ele>
        <time>2017-05-21T07:22:35Z</time>
      </trkpt>
      <trkpt lat="42.64727" lon="1.81277">
        <ele>1482.97</ele>
        <time>2017-05-21T07:23:09Z</time>
      </trkpt>
      <trkpt lat="42.64714" lon="1.81262">
        <ele>1487.3</ele>
        <time>2017-05-21T07:23:45Z</time>
      </trkpt>
      <trkpt lat="42.64713" lon="1.8124">
        <ele>1491.62</ele>
        <time>2017-05-21T07:24:19Z</time>
      </trkpt>
      <trkpt lat="42.6471" lon="1.81212">
        <ele>1494.99</ele>
        <time>2017-05-21T07:24:58Z</time>
      </trkpt>
      <trkpt lat="42.64713" lon="1.81179">
        <ele>1501.24</ele>
        <time>2017-05-21T07:25:48Z</time>
      </trkpt>
      <trkpt lat="42.64709" lon="1.81147">
        <ele>1506.04</ele>
        <time>2017-05-21T07:26:30Z</time>
      </trkpt>
      <trkpt lat="42.64701" lon="1.81133">
        <ele>1510.37</ele>
        <time>2017-05-21T07:27:00Z</time>
      </trkpt>
      <trkpt lat="42.64696" lon="1.81099">
        <ele>1517.1</ele>
        <time>2017-05-21T07:27:48Z</time>
      </trkpt>
      <trkpt lat="42.64695" lon="1.81081">
        <ele>1521.9</ele>
        <time>2017-05-21T07:28:23Z</time>
      </trkpt>
      <trkpt lat="42.64691" lon="1.81067">
        <ele>1527.19</ele>
        <time>2017-05-21T07:28:57Z</time>
      </trkpt>
      <trkpt lat="42.6469" lon="1.81047">
        <ele>1530.56</ele>
        <time>2017-05-21T07:29:22Z</time>
      </trkpt>
      <trkpt lat="42.64684" lon="1.81035">
        <ele>1532.96</ele>
        <time>2017-05-21T07:29:42Z</time>
      </trkpt>
      <trkpt lat="42.64674" lon="1.81021">
        <ele>1535.36</ele>
        <time>2017-05-21T07:30:05Z</time>
      </trkpt>
      <trkpt lat="42.64663" lon="1.81008">
        <ele>1536.32</ele>
        <time>2017-05-21T07:30:22Z</time>
      </trkpt>
      <trkpt lat="42.6465" lon="1.80991">
        <ele>1536.8</ele>
        <time>2017-05-21T07:30:40Z</time>
      </trkpt>
      <trkpt lat="42.64657" lon="1.80963">
        <ele>1533.92</ele>
        <time>2017-05-21T07:31:10Z</time>
      </trkpt>
      <trkpt lat="42.64671" lon="1.80946">
        <ele>1533.44</ele>
        <time>2017-05-21T07:31:35Z</time>
      </trkpt>
      <trkpt lat="42.64683" lon="1.80945">
        <ele>1534.4</ele>
        <time>2017-05-21T07:32:05Z</time>
      </trkpt>
      <trkpt lat="42.64677" lon="1.80937">
        <ele>1534.4</ele>
        <time>2017-05-21T07:32:54Z</time>
      </trkpt>
      <trkpt lat="42.64669" lon="1.8092">
        <ele>1534.88</ele>
        <time>2017-05-21T07:33:13Z</time>
      </trkpt>
      <trkpt lat="42.64659" lon="1.80907">
        <ele>1535.36</ele>
        <time>2017-05-21T07:33:35Z</time>
      </trkpt>
      <trkpt lat="42.64644" lon="1.80891">
        <ele>1536.32</ele>
        <time>2017-05-21T07:33:57Z</time>
      </trkpt>
      <trkpt lat="42.64624" lon="1.80875">
        <ele>1535.36</ele>
        <time>2017-05-21T07:34:18Z</time>
      </trkpt>
      <trkpt lat="42.64625" lon="1.80848">
        <ele>1538.25</ele>
        <time>2017-05-21T07:34:39Z</time>
      </trkpt>
      <trkpt lat="42.64612" lon="1.80831">
        <ele>1537.29</ele>
        <time>2017-05-21T07:34:57Z</time>
      </trkpt>
      <trkpt lat="42.64603" lon="1.80806">
        <ele>1537.29</ele>
        <time>2017-05-21T07:35:20Z</time>
      </trkpt>
      <trkpt lat="42.64592" lon="1.80793">
        <ele>1537.29</ele>
        <time>2017-05-21T07:35:33Z</time>
      </trkpt>
      <trkpt lat="42.64582" lon="1.80785">
        <ele>1537.77</ele>
        <time>2017-05-21T07:35:47Z</time>
      </trkpt>
      <trkpt lat="42.64571" lon="1.80776">
        <ele>1538.73</ele>
        <time>2017-05-21T07:36:00Z</time>
      </trkpt>
      <trkpt lat="42.64559" lon="1.80769">
        <ele>1541.13</ele>
        <time>2017-05-21T07:36:17Z</time>
      </trkpt>
      <trkpt lat="42.64548" lon="1.80759">
        <ele>1542.09</ele>
        <time>2017-05-21T07:36:31Z</time>
      </trkpt>
      <trkpt lat="42.64542" lon="1.8075">
        <ele>1543.05</ele>
        <time>2017-05-21T07:36:41Z</time>
      </trkpt>
      <trkpt lat="42.64539" lon="1.80736">
        <ele>1543.53</ele>
        <time>2017-05-21T07:36:52Z</time>
      </trkpt>
      <trkpt lat="42.64535" lon="1.80722">
        <ele>1544.98</ele>
        <time>2017-05-21T07:37:06Z</time>
      </trkpt>
      <trkpt lat="42.6453" lon="1.80709">
        <ele>1544.5</ele>
        <time>2017-05-21T07:37:17Z</time>
      </trkpt>
      <trkpt lat="42.64527" lon="1.80692">
        <ele>1545.94</ele>
        <time>2017-05-21T07:37:30Z</time>
      </trkpt>
      <trkpt lat="42.64523" lon="1.80682">
        <ele>1546.42</ele>
        <time>2017-05-21T07:37:42Z</time>
      </trkpt>
      <trkpt lat="42.64523" lon="1.80666">
        <ele>1547.38</ele>
        <time>2017-05-21T07:37:53Z</time>
      </trkpt>
      <trkpt lat="42.64521" lon="1.80652">
        <ele>1546.9</ele>
        <time>2017-05-21T07:38:04Z</time>
      </trkpt>
      <trkpt lat="42.64517" lon="1.80635">
        <ele>1546.42</ele>
        <time>2017-05-21T07:38:39Z</time>
      </trkpt>
      <trkpt lat="42.64509" lon="1.80626">
        <ele>1546.42</ele>
        <time>2017-05-21T07:38:50Z</time>
      </trkpt>
      <trkpt lat="42.64501" lon="1.80621">
        <ele>1547.38</ele>
        <time>2017-05-21T07:38:59Z</time>
      </trkpt>
      <trkpt lat="42.64487" lon="1.80619">
        <ele>1548.34</ele>
        <time>2017-05-21T07:39:13Z</time>
      </trkpt>
      <trkpt lat="42.64482" lon="1.80605">
        <ele>1549.78</ele>
        <time>2017-05-21T07:39:25Z</time>
      </trkpt>
      <trkpt lat="42.64478" lon="1.80595">
        <ele>1549.3</ele>
        <time>2017-05-21T07:39:35Z</time>
      </trkpt>
      <trkpt lat="42.64471" lon="1.80589">
        <ele>1549.3</ele>
        <time>2017-05-21T07:39:45Z</time>
      </trkpt>
      <trkpt lat="42.64467" lon="1.80579">
        <ele>1550.26</ele>
        <time>2017-05-21T07:39:55Z</time>
      </trkpt>
      <trkpt lat="42.64464" lon="1.80565">
        <ele>1550.26</ele>
        <time>2017-05-21T07:40:09Z</time>
      </trkpt>
      <trkpt lat="42.64465" lon="1.80552">
        <ele>1552.19</ele>
        <time>2017-05-21T07:40:19Z</time>
      </trkpt>
      <trkpt lat="42.64462" lon="1.8054">
        <ele>1555.07</ele>
        <time>2017-05-21T07:40:36Z</time>
      </trkpt>
      <trkpt lat="42.64462" lon="1.80535">
        <ele>1556.03</ele>
        <time>2017-05-21T07:41:55Z</time>
      </trkpt>
      <trkpt lat="42.64471" lon="1.80537">
        <ele>1559.4</ele>
        <time>2017-05-21T07:42:10Z</time>
      </trkpt>
      <trkpt lat="42.64488" lon="1.80522">
        <ele>1563.72</ele>
        <time>2017-05-21T07:42:44Z</time>
      </trkpt>
      <trkpt lat="42.64494" lon="1.80533">
        <ele>1562.76</ele>
        <time>2017-05-21T07:43:00Z</time>
      </trkpt>
      <trkpt lat="42.64506" lon="1.80546">
        <ele>1565.64</ele>
        <time>2017-05-21T07:43:52Z</time>
      </trkpt>
      <trkpt lat="42.64521" lon="1.8055">
        <ele>1570.45</ele>
        <time>2017-05-21T07:44:17Z</time>
      </trkpt>
      <trkpt lat="42.64539" lon="1.80564">
        <ele>1575.74</ele>
        <time>2017-05-21T07:44:52Z</time>
      </trkpt>
      <trkpt lat="42.64549" lon="1.8058">
        <ele>1581.51</ele>
        <time>2017-05-21T07:45:43Z</time>
      </trkpt>
      <trkpt lat="42.6456" lon="1.80585">
        <ele>1584.39</ele>
        <time>2017-05-21T07:46:01Z</time>
      </trkpt>
      <trkpt lat="42.64573" lon="1.80588">
        <ele>1589.68</ele>
        <time>2017-05-21T07:46:38Z</time>
      </trkpt>
      <trkpt lat="42.64584" lon="1.80593">
        <ele>1595.45</ele>
        <time>2017-05-21T07:47:21Z</time>
      </trkpt>
      <trkpt lat="42.64596" lon="1.80587">
        <ele>1598.33</ele>
        <time>2017-05-21T07:48:14Z</time>
      </trkpt>
      <trkpt lat="42.64602" lon="1.80595">
        <ele>1600.73</ele>
        <time>2017-05-21T07:48:32Z</time>
      </trkpt>
      <trkpt lat="42.64613" lon="1.80602">
        <ele>1603.62</ele>
        <time>2017-05-21T07:49:00Z</time>
      </trkpt>
      <trkpt lat="42.6462" lon="1.80607">
        <ele>1606.5</ele>
        <time>2017-05-21T07:49:21Z</time>
      </trkpt>
      <trkpt lat="42.64629" lon="1.80618">
        <ele>1610.35</ele>
        <time>2017-05-21T07:49:54Z</time>
      </trkpt>
      <trkpt lat="42.64638" lon="1.80629">
        <ele>1615.63</ele>
        <time>2017-05-21T07:50:26Z</time>
      </trkpt>
      <trkpt lat="42.64647" lon="1.80632">
        <ele>1618.04</ele>
        <time>2017-05-21T07:50:46Z</time>
      </trkpt>
      <trkpt lat="42.64657" lon="1.80637">
        <ele>1619.48</ele>
        <time>2017-05-21T07:51:05Z</time>
      </trkpt>
      <trkpt lat="42.64666" lon="1.80639">
        <ele>1619</ele>
        <time>2017-05-21T07:51:20Z</time>
      </trkpt>
      <trkpt lat="42.64674" lon="1.80647">
        <ele>1618.52</ele>
        <time>2017-05-21T07:51:32Z</time>
      </trkpt>
      <trkpt lat="42.6468" lon="1.80655">
        <ele>1618.04</ele>
        <time>2017-05-21T07:51:43Z</time>
      </trkpt>
      <trkpt lat="42.64679" lon="1.80666">
        <ele>1618.52</ele>
        <time>2017-05-21T07:51:51Z</time>
      </trkpt>
      <trkpt lat="42.64685" lon="1.80675">
        <ele>1617.56</ele>
        <time>2017-05-21T07:51:59Z</time>
      </trkpt>
      <trkpt lat="42.64691" lon="1.80683">
        <ele>1616.59</ele>
        <time>2017-05-21T07:52:06Z</time>
      </trkpt>
      <trkpt lat="42.64696" lon="1.80689">
        <ele>1615.63</ele>
        <time>2017-05-21T07:52:15Z</time>
      </trkpt>
      <trkpt lat="42.64701" lon="1.80692">
        <ele>1614.19</ele>
        <time>2017-05-21T07:52:35Z</time>
      </trkpt>
      <trkpt lat="42.6471" lon="1.80696">
        <ele>1613.71</ele>
        <time>2017-05-21T07:52:44Z</time>
      </trkpt>
      <trkpt lat="42.64718" lon="1.80702">
        <ele>1614.67</ele>
        <time>2017-05-21T07:52:53Z</time>
      </trkpt>
      <trkpt lat="42.64727" lon="1.80709">
        <ele>1614.67</ele>
        <time>2017-05-21T07:53:04Z</time>
      </trkpt>
      <trkpt lat="42.64735" lon="1.80718">
        <ele>1613.23</ele>
        <time>2017-05-21T07:53:16Z</time>
      </trkpt>
      <trkpt lat="42.64741" lon="1.80725">
        <ele>1613.23</ele>
        <time>2017-05-21T07:53:24Z</time>
      </trkpt>
      <trkpt lat="42.64743" lon="1.80734">
        <ele>1612.75</ele>
        <time>2017-05-21T07:53:33Z</time>
      </trkpt>
      <trkpt lat="42.64746" lon="1.80745">
        <ele>1611.31</ele>
        <time>2017-05-21T07:53:41Z</time>
      </trkpt>
      <trkpt lat="42.64754" lon="1.80752">
        <ele>1609.86</ele>
        <time>2017-05-21T07:53:52Z</time>
      </trkpt>
      <trkpt lat="42.64761" lon="1.8076">
        <ele>1608.9</ele>
        <time>2017-05-21T07:54:00Z</time>
      </trkpt>
      <trkpt lat="42.64768" lon="1.80769">
        <ele>1608.42</ele>
        <time>2017-05-21T07:54:11Z</time>
      </trkpt>
      <trkpt lat="42.64774" lon="1.80779">
        <ele>1607.46</ele>
        <time>2017-05-21T07:54:21Z</time>
      </trkpt>
      <trkpt lat="42.6478" lon="1.80785">
        <ele>1606.98</ele>
        <time>2017-05-21T07:54:32Z</time>
      </trkpt>
      <trkpt lat="42.64783" lon="1.80789">
        <ele>1607.94</ele>
        <time>2017-05-21T07:54:55Z</time>
      </trkpt>
      <trkpt lat="42.64781" lon="1.80783">
        <ele>1607.94</ele>
        <time>2017-05-21T07:56:19Z</time>
      </trkpt>
      <trkpt lat="42.64781" lon="1.80769">
        <ele>1610.83</ele>
        <time>2017-05-21T07:56:34Z</time>
      </trkpt>
      <trkpt lat="42.64785" lon="1.80756">
        <ele>1614.19</ele>
        <time>2017-05-21T07:56:55Z</time>
      </trkpt>
      <trkpt lat="42.64795" lon="1.80751">
        <ele>1618.52</ele>
        <time>2017-05-21T07:57:21Z</time>
      </trkpt>
      <trkpt lat="42.64806" lon="1.80745">
        <ele>1624.28</ele>
        <time>2017-05-21T07:57:50Z</time>
      </trkpt>
      <trkpt lat="42.64815" lon="1.80744">
        <ele>1627.65</ele>
        <time>2017-05-21T07:58:17Z</time>
      </trkpt>
      <trkpt lat="42.64824" lon="1.80749">
        <ele>1631.98</ele>
        <time>2017-05-21T07:59:10Z</time>
      </trkpt>
      <trkpt lat="42.64832" lon="1.80755">
        <ele>1635.82</ele>
        <time>2017-05-21T07:59:32Z</time>
      </trkpt>
      <trkpt lat="42.64842" lon="1.80762">
        <ele>1640.63</ele>
        <time>2017-05-21T08:00:11Z</time>
      </trkpt>
      <trkpt lat="42.64852" lon="1.80767">
        <ele>1643.99</ele>
        <time>2017-05-21T08:00:38Z</time>
      </trkpt>
      <trkpt lat="42.64862" lon="1.80771">
        <ele>1647.84</ele>
        <time>2017-05-21T08:01:03Z</time>
      </trkpt>
      <trkpt lat="42.64869" lon="1.80774">
        <ele>1650.72</ele>
        <time>2017-05-21T08:01:25Z</time>
      </trkpt>
      <trkpt lat="42.64878" lon="1.80777">
        <ele>1656.01</ele>
        <time>2017-05-21T08:01:53Z</time>
      </trkpt>
      <trkpt lat="42.64883" lon="1.80782">
        <ele>1658.41</ele>
        <time>2017-05-21T08:02:58Z</time>
      </trkpt>
      <trkpt lat="42.64892" lon="1.80779">
        <ele>1660.81</ele>
        <time>2017-05-21T08:03:15Z</time>
      </trkpt>
      <trkpt lat="42.649" lon="1.8078">
        <ele>1663.7</ele>
        <time>2017-05-21T08:03:36Z</time>
      </trkpt>
      <trkpt lat="42.6491" lon="1.80782">
        <ele>1664.66</ele>
        <time>2017-05-21T08:03:50Z</time>
      </trkpt>
      <trkpt lat="42.64917" lon="1.80782">
        <ele>1664.66</ele>
        <time>2017-05-21T08:04:30Z</time>
      </trkpt>
      <trkpt lat="42.64927" lon="1.80785">
        <ele>1666.1</ele>
        <time>2017-05-21T08:04:44Z</time>
      </trkpt>
      <trkpt lat="42.64936" lon="1.80782">
        <ele>1668.02</ele>
        <time>2017-05-21T08:05:01Z</time>
      </trkpt>
      <trkpt lat="42.64947" lon="1.80777">
        <ele>1669.95</ele>
        <time>2017-05-21T08:05:19Z</time>
      </trkpt>
      <trkpt lat="42.64958" lon="1.80772">
        <ele>1670.91</ele>
        <time>2017-05-21T08:05:41Z</time>
      </trkpt>
      <trkpt lat="42.64967" lon="1.80763">
        <ele>1674.27</ele>
        <time>2017-05-21T08:06:00Z</time>
      </trkpt>
      <trkpt lat="42.64977" lon="1.80757">
        <ele>1674.27</ele>
        <time>2017-05-21T08:06:20Z</time>
      </trkpt>
      <trkpt lat="42.64987" lon="1.80752">
        <ele>1675.23</ele>
        <time>2017-05-21T08:06:35Z</time>
      </trkpt>
      <trkpt lat="42.64998" lon="1.80754">
        <ele>1676.2</ele>
        <time>2017-05-21T08:06:50Z</time>
      </trkpt>
      <trkpt lat="42.6501" lon="1.80749">
        <ele>1677.64</ele>
        <time>2017-05-21T08:07:07Z</time>
      </trkpt>
      <trkpt lat="42.6502" lon="1.80752">
        <ele>1677.16</ele>
        <time>2017-05-21T08:07:20Z</time>
      </trkpt>
      <trkpt lat="42.6503" lon="1.80755">
        <ele>1677.64</ele>
        <time>2017-05-21T08:07:31Z</time>
      </trkpt>
      <trkpt lat="42.65037" lon="1.80761">
        <ele>1677.16</ele>
        <time>2017-05-21T08:07:45Z</time>
      </trkpt>
      <trkpt lat="42.65047" lon="1.8076">
        <ele>1677.64</ele>
        <time>2017-05-21T08:08:02Z</time>
      </trkpt>
      <trkpt lat="42.65053" lon="1.80771">
        <ele>1678.12</ele>
        <time>2017-05-21T08:08:15Z</time>
      </trkpt>
      <trkpt lat="42.65062" lon="1.80777">
        <ele>1678.12</ele>
        <time>2017-05-21T08:08:28Z</time>
      </trkpt>
      <trkpt lat="42.65071" lon="1.80783">
        <ele>1678.6</ele>
        <time>2017-05-21T08:08:42Z</time>
      </trkpt>
      <trkpt lat="42.6508" lon="1.8079">
        <ele>1679.08</ele>
        <time>2017-05-21T08:08:54Z</time>
      </trkpt>
      <trkpt lat="42.65088" lon="1.80799">
        <ele>1679.08</ele>
        <time>2017-05-21T08:09:07Z</time>
      </trkpt>
      <trkpt lat="42.65097" lon="1.80803">
        <ele>1680.04</ele>
        <time>2017-05-21T08:09:21Z</time>
      </trkpt>
      <trkpt lat="42.65107" lon="1.80806">
        <ele>1682.93</ele>
        <time>2017-05-21T08:09:36Z</time>
      </trkpt>
      <trkpt lat="42.65117" lon="1.80808">
        <ele>1685.33</ele>
        <time>2017-05-21T08:10:04Z</time>
      </trkpt>
      <trkpt lat="42.65125" lon="1.80814">
        <ele>1686.77</ele>
        <time>2017-05-21T08:10:18Z</time>
      </trkpt>
      <trkpt lat="42.65134" lon="1.80819">
        <ele>1688.21</ele>
        <time>2017-05-21T08:10:31Z</time>
      </trkpt>
      <trkpt lat="42.65142" lon="1.80826">
        <ele>1689.17</ele>
        <time>2017-05-21T08:10:44Z</time>
      </trkpt>
      <trkpt lat="42.65152" lon="1.8083">
        <ele>1691.1</ele>
        <time>2017-05-21T08:10:59Z</time>
      </trkpt>
      <trkpt lat="42.65161" lon="1.80831">
        <ele>1693.02</ele>
        <time>2017-05-21T08:11:11Z</time>
      </trkpt>
      <trkpt lat="42.65171" lon="1.8083">
        <ele>1694.94</ele>
        <time>2017-05-21T08:11:25Z</time>
      </trkpt>
      <trkpt lat="42.6518" lon="1.80833">
        <ele>1694.94</ele>
        <time>2017-05-21T08:12:21Z</time>
      </trkpt>
      <trkpt lat="42.65188" lon="1.80839">
        <ele>1695.9</ele>
        <time>2017-05-21T08:12:33Z</time>
      </trkpt>
      <trkpt lat="42.65196" lon="1.80847">
        <ele>1696.86</ele>
        <time>2017-05-21T08:12:46Z</time>
      </trkpt>
      <trkpt lat="42.65204" lon="1.80855">
        <ele>1699.27</ele>
        <time>2017-05-21T08:13:27Z</time>
      </trkpt>
      <trkpt lat="42.65213" lon="1.80859">
        <ele>1701.67</ele>
        <time>2017-05-21T08:13:46Z</time>
      </trkpt>
      <trkpt lat="42.65221" lon="1.80866">
        <ele>1704.07</ele>
        <time>2017-05-21T08:14:03Z</time>
      </trkpt>
      <trkpt lat="42.6523" lon="1.80872">
        <ele>1705.52</ele>
        <time>2017-05-21T08:14:19Z</time>
      </trkpt>
      <trkpt lat="42.65237" lon="1.8088">
        <ele>1708.4</ele>
        <time>2017-05-21T08:14:34Z</time>
      </trkpt>
      <trkpt lat="42.65246" lon="1.80889">
        <ele>1709.36</ele>
        <time>2017-05-21T08:14:49Z</time>
      </trkpt>
      <trkpt lat="42.65255" lon="1.80891">
        <ele>1711.28</ele>
        <time>2017-05-21T08:15:02Z</time>
      </trkpt>
      <trkpt lat="42.65267" lon="1.8089">
        <ele>1711.28</ele>
        <time>2017-05-21T08:15:15Z</time>
      </trkpt>
      <trkpt lat="42.65278" lon="1.8089">
        <ele>1711.76</ele>
        <time>2017-05-21T08:15:27Z</time>
      </trkpt>
      <trkpt lat="42.65288" lon="1.8089">
        <ele>1712.73</ele>
        <time>2017-05-21T08:15:40Z</time>
      </trkpt>
      <trkpt lat="42.65297" lon="1.80896">
        <ele>1711.76</ele>
        <time>2017-05-21T08:15:53Z</time>
      </trkpt>
      <trkpt lat="42.65306" lon="1.80902">
        <ele>1713.21</ele>
        <time>2017-05-21T08:16:08Z</time>
      </trkpt>
      <trkpt lat="42.65315" lon="1.8091">
        <ele>1714.65</ele>
        <time>2017-05-21T08:16:24Z</time>
      </trkpt>
      <trkpt lat="42.65323" lon="1.80913">
        <ele>1717.05</ele>
        <time>2017-05-21T08:16:43Z</time>
      </trkpt>
      <trkpt lat="42.65332" lon="1.8092">
        <ele>1720.9</ele>
        <time>2017-05-21T08:17:03Z</time>
      </trkpt>
      <trkpt lat="42.65341" lon="1.80927">
        <ele>1722.34</ele>
        <time>2017-05-21T08:17:21Z</time>
      </trkpt>
      <trkpt lat="42.6535" lon="1.80929">
        <ele>1725.22</ele>
        <time>2017-05-21T08:17:43Z</time>
      </trkpt>
      <trkpt lat="42.65359" lon="1.80933">
        <ele>1729.55</ele>
        <time>2017-05-21T08:18:10Z</time>
      </trkpt>
      <trkpt lat="42.65368" lon="1.80941">
        <ele>1733.88</ele>
        <time>2017-05-21T08:18:36Z</time>
      </trkpt>
      <trkpt lat="42.65377" lon="1.80942">
        <ele>1737.72</ele>
        <time>2017-05-21T08:19:05Z</time>
      </trkpt>
      <trkpt lat="42.65384" lon="1.80955">
        <ele>1741.08</ele>
        <time>2017-05-21T08:20:04Z</time>
      </trkpt>
      <trkpt lat="42.65388" lon="1.80965">
        <ele>1743.49</ele>
        <time>2017-05-21T08:20:21Z</time>
      </trkpt>
      <trkpt lat="42.65395" lon="1.80972">
        <ele>1746.85</ele>
        <time>2017-05-21T08:20:53Z</time>
      </trkpt>
      <trkpt lat="42.65404" lon="1.8098">
        <ele>1748.78</ele>
        <time>2017-05-21T08:21:12Z</time>
      </trkpt>
      <trkpt lat="42.65411" lon="1.80988">
        <ele>1749.74</ele>
        <time>2017-05-21T08:21:25Z</time>
      </trkpt>
      <trkpt lat="42.6542" lon="1.80996">
        <ele>1750.22</ele>
        <time>2017-05-21T08:21:38Z</time>
      </trkpt>
      <trkpt lat="42.65428" lon="1.81003">
        <ele>1752.14</ele>
        <time>2017-05-21T08:21:52Z</time>
      </trkpt>
      <trkpt lat="42.65436" lon="1.81009">
        <ele>1753.58</ele>
        <time>2017-05-21T08:22:04Z</time>
      </trkpt>
      <trkpt lat="42.65445" lon="1.81011">
        <ele>1754.06</ele>
        <time>2017-05-21T08:22:16Z</time>
      </trkpt>
      <trkpt lat="42.65454" lon="1.81018">
        <ele>1754.54</ele>
        <time>2017-05-21T08:22:27Z</time>
      </trkpt>
      <trkpt lat="42.65463" lon="1.81022">
        <ele>1755.5</ele>
        <time>2017-05-21T08:22:39Z</time>
      </trkpt>
      <trkpt lat="42.65471" lon="1.81026">
        <ele>1756.47</ele>
        <time>2017-05-21T08:22:51Z</time>
      </trkpt>
      <trkpt lat="42.65481" lon="1.8103">
        <ele>1757.43</ele>
        <time>2017-05-21T08:23:06Z</time>
      </trkpt>
      <trkpt lat="42.6549" lon="1.81035">
        <ele>1759.35</ele>
        <time>2017-05-21T08:23:21Z</time>
      </trkpt>
      <trkpt lat="42.65498" lon="1.81042">
        <ele>1760.79</ele>
        <time>2017-05-21T08:23:35Z</time>
      </trkpt>
      <trkpt lat="42.65505" lon="1.81049">
        <ele>1762.23</ele>
        <time>2017-05-21T08:23:51Z</time>
      </trkpt>
      <trkpt lat="42.65514" lon="1.81053">
        <ele>1765.12</ele>
        <time>2017-05-21T08:24:07Z</time>
      </trkpt>
      <trkpt lat="42.65523" lon="1.81059">
        <ele>1766.56</ele>
        <time>2017-05-21T08:24:22Z</time>
      </trkpt>
      <trkpt lat="42.65532" lon="1.81066">
        <ele>1768</ele>
        <time>2017-05-21T08:24:37Z</time>
      </trkpt>
      <trkpt lat="42.6554" lon="1.8107">
        <ele>1770.41</ele>
        <time>2017-05-21T08:24:55Z</time>
      </trkpt>
      <trkpt lat="42.65549" lon="1.81078">
        <ele>1772.33</ele>
        <time>2017-05-21T08:25:10Z</time>
      </trkpt>
      <trkpt lat="42.65557" lon="1.81087">
        <ele>1773.77</ele>
        <time>2017-05-21T08:25:24Z</time>
      </trkpt>
      <trkpt lat="42.65566" lon="1.81094">
        <ele>1777.13</ele>
        <time>2017-05-21T08:26:08Z</time>
      </trkpt>
      <trkpt lat="42.65572" lon="1.811">
        <ele>1775.69</ele>
        <time>2017-05-21T08:26:31Z</time>
      </trkpt>
      <trkpt lat="42.65582" lon="1.81107">
        <ele>1777.13</ele>
        <time>2017-05-21T08:26:46Z</time>
      </trkpt>
      <trkpt lat="42.65589" lon="1.81115">
        <ele>1779.06</ele>
        <time>2017-05-21T08:27:01Z</time>
      </trkpt>
      <trkpt lat="42.65596" lon="1.81124">
        <ele>1781.46</ele>
        <time>2017-05-21T08:27:16Z</time>
      </trkpt>
      <trkpt lat="42.65603" lon="1.81136">
        <ele>1783.38</ele>
        <time>2017-05-21T08:27:31Z</time>
      </trkpt>
      <trkpt lat="42.65611" lon="1.81143">
        <ele>1785.31</ele>
        <time>2017-05-21T08:27:47Z</time>
      </trkpt>
      <trkpt lat="42.6562" lon="1.81149">
        <ele>1787.23</ele>
        <time>2017-05-21T08:28:03Z</time>
      </trkpt>
      <trkpt lat="42.65625" lon="1.8116">
        <ele>1788.67</ele>
        <time>2017-05-21T08:28:17Z</time>
      </trkpt>
      <trkpt lat="42.65628" lon="1.81174">
        <ele>1791.07</ele>
        <time>2017-05-21T08:28:35Z</time>
      </trkpt>
      <trkpt lat="42.65631" lon="1.81186">
        <ele>1793</ele>
        <time>2017-05-21T08:28:50Z</time>
      </trkpt>
      <trkpt lat="42.65638" lon="1.81196">
        <ele>1794.92</ele>
        <time>2017-05-21T08:29:06Z</time>
      </trkpt>
      <trkpt lat="42.65643" lon="1.81208">
        <ele>1795.88</ele>
        <time>2017-05-21T08:29:22Z</time>
      </trkpt>
      <trkpt lat="42.65651" lon="1.81215">
        <ele>1797.32</ele>
        <time>2017-05-21T08:29:35Z</time>
      </trkpt>
      <trkpt lat="42.65661" lon="1.81217">
        <ele>1799.24</ele>
        <time>2017-05-21T08:29:50Z</time>
      </trkpt>
      <trkpt lat="42.65669" lon="1.8122">
        <ele>1801.17</ele>
        <time>2017-05-21T08:30:06Z</time>
      </trkpt>
      <trkpt lat="42.65677" lon="1.81225">
        <ele>1802.13</ele>
        <time>2017-05-21T08:30:20Z</time>
      </trkpt>
      <trkpt lat="42.65686" lon="1.8123">
        <ele>1804.53</ele>
        <time>2017-05-21T08:30:35Z</time>
      </trkpt>
      <trkpt lat="42.65694" lon="1.81236">
        <ele>1805.49</ele>
        <time>2017-05-21T08:30:48Z</time>
      </trkpt>
      <trkpt lat="42.65702" lon="1.8124">
        <ele>1806.94</ele>
        <time>2017-05-21T08:31:04Z</time>
      </trkpt>
      <trkpt lat="42.65711" lon="1.81246">
        <ele>1808.38</ele>
        <time>2017-05-21T08:31:17Z</time>
      </trkpt>
      <trkpt lat="42.65719" lon="1.81251">
        <ele>1809.82</ele>
        <time>2017-05-21T08:31:32Z</time>
      </trkpt>
      <trkpt lat="42.65727" lon="1.81258">
        <ele>1810.78</ele>
        <time>2017-05-21T08:31:48Z</time>
      </trkpt>
      <trkpt lat="42.65735" lon="1.81267">
        <ele>1811.74</ele>
        <time>2017-05-21T08:32:02Z</time>
      </trkpt>
      <trkpt lat="42.65743" lon="1.81274">
        <ele>1814.63</ele>
        <time>2017-05-21T08:32:20Z</time>
      </trkpt>
      <trkpt lat="42.65751" lon="1.81281">
        <ele>1817.03</ele>
        <time>2017-05-21T08:32:41Z</time>
      </trkpt>
      <trkpt lat="42.65761" lon="1.81285">
        <ele>1818.47</ele>
        <time>2017-05-21T08:32:56Z</time>
      </trkpt>
      <trkpt lat="42.6577" lon="1.81284">
        <ele>1818.47</ele>
        <time>2017-05-21T08:33:26Z</time>
      </trkpt>
      <trkpt lat="42.65778" lon="1.81281">
        <ele>1820.87</ele>
        <time>2017-05-21T08:33:39Z</time>
      </trkpt>
      <trkpt lat="42.65788" lon="1.81277">
        <ele>1824.24</ele>
        <time>2017-05-21T08:33:55Z</time>
      </trkpt>
      <trkpt lat="42.65794" lon="1.8127">
        <ele>1824.72</ele>
        <time>2017-05-21T08:34:08Z</time>
      </trkpt>
      <trkpt lat="42.65805" lon="1.81269">
        <ele>1827.6</ele>
        <time>2017-05-21T08:34:25Z</time>
      </trkpt>
      <trkpt lat="42.65814" lon="1.81266">
        <ele>1830.49</ele>
        <time>2017-05-21T08:34:40Z</time>
      </trkpt>
      <trkpt lat="42.65823" lon="1.81263">
        <ele>1831.45</ele>
        <time>2017-05-21T08:34:56Z</time>
      </trkpt>
      <trkpt lat="42.65834" lon="1.81262">
        <ele>1833.37</ele>
        <time>2017-05-21T08:35:12Z</time>
      </trkpt>
      <trkpt lat="42.65843" lon="1.81264">
        <ele>1834.81</ele>
        <time>2017-05-21T08:35:26Z</time>
      </trkpt>
      <trkpt lat="42.65854" lon="1.81262">
        <ele>1838.66</ele>
        <time>2017-05-21T08:35:42Z</time>
      </trkpt>
      <trkpt lat="42.65862" lon="1.8126">
        <ele>1836.74</ele>
        <time>2017-05-21T08:35:52Z</time>
      </trkpt>
      <trkpt lat="42.65872" lon="1.81257">
        <ele>1835.77</ele>
        <time>2017-05-21T08:36:03Z</time>
      </trkpt>
      <trkpt lat="42.6588" lon="1.81254">
        <ele>1838.66</ele>
        <time>2017-05-21T08:36:14Z</time>
      </trkpt>
      <trkpt lat="42.65889" lon="1.8125">
        <ele>1840.58</ele>
        <time>2017-05-21T08:36:25Z</time>
      </trkpt>
      <trkpt lat="42.65898" lon="1.81248">
        <ele>1838.66</ele>
        <time>2017-05-21T08:36:39Z</time>
      </trkpt>
      <trkpt lat="42.65908" lon="1.81248">
        <ele>1839.14</ele>
        <time>2017-05-21T08:36:52Z</time>
      </trkpt>
      <trkpt lat="42.65918" lon="1.81246">
        <ele>1839.14</ele>
        <time>2017-05-21T08:37:04Z</time>
      </trkpt>
      <trkpt lat="42.65927" lon="1.81244">
        <ele>1839.62</ele>
        <time>2017-05-21T08:37:19Z</time>
      </trkpt>
      <trkpt lat="42.65937" lon="1.81247">
        <ele>1843.95</ele>
        <time>2017-05-21T08:37:33Z</time>
      </trkpt>
      <trkpt lat="42.65945" lon="1.8125">
        <ele>1843.47</ele>
        <time>2017-05-21T08:37:53Z</time>
      </trkpt>
      <trkpt lat="42.65954" lon="1.81252">
        <ele>1844.43</ele>
        <time>2017-05-21T08:38:05Z</time>
      </trkpt>
      <trkpt lat="42.65963" lon="1.81254">
        <ele>1845.39</ele>
        <time>2017-05-21T08:38:17Z</time>
      </trkpt>
      <trkpt lat="42.65973" lon="1.81256">
        <ele>1847.31</ele>
        <time>2017-05-21T08:38:31Z</time>
      </trkpt>
      <trkpt lat="42.65982" lon="1.81261">
        <ele>1849.23</ele>
        <time>2017-05-21T08:38:44Z</time>
      </trkpt>
      <trkpt lat="42.65992" lon="1.81264">
        <ele>1850.19</ele>
        <time>2017-05-21T08:38:58Z</time>
      </trkpt>
      <trkpt lat="42.66001" lon="1.81267">
        <ele>1852.6</ele>
        <time>2017-05-21T08:39:14Z</time>
      </trkpt>
      <trkpt lat="42.66009" lon="1.81274">
        <ele>1854.04</ele>
        <time>2017-05-21T08:39:29Z</time>
      </trkpt>
      <trkpt lat="42.66019" lon="1.81279">
        <ele>1854.04</ele>
        <time>2017-05-21T08:39:46Z</time>
      </trkpt>
      <trkpt lat="42.66026" lon="1.81286">
        <ele>1856.92</ele>
        <time>2017-05-21T08:40:01Z</time>
      </trkpt>
      <trkpt lat="42.66031" lon="1.81295">
        <ele>1855.96</ele>
        <time>2017-05-21T08:40:15Z</time>
      </trkpt>
      <trkpt lat="42.66037" lon="1.81306">
        <ele>1856.44</ele>
        <time>2017-05-21T08:40:28Z</time>
      </trkpt>
      <trkpt lat="42.66043" lon="1.81317">
        <ele>1859.33</ele>
        <time>2017-05-21T08:40:41Z</time>
      </trkpt>
      <trkpt lat="42.66048" lon="1.81327">
        <ele>1859.33</ele>
        <time>2017-05-21T08:40:55Z</time>
      </trkpt>
      <trkpt lat="42.66056" lon="1.81335">
        <ele>1862.21</ele>
        <time>2017-05-21T08:41:10Z</time>
      </trkpt>
      <trkpt lat="42.66063" lon="1.81339">
        <ele>1861.25</ele>
        <time>2017-05-21T08:41:22Z</time>
      </trkpt>
      <trkpt lat="42.66072" lon="1.81343">
        <ele>1865.09</ele>
        <time>2017-05-21T08:41:37Z</time>
      </trkpt>
      <trkpt lat="42.66081" lon="1.81342">
        <ele>1867.98</ele>
        <time>2017-05-21T08:41:51Z</time>
      </trkpt>
      <trkpt lat="42.66091" lon="1.81341">
        <ele>1867.98</ele>
        <time>2017-05-21T08:42:10Z</time>
      </trkpt>
      <trkpt lat="42.66101" lon="1.81338">
        <ele>1867.5</ele>
        <time>2017-05-21T08:42:23Z</time>
      </trkpt>
      <trkpt lat="42.66111" lon="1.81336">
        <ele>1868.94</ele>
        <time>2017-05-21T08:42:35Z</time>
      </trkpt>
      <trkpt lat="42.6612" lon="1.8133">
        <ele>1867.5</ele>
        <time>2017-05-21T08:42:47Z</time>
      </trkpt>
      <trkpt lat="42.66129" lon="1.81329">
        <ele>1870.38</ele>
        <time>2017-05-21T08:43:03Z</time>
      </trkpt>
      <trkpt lat="42.66136" lon="1.81321">
        <ele>1871.82</ele>
        <time>2017-05-21T08:43:16Z</time>
      </trkpt>
      <trkpt lat="42.66141" lon="1.8131">
        <ele>1874.71</ele>
        <time>2017-05-21T08:43:29Z</time>
      </trkpt>
      <trkpt lat="42.66146" lon="1.81298">
        <ele>1876.15</ele>
        <time>2017-05-21T08:43:43Z</time>
      </trkpt>
      <trkpt lat="42.66151" lon="1.81285">
        <ele>1874.71</ele>
        <time>2017-05-21T08:43:57Z</time>
      </trkpt>
      <trkpt lat="42.66159" lon="1.81278">
        <ele>1876.63</ele>
        <time>2017-05-21T08:44:10Z</time>
      </trkpt>
      <trkpt lat="42.66167" lon="1.81269">
        <ele>1879.51</ele>
        <time>2017-05-21T08:44:26Z</time>
      </trkpt>
      <trkpt lat="42.66176" lon="1.81268">
        <ele>1880.96</ele>
        <time>2017-05-21T08:44:41Z</time>
      </trkpt>
      <trkpt lat="42.66179" lon="1.8126">
        <ele>1881.44</ele>
        <time>2017-05-21T08:45:31Z</time>
      </trkpt>
      <trkpt lat="42.66184" lon="1.81261">
        <ele>1882.88</ele>
        <time>2017-05-21T08:45:51Z</time>
      </trkpt>
      <trkpt lat="42.66196" lon="1.81264">
        <ele>1883.84</ele>
        <time>2017-05-21T08:46:09Z</time>
      </trkpt>
      <trkpt lat="42.66206" lon="1.81266">
        <ele>1884.32</ele>
        <time>2017-05-21T08:46:22Z</time>
      </trkpt>
      <trkpt lat="42.66216" lon="1.8127">
        <ele>1886.24</ele>
        <time>2017-05-21T08:46:39Z</time>
      </trkpt>
      <trkpt lat="42.66226" lon="1.81273">
        <ele>1889.61</ele>
        <time>2017-05-21T08:47:01Z</time>
      </trkpt>
      <trkpt lat="42.66238" lon="1.8127">
        <ele>1892.01</ele>
        <time>2017-05-21T08:47:24Z</time>
      </trkpt>
      <trkpt lat="42.66249" lon="1.81264">
        <ele>1894.9</ele>
        <time>2017-05-21T08:47:59Z</time>
      </trkpt>
      <trkpt lat="42.66255" lon="1.81268">
        <ele>1899.22</ele>
        <time>2017-05-21T08:48:19Z</time>
      </trkpt>
      <trkpt lat="42.66264" lon="1.81273">
        <ele>1895.86</ele>
        <time>2017-05-21T08:48:32Z</time>
      </trkpt>
      <trkpt lat="42.66273" lon="1.81275">
        <ele>1900.18</ele>
        <time>2017-05-21T08:48:42Z</time>
      </trkpt>
      <trkpt lat="42.6628" lon="1.81269">
        <ele>1898.74</ele>
        <time>2017-05-21T08:48:53Z</time>
      </trkpt>
      <trkpt lat="42.66279" lon="1.81262">
        <ele>1901.63</ele>
        <time>2017-05-21T08:49:37Z</time>
      </trkpt>
      <trkpt lat="42.66272" lon="1.81253">
        <ele>1902.11</ele>
        <time>2017-05-21T08:49:50Z</time>
      </trkpt>
      <trkpt lat="42.66268" lon="1.81242">
        <ele>1902.59</ele>
        <time>2017-05-21T08:50:24Z</time>
      </trkpt>
      <trkpt lat="42.66261" lon="1.81231">
        <ele>1903.07</ele>
        <time>2017-05-21T08:50:35Z</time>
      </trkpt>
      <trkpt lat="42.66256" lon="1.81221">
        <ele>1903.07</ele>
        <time>2017-05-21T08:50:46Z</time>
      </trkpt>
      <trkpt lat="42.6625" lon="1.81209">
        <ele>1903.55</ele>
        <time>2017-05-21T08:50:57Z</time>
      </trkpt>
      <trkpt lat="42.66244" lon="1.81196">
        <ele>1904.03</ele>
        <time>2017-05-21T08:51:09Z</time>
      </trkpt>
      <trkpt lat="42.66238" lon="1.81185">
        <ele>1904.51</ele>
        <time>2017-05-21T08:51:21Z</time>
      </trkpt>
      <trkpt lat="42.66234" lon="1.81174">
        <ele>1904.03</ele>
        <time>2017-05-21T08:51:35Z</time>
      </trkpt>
      <trkpt lat="42.66225" lon="1.81172">
        <ele>1903.55</ele>
        <time>2017-05-21T08:52:04Z</time>
      </trkpt>
      <trkpt lat="42.6622" lon="1.81176">
        <ele>1903.55</ele>
        <time>2017-05-21T08:52:43Z</time>
      </trkpt>
      <trkpt lat="42.66214" lon="1.81174">
        <ele>1900.66</ele>
        <time>2017-05-21T08:53:01Z</time>
      </trkpt>
      <trkpt lat="42.66205" lon="1.81173">
        <ele>1901.14</ele>
        <time>2017-05-21T08:53:14Z</time>
      </trkpt>
      <trkpt lat="42.662" lon="1.81184">
        <ele>1899.22</ele>
        <time>2017-05-21T08:53:27Z</time>
      </trkpt>
      <trkpt lat="42.66192" lon="1.81178">
        <ele>1899.7</ele>
        <time>2017-05-21T08:53:39Z</time>
      </trkpt>
      <trkpt lat="42.66185" lon="1.81169">
        <ele>1896.82</ele>
        <time>2017-05-21T08:53:50Z</time>
      </trkpt>
      <trkpt lat="42.66179" lon="1.81158">
        <ele>1895.38</ele>
        <time>2017-05-21T08:54:02Z</time>
      </trkpt>
      <trkpt lat="42.66174" lon="1.81147">
        <ele>1894.42</ele>
        <time>2017-05-21T08:54:12Z</time>
      </trkpt>
      <trkpt lat="42.66168" lon="1.81136">
        <ele>1895.86</ele>
        <time>2017-05-21T08:54:22Z</time>
      </trkpt>
      <trkpt lat="42.66162" lon="1.81126">
        <ele>1896.34</ele>
        <time>2017-05-21T08:54:34Z</time>
      </trkpt>
      <trkpt lat="42.66154" lon="1.81119">
        <ele>1898.74</ele>
        <time>2017-05-21T08:55:00Z</time>
      </trkpt>
      <trkpt lat="42.66148" lon="1.8111">
        <ele>1898.26</ele>
        <time>2017-05-21T08:55:10Z</time>
      </trkpt>
      <trkpt lat="42.66142" lon="1.81102">
        <ele>1899.7</ele>
        <time>2017-05-21T08:55:23Z</time>
      </trkpt>
      <trkpt lat="42.66133" lon="1.81094">
        <ele>1900.66</ele>
        <time>2017-05-21T08:55:37Z</time>
      </trkpt>
      <trkpt lat="42.66126" lon="1.81085">
        <ele>1901.14</ele>
        <time>2017-05-21T08:55:48Z</time>
      </trkpt>
      <trkpt lat="42.6612" lon="1.81076">
        <ele>1901.14</ele>
        <time>2017-05-21T08:55:59Z</time>
      </trkpt>
      <trkpt lat="42.66113" lon="1.81068">
        <ele>1900.66</ele>
        <time>2017-05-21T08:56:10Z</time>
      </trkpt>
      <trkpt lat="42.66107" lon="1.81057">
        <ele>1902.59</ele>
        <time>2017-05-21T08:56:21Z</time>
      </trkpt>
      <trkpt lat="42.66104" lon="1.81046">
        <ele>1899.7</ele>
        <time>2017-05-21T08:56:31Z</time>
      </trkpt>
      <trkpt lat="42.66101" lon="1.81035">
        <ele>1898.74</ele>
        <time>2017-05-21T08:56:40Z</time>
      </trkpt>
      <trkpt lat="42.66097" lon="1.81022">
        <ele>1898.26</ele>
        <time>2017-05-21T08:56:50Z</time>
      </trkpt>
      <trkpt lat="42.66092" lon="1.81011">
        <ele>1899.22</ele>
        <time>2017-05-21T08:56:59Z</time>
      </trkpt>
      <trkpt lat="42.66087" lon="1.81">
        <ele>1896.34</ele>
        <time>2017-05-21T08:57:08Z</time>
      </trkpt>
      <trkpt lat="42.66081" lon="1.8099">
        <ele>1898.74</ele>
        <time>2017-05-21T08:57:16Z</time>
      </trkpt>
      <trkpt lat="42.66072" lon="1.80982">
        <ele>1896.82</ele>
        <time>2017-05-21T08:57:26Z</time>
      </trkpt>
      <trkpt lat="42.66064" lon="1.80977">
        <ele>1898.26</ele>
        <time>2017-05-21T08:57:36Z</time>
      </trkpt>
      <trkpt lat="42.66058" lon="1.80968">
        <ele>1899.22</ele>
        <time>2017-05-21T08:57:44Z</time>
      </trkpt>
      <trkpt lat="42.66053" lon="1.80958">
        <ele>1900.18</ele>
        <time>2017-05-21T08:57:53Z</time>
      </trkpt>
      <trkpt lat="42.66047" lon="1.80947">
        <ele>1899.22</ele>
        <time>2017-05-21T08:58:03Z</time>
      </trkpt>
      <trkpt lat="42.66041" lon="1.80937">
        <ele>1902.11</ele>
        <time>2017-05-21T08:58:13Z</time>
      </trkpt>
      <trkpt lat="42.66035" lon="1.80929">
        <ele>1899.7</ele>
        <time>2017-05-21T08:58:24Z</time>
      </trkpt>
      <trkpt lat="42.66028" lon="1.80919">
        <ele>1902.11</ele>
        <time>2017-05-21T08:58:34Z</time>
      </trkpt>
      <trkpt lat="42.66022" lon="1.80913">
        <ele>1903.07</ele>
        <time>2017-05-21T08:58:45Z</time>
      </trkpt>
      <trkpt lat="42.66015" lon="1.80907">
        <ele>1903.55</ele>
        <time>2017-05-21T08:58:55Z</time>
      </trkpt>
      <trkpt lat="42.66008" lon="1.80898">
        <ele>1903.55</ele>
        <time>2017-05-21T08:59:05Z</time>
      </trkpt>
      <trkpt lat="42.66001" lon="1.80891">
        <ele>1907.87</ele>
        <time>2017-05-21T08:59:16Z</time>
      </trkpt>
      <trkpt lat="42.65994" lon="1.80883">
        <ele>1908.35</ele>
        <time>2017-05-21T08:59:27Z</time>
      </trkpt>
      <trkpt lat="42.65988" lon="1.80874">
        <ele>1911.24</ele>
        <time>2017-05-21T08:59:40Z</time>
      </trkpt>
      <trkpt lat="42.65982" lon="1.80865">
        <ele>1910.28</ele>
        <time>2017-05-21T08:59:52Z</time>
      </trkpt>
      <trkpt lat="42.65976" lon="1.80856">
        <ele>1916.04</ele>
        <time>2017-05-21T09:00:05Z</time>
      </trkpt>
      <trkpt lat="42.65971" lon="1.80848">
        <ele>1917.01</ele>
        <time>2017-05-21T09:00:18Z</time>
      </trkpt>
      <trkpt lat="42.65966" lon="1.80837">
        <ele>1920.37</ele>
        <time>2017-05-21T09:00:36Z</time>
      </trkpt>
      <trkpt lat="42.65962" lon="1.80826">
        <ele>1919.41</ele>
        <time>2017-05-21T09:00:53Z</time>
      </trkpt>
      <trkpt lat="42.6596" lon="1.80815">
        <ele>1921.33</ele>
        <time>2017-05-21T09:01:09Z</time>
      </trkpt>
      <trkpt lat="42.65957" lon="1.80804">
        <ele>1927.1</ele>
        <time>2017-05-21T09:01:25Z</time>
      </trkpt>
      <trkpt lat="42.65954" lon="1.80791">
        <ele>1929.02</ele>
        <time>2017-05-21T09:01:44Z</time>
      </trkpt>
      <trkpt lat="42.65947" lon="1.80783">
        <ele>1929.98</ele>
        <time>2017-05-21T09:02:06Z</time>
      </trkpt>
      <trkpt lat="42.65944" lon="1.8077">
        <ele>1932.87</ele>
        <time>2017-05-21T09:02:26Z</time>
      </trkpt>
      <trkpt lat="42.65939" lon="1.80757">
        <ele>1934.31</ele>
        <time>2017-05-21T09:02:44Z</time>
      </trkpt>
      <trkpt lat="42.65935" lon="1.80743">
        <ele>1938.16</ele>
        <time>2017-05-21T09:03:06Z</time>
      </trkpt>
      <trkpt lat="42.6593" lon="1.80731">
        <ele>1941.04</ele>
        <time>2017-05-21T09:03:29Z</time>
      </trkpt>
      <trkpt lat="42.65927" lon="1.80719">
        <ele>1944.4</ele>
        <time>2017-05-21T09:03:50Z</time>
      </trkpt>
      <trkpt lat="42.65925" lon="1.80705">
        <ele>1946.33</ele>
        <time>2017-05-21T09:04:13Z</time>
      </trkpt>
      <trkpt lat="42.65922" lon="1.8069">
        <ele>1948.73</ele>
        <time>2017-05-21T09:04:37Z</time>
      </trkpt>
      <trkpt lat="42.6593" lon="1.8068">
        <ele>1952.09</ele>
        <time>2017-05-21T09:04:58Z</time>
      </trkpt>
      <trkpt lat="42.65935" lon="1.80667">
        <ele>1953.54</ele>
        <time>2017-05-21T09:05:15Z</time>
      </trkpt>
      <trkpt lat="42.65939" lon="1.80654">
        <ele>1954.5</ele>
        <time>2017-05-21T09:05:34Z</time>
      </trkpt>
      <trkpt lat="42.65941" lon="1.80641">
        <ele>1957.86</ele>
        <time>2017-05-21T09:06:12Z</time>
      </trkpt>
      <trkpt lat="42.65945" lon="1.8063">
        <ele>1958.82</ele>
        <time>2017-05-21T09:06:27Z</time>
      </trkpt>
      <trkpt lat="42.65947" lon="1.80617">
        <ele>1959.78</ele>
        <time>2017-05-21T09:06:39Z</time>
      </trkpt>
      <trkpt lat="42.6595" lon="1.80603">
        <ele>1960.27</ele>
        <time>2017-05-21T09:06:51Z</time>
      </trkpt>
      <trkpt lat="42.65951" lon="1.80588">
        <ele>1960.75</ele>
        <time>2017-05-21T09:07:04Z</time>
      </trkpt>
      <trkpt lat="42.65953" lon="1.80576">
        <ele>1961.23</ele>
        <time>2017-05-21T09:07:16Z</time>
      </trkpt>
      <trkpt lat="42.65954" lon="1.80563">
        <ele>1960.75</ele>
        <time>2017-05-21T09:07:27Z</time>
      </trkpt>
      <trkpt lat="42.65956" lon="1.80551">
        <ele>1962.19</ele>
        <time>2017-05-21T09:07:38Z</time>
      </trkpt>
      <trkpt lat="42.65956" lon="1.80538">
        <ele>1964.11</ele>
        <time>2017-05-21T09:07:48Z</time>
      </trkpt>
      <trkpt lat="42.65957" lon="1.80525">
        <ele>1964.59</ele>
        <time>2017-05-21T09:07:58Z</time>
      </trkpt>
      <trkpt lat="42.65955" lon="1.80513">
        <ele>1964.11</ele>
        <time>2017-05-21T09:08:09Z</time>
      </trkpt>
      <trkpt lat="42.6595" lon="1.80501">
        <ele>1965.55</ele>
        <time>2017-05-21T09:08:21Z</time>
      </trkpt>
      <trkpt lat="42.65945" lon="1.80491">
        <ele>1964.59</ele>
        <time>2017-05-21T09:08:31Z</time>
      </trkpt>
      <trkpt lat="42.65938" lon="1.80481">
        <ele>1968.44</ele>
        <time>2017-05-21T09:08:43Z</time>
      </trkpt>
      <trkpt lat="42.65928" lon="1.80479">
        <ele>1969.88</ele>
        <time>2017-05-21T09:08:57Z</time>
      </trkpt>
      <trkpt lat="42.65915" lon="1.8048">
        <ele>1972.76</ele>
        <time>2017-05-21T09:09:14Z</time>
      </trkpt>
      <trkpt lat="42.65904" lon="1.80485">
        <ele>1973.24</ele>
        <time>2017-05-21T09:09:34Z</time>
      </trkpt>
      <trkpt lat="42.65888" lon="1.80486">
        <ele>1978.53</ele>
        <time>2017-05-21T09:10:02Z</time>
      </trkpt>
      <trkpt lat="42.65876" lon="1.80486">
        <ele>1982.86</ele>
        <time>2017-05-21T09:10:25Z</time>
      </trkpt>
      <trkpt lat="42.65865" lon="1.80479">
        <ele>1983.82</ele>
        <time>2017-05-21T09:10:42Z</time>
      </trkpt>
      <trkpt lat="42.65857" lon="1.80489">
        <ele>1987.66</ele>
        <time>2017-05-21T09:11:04Z</time>
      </trkpt>
      <trkpt lat="42.65843" lon="1.80483">
        <ele>1990.55</ele>
        <time>2017-05-21T09:11:30Z</time>
      </trkpt>
      <trkpt lat="42.65825" lon="1.80479">
        <ele>1995.83</ele>
        <time>2017-05-21T09:12:07Z</time>
      </trkpt>
      <trkpt lat="42.6581" lon="1.80475">
        <ele>2000.16</ele>
        <time>2017-05-21T09:12:33Z</time>
      </trkpt>
      <trkpt lat="42.65798" lon="1.80479">
        <ele>2001.6</ele>
        <time>2017-05-21T09:12:53Z</time>
      </trkpt>
      <trkpt lat="42.65787" lon="1.80477">
        <ele>2004.01</ele>
        <time>2017-05-21T09:13:13Z</time>
      </trkpt>
      <trkpt lat="42.65779" lon="1.80469">
        <ele>2004.49</ele>
        <time>2017-05-21T09:13:32Z</time>
      </trkpt>
      <trkpt lat="42.65772" lon="1.80463">
        <ele>2007.85</ele>
        <time>2017-05-21T09:13:51Z</time>
      </trkpt>
      <trkpt lat="42.65763" lon="1.80449">
        <ele>2009.29</ele>
        <time>2017-05-21T09:14:08Z</time>
      </trkpt>
      <trkpt lat="42.65753" lon="1.8044">
        <ele>2011.7</ele>
        <time>2017-05-21T09:14:26Z</time>
      </trkpt>
      <trkpt lat="42.65747" lon="1.8043">
        <ele>2014.58</ele>
        <time>2017-05-21T09:14:46Z</time>
      </trkpt>
      <trkpt lat="42.65742" lon="1.80413">
        <ele>2017.46</ele>
        <time>2017-05-21T09:15:09Z</time>
      </trkpt>
      <trkpt lat="42.65737" lon="1.80397">
        <ele>2018.43</ele>
        <time>2017-05-21T09:15:29Z</time>
      </trkpt>
      <trkpt lat="42.65729" lon="1.80391">
        <ele>2020.83</ele>
        <time>2017-05-21T09:15:46Z</time>
      </trkpt>
      <trkpt lat="42.65718" lon="1.80384">
        <ele>2023.23</ele>
        <time>2017-05-21T09:16:09Z</time>
      </trkpt>
      <trkpt lat="42.65707" lon="1.80376">
        <ele>2025.15</ele>
        <time>2017-05-21T09:16:30Z</time>
      </trkpt>
      <trkpt lat="42.65696" lon="1.8037">
        <ele>2028.04</ele>
        <time>2017-05-21T09:16:56Z</time>
      </trkpt>
      <trkpt lat="42.6569" lon="1.80361">
        <ele>2029.96</ele>
        <time>2017-05-21T09:17:15Z</time>
      </trkpt>
      <trkpt lat="42.65685" lon="1.80355">
        <ele>2033.33</ele>
        <time>2017-05-21T09:18:09Z</time>
      </trkpt>
      <trkpt lat="42.65676" lon="1.80345">
        <ele>2034.77</ele>
        <time>2017-05-21T09:18:27Z</time>
      </trkpt>
      <trkpt lat="42.65668" lon="1.80338">
        <ele>2036.69</ele>
        <time>2017-05-21T09:18:41Z</time>
      </trkpt>
      <trkpt lat="42.65662" lon="1.8033">
        <ele>2038.61</ele>
        <time>2017-05-21T09:18:59Z</time>
      </trkpt>
      <trkpt lat="42.65657" lon="1.80319">
        <ele>2041.5</ele>
        <time>2017-05-21T09:19:21Z</time>
      </trkpt>
      <trkpt lat="42.6565" lon="1.80309">
        <ele>2043.9</ele>
        <time>2017-05-21T09:19:39Z</time>
      </trkpt>
      <trkpt lat="42.65643" lon="1.80301">
        <ele>2046.78</ele>
        <time>2017-05-21T09:20:06Z</time>
      </trkpt>
      <trkpt lat="42.65637" lon="1.80294">
        <ele>2049.19</ele>
        <time>2017-05-21T09:20:54Z</time>
      </trkpt>
      <trkpt lat="42.65628" lon="1.80281">
        <ele>2053.51</ele>
        <time>2017-05-21T09:21:24Z</time>
      </trkpt>
      <trkpt lat="42.65621" lon="1.80269">
        <ele>2056.88</ele>
        <time>2017-05-21T09:21:49Z</time>
      </trkpt>
      <trkpt lat="42.65616" lon="1.80257">
        <ele>2059.76</ele>
        <time>2017-05-21T09:22:12Z</time>
      </trkpt>
      <trkpt lat="42.65611" lon="1.80245">
        <ele>2061.68</ele>
        <time>2017-05-21T09:22:36Z</time>
      </trkpt>
      <trkpt lat="42.65609" lon="1.80233">
        <ele>2065.05</ele>
        <time>2017-05-21T09:22:58Z</time>
      </trkpt>
      <trkpt lat="42.65602" lon="1.80225">
        <ele>2067.45</ele>
        <time>2017-05-21T09:23:19Z</time>
      </trkpt>
      <trkpt lat="42.65597" lon="1.80215">
        <ele>2070.34</ele>
        <time>2017-05-21T09:23:44Z</time>
      </trkpt>
      <trkpt lat="42.65591" lon="1.80205">
        <ele>2074.18</ele>
        <time>2017-05-21T09:24:10Z</time>
      </trkpt>
      <trkpt lat="42.65585" lon="1.80189">
        <ele>2077.07</ele>
        <time>2017-05-21T09:25:19Z</time>
      </trkpt>
      <trkpt lat="42.65581" lon="1.80178">
        <ele>2079.95</ele>
        <time>2017-05-21T09:25:38Z</time>
      </trkpt>
      <trkpt lat="42.65577" lon="1.80166">
        <ele>2083.31</ele>
        <time>2017-05-21T09:25:56Z</time>
      </trkpt>
      <trkpt lat="42.65569" lon="1.80153">
        <ele>2086.68</ele>
        <time>2017-05-21T09:26:24Z</time>
      </trkpt>
      <trkpt lat="42.65563" lon="1.80139">
        <ele>2089.56</ele>
        <time>2017-05-21T09:26:50Z</time>
      </trkpt>
      <trkpt lat="42.65559" lon="1.80127">
        <ele>2091.97</ele>
        <time>2017-05-21T09:27:07Z</time>
      </trkpt>
      <trkpt lat="42.65554" lon="1.80115">
        <ele>2094.85</ele>
        <time>2017-05-21T09:27:27Z</time>
      </trkpt>
      <trkpt lat="42.65551" lon="1.80104">
        <ele>2096.29</ele>
        <time>2017-05-21T09:27:45Z</time>
      </trkpt>
      <trkpt lat="42.65545" lon="1.80092">
        <ele>2098.7</ele>
        <time>2017-05-21T09:28:03Z</time>
      </trkpt>
      <trkpt lat="42.65542" lon="1.80082">
        <ele>2101.1</ele>
        <time>2017-05-21T09:28:20Z</time>
      </trkpt>
      <trkpt lat="42.65535" lon="1.80074">
        <ele>2103.02</ele>
        <time>2017-05-21T09:28:43Z</time>
      </trkpt>
      <trkpt lat="42.65529" lon="1.80064">
        <ele>2105.42</ele>
        <time>2017-05-21T09:29:04Z</time>
      </trkpt>
      <trkpt lat="42.65522" lon="1.80052">
        <ele>2107.83</ele>
        <time>2017-05-21T09:29:24Z</time>
      </trkpt>
      <trkpt lat="42.65517" lon="1.80041">
        <ele>2108.79</ele>
        <time>2017-05-21T09:29:40Z</time>
      </trkpt>
      <trkpt lat="42.65511" lon="1.80031">
        <ele>2110.71</ele>
        <time>2017-05-21T09:29:57Z</time>
      </trkpt>
      <trkpt lat="42.65509" lon="1.8002">
        <ele>2112.63</ele>
        <time>2017-05-21T09:30:11Z</time>
      </trkpt>
      <trkpt lat="42.65504" lon="1.8001">
        <ele>2114.08</ele>
        <time>2017-05-21T09:30:27Z</time>
      </trkpt>
      <trkpt lat="42.65499" lon="1.8">
        <ele>2116.48</ele>
        <time>2017-05-21T09:30:44Z</time>
      </trkpt>
      <trkpt lat="42.65494" lon="1.7999">
        <ele>2118.4</ele>
        <time>2017-05-21T09:30:59Z</time>
      </trkpt>
      <trkpt lat="42.6549" lon="1.79982">
        <ele>2120.81</ele>
        <time>2017-05-21T09:31:15Z</time>
      </trkpt>
      <trkpt lat="42.65483" lon="1.79972">
        <ele>2123.69</ele>
        <time>2017-05-21T09:31:37Z</time>
      </trkpt>
      <trkpt lat="42.65479" lon="1.79962">
        <ele>2125.61</ele>
        <time>2017-05-21T09:31:52Z</time>
      </trkpt>
      <trkpt lat="42.65472" lon="1.79953">
        <ele>2128.5</ele>
        <time>2017-05-21T09:32:14Z</time>
      </trkpt>
      <trkpt lat="42.65466" lon="1.79941">
        <ele>2130.9</ele>
        <time>2017-05-21T09:32:35Z</time>
      </trkpt>
      <trkpt lat="42.65458" lon="1.79934">
        <ele>2133.78</ele>
        <time>2017-05-21T09:32:55Z</time>
      </trkpt>
      <trkpt lat="42.65452" lon="1.79925">
        <ele>2136.19</ele>
        <time>2017-05-21T09:33:12Z</time>
      </trkpt>
      <trkpt lat="42.65447" lon="1.79914">
        <ele>2139.55</ele>
        <time>2017-05-21T09:33:36Z</time>
      </trkpt>
      <trkpt lat="42.65443" lon="1.79904">
        <ele>2142.44</ele>
        <time>2017-05-21T09:34:11Z</time>
      </trkpt>
      <trkpt lat="42.65439" lon="1.79893">
        <ele>2143.88</ele>
        <time>2017-05-21T09:34:40Z</time>
      </trkpt>
      <trkpt lat="42.65435" lon="1.79881">
        <ele>2146.76</ele>
        <time>2017-05-21T09:35:00Z</time>
      </trkpt>
      <trkpt lat="42.65431" lon="1.79869">
        <ele>2148.68</ele>
        <time>2017-05-21T09:35:20Z</time>
      </trkpt>
      <trkpt lat="42.65425" lon="1.79857">
        <ele>2150.61</ele>
        <time>2017-05-21T09:35:41Z</time>
      </trkpt>
      <trkpt lat="42.65424" lon="1.79844">
        <ele>2153.97</ele>
        <time>2017-05-21T09:36:03Z</time>
      </trkpt>
      <trkpt lat="42.6542" lon="1.79831">
        <ele>2156.37</ele>
        <time>2017-05-21T09:36:24Z</time>
      </trkpt>
      <trkpt lat="42.65416" lon="1.79821">
        <ele>2159.26</ele>
        <time>2017-05-21T09:36:45Z</time>
      </trkpt>
      <trkpt lat="42.6541" lon="1.79814">
        <ele>2160.22</ele>
        <time>2017-05-21T09:37:10Z</time>
      </trkpt>
      <trkpt lat="42.65415" lon="1.79812">
        <ele>2160.7</ele>
        <time>2017-05-21T09:38:22Z</time>
      </trkpt>
      <trkpt lat="42.65414" lon="1.79799">
        <ele>2161.18</ele>
        <time>2017-05-21T09:38:35Z</time>
      </trkpt>
      <trkpt lat="42.65414" lon="1.79787">
        <ele>2162.14</ele>
        <time>2017-05-21T09:39:04Z</time>
      </trkpt>
      <trkpt lat="42.65413" lon="1.79775">
        <ele>2163.58</ele>
        <time>2017-05-21T09:39:19Z</time>
      </trkpt>
      <trkpt lat="42.65411" lon="1.79762">
        <ele>2164.55</ele>
        <time>2017-05-21T09:39:39Z</time>
      </trkpt>
      <trkpt lat="42.65409" lon="1.7975">
        <ele>2165.99</ele>
        <time>2017-05-21T09:39:53Z</time>
      </trkpt>
      <trkpt lat="42.65407" lon="1.79739">
        <ele>2168.39</ele>
        <time>2017-05-21T09:40:09Z</time>
      </trkpt>
      <trkpt lat="42.65401" lon="1.79728">
        <ele>2170.31</ele>
        <time>2017-05-21T09:40:25Z</time>
      </trkpt>
      <trkpt lat="42.65399" lon="1.79715">
        <ele>2171.76</ele>
        <time>2017-05-21T09:40:49Z</time>
      </trkpt>
      <trkpt lat="42.65394" lon="1.79704">
        <ele>2173.68</ele>
        <time>2017-05-21T09:41:07Z</time>
      </trkpt>
      <trkpt lat="42.65391" lon="1.79692">
        <ele>2175.12</ele>
        <time>2017-05-21T09:41:24Z</time>
      </trkpt>
      <trkpt lat="42.65387" lon="1.79679">
        <ele>2176.08</ele>
        <time>2017-05-21T09:41:42Z</time>
      </trkpt>
      <trkpt lat="42.65384" lon="1.79666">
        <ele>2179.45</ele>
        <time>2017-05-21T09:42:03Z</time>
      </trkpt>
      <trkpt lat="42.65383" lon="1.79655">
        <ele>2180.89</ele>
        <time>2017-05-21T09:42:21Z</time>
      </trkpt>
      <trkpt lat="42.65384" lon="1.79642">
        <ele>2182.81</ele>
        <time>2017-05-21T09:42:41Z</time>
      </trkpt>
      <trkpt lat="42.65374" lon="1.79637">
        <ele>2186.66</ele>
        <time>2017-05-21T09:43:24Z</time>
      </trkpt>
      <trkpt lat="42.65373" lon="1.79624">
        <ele>2189.54</ele>
        <time>2017-05-21T09:43:46Z</time>
      </trkpt>
      <trkpt lat="42.6537" lon="1.7961">
        <ele>2188.58</ele>
        <time>2017-05-21T09:44:03Z</time>
      </trkpt>
      <trkpt lat="42.65368" lon="1.79598">
        <ele>2188.58</ele>
        <time>2017-05-21T09:44:17Z</time>
      </trkpt>
      <trkpt lat="42.65368" lon="1.79585">
        <ele>2188.1</ele>
        <time>2017-05-21T09:44:27Z</time>
      </trkpt>
      <trkpt lat="42.65368" lon="1.79572">
        <ele>2188.58</ele>
        <time>2017-05-21T09:44:38Z</time>
      </trkpt>
      <trkpt lat="42.65363" lon="1.79561">
        <ele>2191.46</ele>
        <time>2017-05-21T09:44:55Z</time>
      </trkpt>
      <trkpt lat="42.65364" lon="1.7955">
        <ele>2195.79</ele>
        <time>2017-05-21T09:45:17Z</time>
      </trkpt>
      <trkpt lat="42.65359" lon="1.79542">
        <ele>2199.15</ele>
        <time>2017-05-21T09:45:43Z</time>
      </trkpt>
      <trkpt lat="42.65356" lon="1.79531">
        <ele>2203</ele>
        <time>2017-05-21T09:46:15Z</time>
      </trkpt>
      <trkpt lat="42.65352" lon="1.79518">
        <ele>2207.81</ele>
        <time>2017-05-21T09:46:50Z</time>
      </trkpt>
      <trkpt lat="42.65349" lon="1.79506">
        <ele>2210.21</ele>
        <time>2017-05-21T09:47:16Z</time>
      </trkpt>
      <trkpt lat="42.65346" lon="1.79493">
        <ele>2214.05</ele>
        <time>2017-05-21T09:47:45Z</time>
      </trkpt>
      <trkpt lat="42.65341" lon="1.79482">
        <ele>2215.98</ele>
        <time>2017-05-21T09:48:07Z</time>
      </trkpt>
      <trkpt lat="42.65339" lon="1.79468">
        <ele>2218.38</ele>
        <time>2017-05-21T09:48:30Z</time>
      </trkpt>
      <trkpt lat="42.65338" lon="1.79454">
        <ele>2219.82</ele>
        <time>2017-05-21T09:48:48Z</time>
      </trkpt>
      <trkpt lat="42.65335" lon="1.79441">
        <ele>2221.74</ele>
        <time>2017-05-21T09:49:05Z</time>
      </trkpt>
      <trkpt lat="42.6533" lon="1.7943">
        <ele>2221.26</ele>
        <time>2017-05-21T09:49:19Z</time>
      </trkpt>
      <trkpt lat="42.65326" lon="1.79416">
        <ele>2221.74</ele>
        <time>2017-05-21T09:50:01Z</time>
      </trkpt>
      <trkpt lat="42.65324" lon="1.79405">
        <ele>2224.15</ele>
        <time>2017-05-21T09:50:17Z</time>
      </trkpt>
      <trkpt lat="42.65319" lon="1.79392">
        <ele>2225.59</ele>
        <time>2017-05-21T09:50:37Z</time>
      </trkpt>
      <trkpt lat="42.65311" lon="1.79379">
        <ele>2228.95</ele>
        <time>2017-05-21T09:51:01Z</time>
      </trkpt>
      <trkpt lat="42.65307" lon="1.79365">
        <ele>2230.4</ele>
        <time>2017-05-21T09:51:19Z</time>
      </trkpt>
      <trkpt lat="42.65301" lon="1.79353">
        <ele>2231.84</ele>
        <time>2017-05-21T09:51:35Z</time>
      </trkpt>
      <trkpt lat="42.65296" lon="1.79343">
        <ele>2233.76</ele>
        <time>2017-05-21T09:51:52Z</time>
      </trkpt>
      <trkpt lat="42.65292" lon="1.79331">
        <ele>2236.16</ele>
        <time>2017-05-21T09:52:10Z</time>
      </trkpt>
      <trkpt lat="42.65286" lon="1.79319">
        <ele>2239.53</ele>
        <time>2017-05-21T09:52:41Z</time>
      </trkpt>
      <trkpt lat="42.65276" lon="1.7931">
        <ele>2243.37</ele>
        <time>2017-05-21T09:53:08Z</time>
      </trkpt>
      <trkpt lat="42.65267" lon="1.79304">
        <ele>2245.3</ele>
        <time>2017-05-21T09:53:31Z</time>
      </trkpt>
      <trkpt lat="42.65264" lon="1.79294">
        <ele>2248.18</ele>
        <time>2017-05-21T09:53:53Z</time>
      </trkpt>
      <trkpt lat="42.65258" lon="1.79283">
        <ele>2251.54</ele>
        <time>2017-05-21T09:54:21Z</time>
      </trkpt>
      <trkpt lat="42.65254" lon="1.79271">
        <ele>2255.87</ele>
        <time>2017-05-21T09:54:57Z</time>
      </trkpt>
      <trkpt lat="42.65252" lon="1.79258">
        <ele>2259.72</ele>
        <time>2017-05-21T09:55:28Z</time>
      </trkpt>
      <trkpt lat="42.6525" lon="1.79244">
        <ele>2263.56</ele>
        <time>2017-05-21T09:55:59Z</time>
      </trkpt>
      <trkpt lat="42.65247" lon="1.79232">
        <ele>2266.93</ele>
        <time>2017-05-21T09:56:26Z</time>
      </trkpt>
      <trkpt lat="42.65244" lon="1.79221">
        <ele>2270.29</ele>
        <time>2017-05-21T09:56:50Z</time>
      </trkpt>
      <trkpt lat="42.65244" lon="1.79208">
        <ele>2273.17</ele>
        <time>2017-05-21T09:57:17Z</time>
      </trkpt>
      <trkpt lat="42.65243" lon="1.79194">
        <ele>2276.06</ele>
        <time>2017-05-21T09:57:45Z</time>
      </trkpt>
      <trkpt lat="42.65242" lon="1.79177">
        <ele>2279.42</ele>
        <time>2017-05-21T09:58:16Z</time>
      </trkpt>
      <trkpt lat="42.65235" lon="1.79175">
        <ele>2284.23</ele>
        <time>2017-05-21T09:58:52Z</time>
      </trkpt>
      <trkpt lat="42.65224" lon="1.79172">
        <ele>2288.56</ele>
        <time>2017-05-21T09:59:30Z</time>
      </trkpt>
      <trkpt lat="42.65223" lon="1.79158">
        <ele>2291.44</ele>
        <time>2017-05-21T10:00:01Z</time>
      </trkpt>
      <trkpt lat="42.65224" lon="1.79146">
        <ele>2293.36</ele>
        <time>2017-05-21T10:00:22Z</time>
      </trkpt>
      <trkpt lat="42.65222" lon="1.79132">
        <ele>2295.28</ele>
        <time>2017-05-21T10:00:45Z</time>
      </trkpt>
      <trkpt lat="42.65222" lon="1.7912">
        <ele>2293.36</ele>
        <time>2017-05-21T10:01:05Z</time>
      </trkpt>
      <trkpt lat="42.65224" lon="1.79109">
        <ele>2294.32</ele>
        <time>2017-05-21T10:01:18Z</time>
      </trkpt>
      <trkpt lat="42.65221" lon="1.79096">
        <ele>2297.69</ele>
        <time>2017-05-21T10:01:42Z</time>
      </trkpt>
      <trkpt lat="42.65221" lon="1.79081">
        <ele>2301.05</ele>
        <time>2017-05-21T10:02:10Z</time>
      </trkpt>
      <trkpt lat="42.65218" lon="1.7907">
        <ele>2303.46</ele>
        <time>2017-05-21T10:02:37Z</time>
      </trkpt>
      <trkpt lat="42.65212" lon="1.79058">
        <ele>2305.86</ele>
        <time>2017-05-21T10:03:18Z</time>
      </trkpt>
      <trkpt lat="42.65212" lon="1.79047">
        <ele>2308.74</ele>
        <time>2017-05-21T10:03:41Z</time>
      </trkpt>
      <trkpt lat="42.65213" lon="1.79035">
        <ele>2313.07</ele>
        <time>2017-05-21T10:04:08Z</time>
      </trkpt>
      <trkpt lat="42.6521" lon="1.79021">
        <ele>2316.91</ele>
        <time>2017-05-21T10:04:42Z</time>
      </trkpt>
      <trkpt lat="42.65205" lon="1.7901">
        <ele>2322.2</ele>
        <time>2017-05-21T10:05:22Z</time>
      </trkpt>
      <trkpt lat="42.65202" lon="1.78999">
        <ele>2326.53</ele>
        <time>2017-05-21T10:05:48Z</time>
      </trkpt>
      <trkpt lat="42.65198" lon="1.78986">
        <ele>2327.49</ele>
        <time>2017-05-21T10:06:11Z</time>
      </trkpt>
      <trkpt lat="42.65195" lon="1.78974">
        <ele>2328.93</ele>
        <time>2017-05-21T10:06:33Z</time>
      </trkpt>
      <trkpt lat="42.65193" lon="1.7896">
        <ele>2330.37</ele>
        <time>2017-05-21T10:06:54Z</time>
      </trkpt>
      <trkpt lat="42.6519" lon="1.7895">
        <ele>2333.74</ele>
        <time>2017-05-21T10:07:16Z</time>
      </trkpt>
      <trkpt lat="42.65187" lon="1.78938">
        <ele>2335.66</ele>
        <time>2017-05-21T10:07:37Z</time>
      </trkpt>
      <trkpt lat="42.65188" lon="1.7893">
        <ele>2336.14</ele>
        <time>2017-05-21T10:08:46Z</time>
      </trkpt>
      <trkpt lat="42.65183" lon="1.7892">
        <ele>2339.02</ele>
        <time>2017-05-21T10:09:03Z</time>
      </trkpt>
      <trkpt lat="42.6518" lon="1.7891">
        <ele>2341.43</ele>
        <time>2017-05-21T10:09:46Z</time>
      </trkpt>
      <trkpt lat="42.65177" lon="1.78896">
        <ele>2345.75</ele>
        <time>2017-05-21T10:10:16Z</time>
      </trkpt>
      <trkpt lat="42.65172" lon="1.78883">
        <ele>2350.08</ele>
        <time>2017-05-21T10:10:47Z</time>
      </trkpt>
      <trkpt lat="42.65169" lon="1.78875">
        <ele>2352.96</ele>
        <time>2017-05-21T10:11:17Z</time>
      </trkpt>
      <trkpt lat="42.65166" lon="1.78864">
        <ele>2357.29</ele>
        <time>2017-05-21T10:11:49Z</time>
      </trkpt>
      <trkpt lat="42.65161" lon="1.78854">
        <ele>2359.21</ele>
        <time>2017-05-21T10:12:13Z</time>
      </trkpt>
      <trkpt lat="42.65159" lon="1.78842">
        <ele>2362.58</ele>
        <time>2017-05-21T10:12:55Z</time>
      </trkpt>
      <trkpt lat="42.65155" lon="1.78831">
        <ele>2365.46</ele>
        <time>2017-05-21T10:13:22Z</time>
      </trkpt>
      <trkpt lat="42.65153" lon="1.78818">
        <ele>2368.83</ele>
        <time>2017-05-21T10:14:01Z</time>
      </trkpt>
      <trkpt lat="42.65154" lon="1.78804">
        <ele>2370.75</ele>
        <time>2017-05-21T10:14:19Z</time>
      </trkpt>
      <trkpt lat="42.65151" lon="1.78791">
        <ele>2372.67</ele>
        <time>2017-05-21T10:14:38Z</time>
      </trkpt>
      <trkpt lat="42.6515" lon="1.78778">
        <ele>2375.07</ele>
        <time>2017-05-21T10:15:02Z</time>
      </trkpt>
      <trkpt lat="42.65149" lon="1.78767">
        <ele>2377.48</ele>
        <time>2017-05-21T10:15:28Z</time>
      </trkpt>
      <trkpt lat="42.65149" lon="1.78753">
        <ele>2381.32</ele>
        <time>2017-05-21T10:15:56Z</time>
      </trkpt>
      <trkpt lat="42.65148" lon="1.7874">
        <ele>2384.21</ele>
        <time>2017-05-21T10:16:24Z</time>
      </trkpt>
      <trkpt lat="42.65149" lon="1.78729">
        <ele>2386.61</ele>
        <time>2017-05-21T10:16:47Z</time>
      </trkpt>
      <trkpt lat="42.65154" lon="1.78716">
        <ele>2389.49</ele>
        <time>2017-05-21T10:17:11Z</time>
      </trkpt>
      <trkpt lat="42.65157" lon="1.78702">
        <ele>2392.86</ele>
        <time>2017-05-21T10:17:35Z</time>
      </trkpt>
      <trkpt lat="42.65161" lon="1.78686">
        <ele>2392.86</ele>
        <time>2017-05-21T10:18:15Z</time>
      </trkpt>
      <trkpt lat="42.65157" lon="1.78674">
        <ele>2394.3</ele>
        <time>2017-05-21T10:18:30Z</time>
      </trkpt>
      <trkpt lat="42.6515" lon="1.7867">
        <ele>2398.15</ele>
        <time>2017-05-21T10:18:50Z</time>
      </trkpt>
      <trkpt lat="42.65144" lon="1.78683">
        <ele>2401.03</ele>
        <time>2017-05-21T10:19:24Z</time>
      </trkpt>
      <trkpt lat="42.65137" lon="1.78676">
        <ele>2401.99</ele>
        <time>2017-05-21T10:19:38Z</time>
      </trkpt>
      <trkpt lat="42.65131" lon="1.78668">
        <ele>2403.91</ele>
        <time>2017-05-21T10:19:57Z</time>
      </trkpt>
      <trkpt lat="42.65123" lon="1.78659">
        <ele>2405.84</ele>
        <time>2017-05-21T10:20:14Z</time>
      </trkpt>
      <trkpt lat="42.6512" lon="1.78653">
        <ele>2407.28</ele>
        <time>2017-05-21T10:21:26Z</time>
      </trkpt>
      <trkpt lat="42.65118" lon="1.7865">
        <ele>2407.76</ele>
        <time>2017-05-21T10:22:57Z</time>
      </trkpt>
      <trkpt lat="42.65117" lon="1.78651">
        <ele>2407.28</ele>
        <time>2017-05-21T10:23:29Z</time>
      </trkpt>
      <trkpt lat="42.6509" lon="1.78622">
        <ele>2391.9</ele>
        <time>2017-05-21T11:27:37Z</time>
      </trkpt>
      <trkpt lat="42.65085" lon="1.78617">
        <ele>2390.94</ele>
        <time>2017-05-21T11:28:01Z</time>
      </trkpt>
      <trkpt lat="42.65079" lon="1.78612">
        <ele>2390.46</ele>
        <time>2017-05-21T11:28:22Z</time>
      </trkpt>
      <trkpt lat="42.65073" lon="1.78603">
        <ele>2388.05</ele>
        <time>2017-05-21T11:28:35Z</time>
      </trkpt>
      <trkpt lat="42.65066" lon="1.78595">
        <ele>2387.09</ele>
        <time>2017-05-21T11:28:52Z</time>
      </trkpt>
      <trkpt lat="42.6506" lon="1.78587">
        <ele>2384.69</ele>
        <time>2017-05-21T11:29:06Z</time>
      </trkpt>
      <trkpt lat="42.6505" lon="1.78587">
        <ele>2382.76</ele>
        <time>2017-05-21T11:29:17Z</time>
      </trkpt>
      <trkpt lat="42.6504" lon="1.78591">
        <ele>2382.28</ele>
        <time>2017-05-21T11:29:27Z</time>
      </trkpt>
      <trkpt lat="42.65032" lon="1.78597">
        <ele>2381.32</ele>
        <time>2017-05-21T11:29:38Z</time>
      </trkpt>
      <trkpt lat="42.65023" lon="1.78602">
        <ele>2380.36</ele>
        <time>2017-05-21T11:29:50Z</time>
      </trkpt>
      <trkpt lat="42.65012" lon="1.78602">
        <ele>2378.44</ele>
        <time>2017-05-21T11:30:01Z</time>
      </trkpt>
      <trkpt lat="42.65002" lon="1.78604">
        <ele>2377</ele>
        <time>2017-05-21T11:30:12Z</time>
      </trkpt>
      <trkpt lat="42.64992" lon="1.78605">
        <ele>2375.55</ele>
        <time>2017-05-21T11:30:24Z</time>
      </trkpt>
      <trkpt lat="42.64983" lon="1.78607">
        <ele>2372.67</ele>
        <time>2017-05-21T11:30:35Z</time>
      </trkpt>
      <trkpt lat="42.64979" lon="1.78607">
        <ele>2371.71</ele>
        <time>2017-05-21T11:31:19Z</time>
      </trkpt>
      <trkpt lat="42.64969" lon="1.78604">
        <ele>2368.83</ele>
        <time>2017-05-21T11:31:29Z</time>
      </trkpt>
      <trkpt lat="42.6496" lon="1.78602">
        <ele>2367.38</ele>
        <time>2017-05-21T11:31:39Z</time>
      </trkpt>
      <trkpt lat="42.64951" lon="1.78599">
        <ele>2365.94</ele>
        <time>2017-05-21T11:31:49Z</time>
      </trkpt>
      <trkpt lat="42.64941" lon="1.78596">
        <ele>2365.46</ele>
        <time>2017-05-21T11:31:59Z</time>
      </trkpt>
      <trkpt lat="42.64933" lon="1.78594">
        <ele>2364.5</ele>
        <time>2017-05-21T11:32:08Z</time>
      </trkpt>
      <trkpt lat="42.64924" lon="1.7859">
        <ele>2364.5</ele>
        <time>2017-05-21T11:32:21Z</time>
      </trkpt>
      <trkpt lat="42.64915" lon="1.78587">
        <ele>2362.58</ele>
        <time>2017-05-21T11:32:30Z</time>
      </trkpt>
      <trkpt lat="42.64905" lon="1.78588">
        <ele>2361.62</ele>
        <time>2017-05-21T11:32:39Z</time>
      </trkpt>
      <trkpt lat="42.64896" lon="1.78592">
        <ele>2360.17</ele>
        <time>2017-05-21T11:32:49Z</time>
      </trkpt>
      <trkpt lat="42.64886" lon="1.78594">
        <ele>2358.25</ele>
        <time>2017-05-21T11:32:59Z</time>
      </trkpt>
      <trkpt lat="42.64877" lon="1.78597">
        <ele>2357.29</ele>
        <time>2017-05-21T11:33:09Z</time>
      </trkpt>
      <trkpt lat="42.64867" lon="1.78599">
        <ele>2355.85</ele>
        <time>2017-05-21T11:33:18Z</time>
      </trkpt>
      <trkpt lat="42.64858" lon="1.78601">
        <ele>2353.93</ele>
        <time>2017-05-21T11:33:27Z</time>
      </trkpt>
      <trkpt lat="42.64848" lon="1.78602">
        <ele>2352.48</ele>
        <time>2017-05-21T11:33:37Z</time>
      </trkpt>
      <trkpt lat="42.64839" lon="1.78606">
        <ele>2352</ele>
        <time>2017-05-21T11:33:46Z</time>
      </trkpt>
      <trkpt lat="42.64828" lon="1.78609">
        <ele>2351.04</ele>
        <time>2017-05-21T11:33:56Z</time>
      </trkpt>
      <trkpt lat="42.64818" lon="1.78612">
        <ele>2351.52</ele>
        <time>2017-05-21T11:34:06Z</time>
      </trkpt>
      <trkpt lat="42.64809" lon="1.78616">
        <ele>2352</ele>
        <time>2017-05-21T11:34:16Z</time>
      </trkpt>
      <trkpt lat="42.648" lon="1.78623">
        <ele>2352</ele>
        <time>2017-05-21T11:34:26Z</time>
      </trkpt>
      <trkpt lat="42.64792" lon="1.78628">
        <ele>2351.04</ele>
        <time>2017-05-21T11:34:35Z</time>
      </trkpt>
      <trkpt lat="42.64784" lon="1.78632">
        <ele>2352</ele>
        <time>2017-05-21T11:34:45Z</time>
      </trkpt>
      <trkpt lat="42.64774" lon="1.78634">
        <ele>2352.48</ele>
        <time>2017-05-21T11:34:55Z</time>
      </trkpt>
      <trkpt lat="42.64765" lon="1.78637">
        <ele>2352</ele>
        <time>2017-05-21T11:35:05Z</time>
      </trkpt>
      <trkpt lat="42.64755" lon="1.78641">
        <ele>2350.56</ele>
        <time>2017-05-21T11:35:15Z</time>
      </trkpt>
      <trkpt lat="42.64745" lon="1.78644">
        <ele>2349.6</ele>
        <time>2017-05-21T11:35:25Z</time>
      </trkpt>
      <trkpt lat="42.64735" lon="1.78644">
        <ele>2348.64</ele>
        <time>2017-05-21T11:35:37Z</time>
      </trkpt>
      <trkpt lat="42.64726" lon="1.78641">
        <ele>2346.72</ele>
        <time>2017-05-21T11:35:50Z</time>
      </trkpt>
      <trkpt lat="42.64718" lon="1.78638">
        <ele>2344.31</ele>
        <time>2017-05-21T11:36:04Z</time>
      </trkpt>
      <trkpt lat="42.64709" lon="1.78634">
        <ele>2341.43</ele>
        <time>2017-05-21T11:36:19Z</time>
      </trkpt>
      <trkpt lat="42.64701" lon="1.78628">
        <ele>2338.06</ele>
        <time>2017-05-21T11:36:35Z</time>
      </trkpt>
      <trkpt lat="42.64692" lon="1.78625">
        <ele>2335.66</ele>
        <time>2017-05-21T11:36:50Z</time>
      </trkpt>
      <trkpt lat="42.64683" lon="1.78622">
        <ele>2332.78</ele>
        <time>2017-05-21T11:37:05Z</time>
      </trkpt>
      <trkpt lat="42.64674" lon="1.78619">
        <ele>2329.89</ele>
        <time>2017-05-21T11:37:18Z</time>
      </trkpt>
      <trkpt lat="42.64664" lon="1.78613">
        <ele>2327.97</ele>
        <time>2017-05-21T11:37:30Z</time>
      </trkpt>
      <trkpt lat="42.64655" lon="1.78608">
        <ele>2325.57</ele>
        <time>2017-05-21T11:37:44Z</time>
      </trkpt>
      <trkpt lat="42.64647" lon="1.78605">
        <ele>2323.16</ele>
        <time>2017-05-21T11:37:56Z</time>
      </trkpt>
      <trkpt lat="42.64638" lon="1.78601">
        <ele>2320.76</ele>
        <time>2017-05-21T11:38:07Z</time>
      </trkpt>
      <trkpt lat="42.64631" lon="1.78596">
        <ele>2319.8</ele>
        <time>2017-05-21T11:38:17Z</time>
      </trkpt>
      <trkpt lat="42.64622" lon="1.78592">
        <ele>2317.4</ele>
        <time>2017-05-21T11:38:28Z</time>
      </trkpt>
      <trkpt lat="42.64613" lon="1.78587">
        <ele>2316.43</ele>
        <time>2017-05-21T11:38:40Z</time>
      </trkpt>
      <trkpt lat="42.64605" lon="1.78583">
        <ele>2314.99</ele>
        <time>2017-05-21T11:38:50Z</time>
      </trkpt>
      <trkpt lat="42.64596" lon="1.7858">
        <ele>2314.03</ele>
        <time>2017-05-21T11:39:00Z</time>
      </trkpt>
      <trkpt lat="42.64586" lon="1.78578">
        <ele>2313.55</ele>
        <time>2017-05-21T11:39:10Z</time>
      </trkpt>
      <trkpt lat="42.64577" lon="1.78576">
        <ele>2312.11</ele>
        <time>2017-05-21T11:39:20Z</time>
      </trkpt>
      <trkpt lat="42.64566" lon="1.78577">
        <ele>2311.15</ele>
        <time>2017-05-21T11:39:30Z</time>
      </trkpt>
      <trkpt lat="42.64556" lon="1.7858">
        <ele>2310.19</ele>
        <time>2017-05-21T11:39:39Z</time>
      </trkpt>
      <trkpt lat="42.64547" lon="1.78582">
        <ele>2310.67</ele>
        <time>2017-05-21T11:39:49Z</time>
      </trkpt>
      <trkpt lat="42.64536" lon="1.78584">
        <ele>2311.15</ele>
        <time>2017-05-21T11:39:59Z</time>
      </trkpt>
      <trkpt lat="42.64527" lon="1.78585">
        <ele>2312.11</ele>
        <time>2017-05-21T11:40:09Z</time>
      </trkpt>
      <trkpt lat="42.64517" lon="1.78586">
        <ele>2312.11</ele>
        <time>2017-05-21T11:40:18Z</time>
      </trkpt>
      <trkpt lat="42.64508" lon="1.78589">
        <ele>2311.63</ele>
        <time>2017-05-21T11:40:28Z</time>
      </trkpt>
      <trkpt lat="42.64499" lon="1.78592">
        <ele>2313.07</ele>
        <time>2017-05-21T11:40:38Z</time>
      </trkpt>
      <trkpt lat="42.64491" lon="1.78598">
        <ele>2314.99</ele>
        <time>2017-05-21T11:40:50Z</time>
      </trkpt>
      <trkpt lat="42.64482" lon="1.78606">
        <ele>2317.4</ele>
        <time>2017-05-21T11:41:04Z</time>
      </trkpt>
      <trkpt lat="42.64474" lon="1.78611">
        <ele>2318.84</ele>
        <time>2017-05-21T11:41:17Z</time>
      </trkpt>
      <trkpt lat="42.64464" lon="1.78616">
        <ele>2320.76</ele>
        <time>2017-05-21T11:41:33Z</time>
      </trkpt>
      <trkpt lat="42.64455" lon="1.78619">
        <ele>2322.2</ele>
        <time>2017-05-21T11:41:48Z</time>
      </trkpt>
      <trkpt lat="42.64445" lon="1.78623">
        <ele>2322.68</ele>
        <time>2017-05-21T11:42:01Z</time>
      </trkpt>
      <trkpt lat="42.64436" lon="1.78626">
        <ele>2323.64</ele>
        <time>2017-05-21T11:42:14Z</time>
      </trkpt>
      <trkpt lat="42.64428" lon="1.78629">
        <ele>2324.61</ele>
        <time>2017-05-21T11:42:28Z</time>
      </trkpt>
      <trkpt lat="42.64419" lon="1.78632">
        <ele>2325.57</ele>
        <time>2017-05-21T11:42:42Z</time>
      </trkpt>
      <trkpt lat="42.64411" lon="1.78639">
        <ele>2327.01</ele>
        <time>2017-05-21T11:42:57Z</time>
      </trkpt>
      <trkpt lat="42.64404" lon="1.78638">
        <ele>2327.97</ele>
        <time>2017-05-21T11:44:26Z</time>
      </trkpt>
      <trkpt lat="42.64394" lon="1.7864">
        <ele>2327.01</ele>
        <time>2017-05-21T11:44:37Z</time>
      </trkpt>
      <trkpt lat="42.64385" lon="1.78644">
        <ele>2325.57</ele>
        <time>2017-05-21T11:44:48Z</time>
      </trkpt>
      <trkpt lat="42.64376" lon="1.78648">
        <ele>2323.64</ele>
        <time>2017-05-21T11:45:07Z</time>
      </trkpt>
      <trkpt lat="42.64367" lon="1.78646">
        <ele>2323.16</ele>
        <time>2017-05-21T11:45:17Z</time>
      </trkpt>
      <trkpt lat="42.64357" lon="1.78643">
        <ele>2320.76</ele>
        <time>2017-05-21T11:45:27Z</time>
      </trkpt>
      <trkpt lat="42.64353" lon="1.78641">
        <ele>2320.28</ele>
        <time>2017-05-21T11:46:20Z</time>
      </trkpt>
      <trkpt lat="42.64342" lon="1.78639">
        <ele>2318.84</ele>
        <time>2017-05-21T11:46:38Z</time>
      </trkpt>
      <trkpt lat="42.64333" lon="1.78637">
        <ele>2318.36</ele>
        <time>2017-05-21T11:46:47Z</time>
      </trkpt>
      <trkpt lat="42.64324" lon="1.78636">
        <ele>2316.43</ele>
        <time>2017-05-21T11:47:09Z</time>
      </trkpt>
      <trkpt lat="42.64313" lon="1.78638">
        <ele>2317.4</ele>
        <time>2017-05-21T11:47:18Z</time>
      </trkpt>
      <trkpt lat="42.64303" lon="1.78641">
        <ele>2316.91</ele>
        <time>2017-05-21T11:47:26Z</time>
      </trkpt>
      <trkpt lat="42.64295" lon="1.78641">
        <ele>2316.43</ele>
        <time>2017-05-21T11:47:34Z</time>
      </trkpt>
      <trkpt lat="42.64285" lon="1.78642">
        <ele>2315.47</ele>
        <time>2017-05-21T11:47:42Z</time>
      </trkpt>
      <trkpt lat="42.64275" lon="1.78644">
        <ele>2314.99</ele>
        <time>2017-05-21T11:47:50Z</time>
      </trkpt>
      <trkpt lat="42.64265" lon="1.78646">
        <ele>2314.03</ele>
        <time>2017-05-21T11:47:58Z</time>
      </trkpt>
      <trkpt lat="42.64256" lon="1.78639">
        <ele>2314.03</ele>
        <time>2017-05-21T11:48:07Z</time>
      </trkpt>
      <trkpt lat="42.64249" lon="1.7863">
        <ele>2314.51</ele>
        <time>2017-05-21T11:48:15Z</time>
      </trkpt>
      <trkpt lat="42.6424" lon="1.78627">
        <ele>2314.51</ele>
        <time>2017-05-21T11:48:23Z</time>
      </trkpt>
      <trkpt lat="42.64231" lon="1.7862">
        <ele>2314.51</ele>
        <time>2017-05-21T11:48:31Z</time>
      </trkpt>
      <trkpt lat="42.64221" lon="1.78616">
        <ele>2314.03</ele>
        <time>2017-05-21T11:48:39Z</time>
      </trkpt>
      <trkpt lat="42.64211" lon="1.7861">
        <ele>2313.55</ele>
        <time>2017-05-21T11:48:47Z</time>
      </trkpt>
      <trkpt lat="42.64203" lon="1.78605">
        <ele>2313.07</ele>
        <time>2017-05-21T11:48:54Z</time>
      </trkpt>
      <trkpt lat="42.64195" lon="1.786">
        <ele>2314.03</ele>
        <time>2017-05-21T11:49:03Z</time>
      </trkpt>
      <trkpt lat="42.64187" lon="1.78594">
        <ele>2315.47</ele>
        <time>2017-05-21T11:49:11Z</time>
      </trkpt>
      <trkpt lat="42.64178" lon="1.78589">
        <ele>2315.95</ele>
        <time>2017-05-21T11:49:21Z</time>
      </trkpt>
      <trkpt lat="42.6417" lon="1.78581">
        <ele>2316.43</ele>
        <time>2017-05-21T11:49:34Z</time>
      </trkpt>
      <trkpt lat="42.64164" lon="1.78572">
        <ele>2316.43</ele>
        <time>2017-05-21T11:49:43Z</time>
      </trkpt>
      <trkpt lat="42.64159" lon="1.78563">
        <ele>2316.43</ele>
        <time>2017-05-21T11:49:52Z</time>
      </trkpt>
      <trkpt lat="42.64151" lon="1.78558">
        <ele>2316.91</ele>
        <time>2017-05-21T11:50:03Z</time>
      </trkpt>
      <trkpt lat="42.64143" lon="1.78552">
        <ele>2317.4</ele>
        <time>2017-05-21T11:50:12Z</time>
      </trkpt>
      <trkpt lat="42.64134" lon="1.78546">
        <ele>2316.91</ele>
        <time>2017-05-21T11:50:22Z</time>
      </trkpt>
      <trkpt lat="42.6413" lon="1.78537">
        <ele>2315.47</ele>
        <time>2017-05-21T11:50:31Z</time>
      </trkpt>
      <trkpt lat="42.64129" lon="1.78524">
        <ele>2314.99</ele>
        <time>2017-05-21T11:50:38Z</time>
      </trkpt>
      <trkpt lat="42.64126" lon="1.78514">
        <ele>2314.51</ele>
        <time>2017-05-21T11:50:47Z</time>
      </trkpt>
      <trkpt lat="42.64123" lon="1.78504">
        <ele>2313.07</ele>
        <time>2017-05-21T11:50:54Z</time>
      </trkpt>
      <trkpt lat="42.64123" lon="1.78492">
        <ele>2311.63</ele>
        <time>2017-05-21T11:51:04Z</time>
      </trkpt>
      <trkpt lat="42.64124" lon="1.78477">
        <ele>2310.67</ele>
        <time>2017-05-21T11:51:15Z</time>
      </trkpt>
      <trkpt lat="42.64124" lon="1.78463">
        <ele>2310.67</ele>
        <time>2017-05-21T11:51:23Z</time>
      </trkpt>
      <trkpt lat="42.64124" lon="1.78449">
        <ele>2309.22</ele>
        <time>2017-05-21T11:51:32Z</time>
      </trkpt>
      <trkpt lat="42.64126" lon="1.78437">
        <ele>2307.3</ele>
        <time>2017-05-21T11:51:40Z</time>
      </trkpt>
      <trkpt lat="42.64124" lon="1.78423">
        <ele>2307.3</ele>
        <time>2017-05-21T11:51:50Z</time>
      </trkpt>
      <trkpt lat="42.64121" lon="1.78411">
        <ele>2306.82</ele>
        <time>2017-05-21T11:52:00Z</time>
      </trkpt>
      <trkpt lat="42.64118" lon="1.78398">
        <ele>2306.34</ele>
        <time>2017-05-21T11:52:10Z</time>
      </trkpt>
      <trkpt lat="42.64115" lon="1.78384">
        <ele>2306.82</ele>
        <time>2017-05-21T11:52:21Z</time>
      </trkpt>
      <trkpt lat="42.64114" lon="1.78373">
        <ele>2306.82</ele>
        <time>2017-05-21T11:52:30Z</time>
      </trkpt>
      <trkpt lat="42.64112" lon="1.78362">
        <ele>2307.78</ele>
        <time>2017-05-21T11:52:40Z</time>
      </trkpt>
      <trkpt lat="42.64109" lon="1.7835">
        <ele>2307.78</ele>
        <time>2017-05-21T11:52:51Z</time>
      </trkpt>
      <trkpt lat="42.64107" lon="1.78337">
        <ele>2308.74</ele>
        <time>2017-05-21T11:53:02Z</time>
      </trkpt>
      <trkpt lat="42.64105" lon="1.78325">
        <ele>2310.19</ele>
        <time>2017-05-21T11:53:13Z</time>
      </trkpt>
      <trkpt lat="42.64102" lon="1.78314">
        <ele>2311.15</ele>
        <time>2017-05-21T11:53:23Z</time>
      </trkpt>
      <trkpt lat="42.641" lon="1.78304">
        <ele>2312.59</ele>
        <time>2017-05-21T11:53:35Z</time>
      </trkpt>
      <trkpt lat="42.64097" lon="1.78292">
        <ele>2313.55</ele>
        <time>2017-05-21T11:53:47Z</time>
      </trkpt>
      <trkpt lat="42.64092" lon="1.78279">
        <ele>2314.03</ele>
        <time>2017-05-21T11:53:58Z</time>
      </trkpt>
      <trkpt lat="42.64087" lon="1.78266">
        <ele>2315.47</ele>
        <time>2017-05-21T11:54:10Z</time>
      </trkpt>
      <trkpt lat="42.64084" lon="1.78255">
        <ele>2315.95</ele>
        <time>2017-05-21T11:54:22Z</time>
      </trkpt>
      <trkpt lat="42.6408" lon="1.78242">
        <ele>2316.91</ele>
        <time>2017-05-21T11:54:35Z</time>
      </trkpt>
      <trkpt lat="42.64076" lon="1.78228">
        <ele>2318.36</ele>
        <time>2017-05-21T11:54:47Z</time>
      </trkpt>
      <trkpt lat="42.64073" lon="1.78216">
        <ele>2318.84</ele>
        <time>2017-05-21T11:54:58Z</time>
      </trkpt>
      <trkpt lat="42.64067" lon="1.78204">
        <ele>2319.8</ele>
        <time>2017-05-21T11:55:10Z</time>
      </trkpt>
      <trkpt lat="42.64066" lon="1.78193">
        <ele>2320.76</ele>
        <time>2017-05-21T11:55:22Z</time>
      </trkpt>
      <trkpt lat="42.64062" lon="1.7818">
        <ele>2320.76</ele>
        <time>2017-05-21T11:55:34Z</time>
      </trkpt>
      <trkpt lat="42.64059" lon="1.78169">
        <ele>2321.24</ele>
        <time>2017-05-21T11:56:06Z</time>
      </trkpt>
      <trkpt lat="42.64055" lon="1.78158">
        <ele>2321.72</ele>
        <time>2017-05-21T11:56:19Z</time>
      </trkpt>
      <trkpt lat="42.64051" lon="1.78145">
        <ele>2322.68</ele>
        <time>2017-05-21T11:56:33Z</time>
      </trkpt>
      <trkpt lat="42.64049" lon="1.78132">
        <ele>2323.64</ele>
        <time>2017-05-21T11:56:46Z</time>
      </trkpt>
      <trkpt lat="42.64046" lon="1.78118">
        <ele>2323.64</ele>
        <time>2017-05-21T11:56:59Z</time>
      </trkpt>
      <trkpt lat="42.64039" lon="1.78107">
        <ele>2325.57</ele>
        <time>2017-05-21T11:57:15Z</time>
      </trkpt>
      <trkpt lat="42.64035" lon="1.78098">
        <ele>2327.01</ele>
        <time>2017-05-21T11:57:31Z</time>
      </trkpt>
      <trkpt lat="42.6403" lon="1.78088">
        <ele>2328.45</ele>
        <time>2017-05-21T11:57:47Z</time>
      </trkpt>
      <trkpt lat="42.64025" lon="1.78076">
        <ele>2331.33</ele>
        <time>2017-05-21T11:58:04Z</time>
      </trkpt>
      <trkpt lat="42.6402" lon="1.78064">
        <ele>2332.3</ele>
        <time>2017-05-21T11:58:19Z</time>
      </trkpt>
      <trkpt lat="42.64015" lon="1.78051">
        <ele>2333.74</ele>
        <time>2017-05-21T11:58:36Z</time>
      </trkpt>
      <trkpt lat="42.6401" lon="1.78041">
        <ele>2334.22</ele>
        <time>2017-05-21T11:58:50Z</time>
      </trkpt>
      <trkpt lat="42.64008" lon="1.78038">
        <ele>2333.74</ele>
        <time>2017-05-21T12:00:14Z</time>
      </trkpt>
      <trkpt lat="42.6401" lon="1.78025">
        <ele>2333.26</ele>
        <time>2017-05-21T12:00:26Z</time>
      </trkpt>
      <trkpt lat="42.64009" lon="1.7801">
        <ele>2333.74</ele>
        <time>2017-05-21T12:00:36Z</time>
      </trkpt>
      <trkpt lat="42.64007" lon="1.78007">
        <ele>2334.7</ele>
        <time>2017-05-21T12:02:07Z</time>
      </trkpt>
      <trkpt lat="42.64009" lon="1.77993">
        <ele>2333.74</ele>
        <time>2017-05-21T12:02:18Z</time>
      </trkpt>
      <trkpt lat="42.64011" lon="1.77985">
        <ele>2332.78</ele>
        <time>2017-05-21T12:04:08Z</time>
      </trkpt>
      <trkpt lat="42.64012" lon="1.77971">
        <ele>2332.78</ele>
        <time>2017-05-21T12:04:21Z</time>
      </trkpt>
      <trkpt lat="42.64012" lon="1.77959">
        <ele>2332.3</ele>
        <time>2017-05-21T12:04:34Z</time>
      </trkpt>
      <trkpt lat="42.64015" lon="1.77947">
        <ele>2331.81</ele>
        <time>2017-05-21T12:04:44Z</time>
      </trkpt>
      <trkpt lat="42.64016" lon="1.77933">
        <ele>2331.81</ele>
        <time>2017-05-21T12:04:54Z</time>
      </trkpt>
      <trkpt lat="42.64017" lon="1.7792">
        <ele>2332.3</ele>
        <time>2017-05-21T12:05:04Z</time>
      </trkpt>
      <trkpt lat="42.64017" lon="1.77907">
        <ele>2333.26</ele>
        <time>2017-05-21T12:05:16Z</time>
      </trkpt>
      <trkpt lat="42.64015" lon="1.77894">
        <ele>2333.74</ele>
        <time>2017-05-21T12:05:29Z</time>
      </trkpt>
      <trkpt lat="42.64018" lon="1.77881">
        <ele>2333.74</ele>
        <time>2017-05-21T12:05:40Z</time>
      </trkpt>
      <trkpt lat="42.6402" lon="1.77869">
        <ele>2334.7</ele>
        <time>2017-05-21T12:05:50Z</time>
      </trkpt>
      <trkpt lat="42.64023" lon="1.77857">
        <ele>2335.18</ele>
        <time>2017-05-21T12:06:00Z</time>
      </trkpt>
      <trkpt lat="42.64024" lon="1.77845">
        <ele>2334.7</ele>
        <time>2017-05-21T12:06:10Z</time>
      </trkpt>
      <trkpt lat="42.64025" lon="1.77833">
        <ele>2335.18</ele>
        <time>2017-05-21T12:06:20Z</time>
      </trkpt>
      <trkpt lat="42.64029" lon="1.77821">
        <ele>2335.66</ele>
        <time>2017-05-21T12:06:30Z</time>
      </trkpt>
      <trkpt lat="42.64033" lon="1.77809">
        <ele>2336.14</ele>
        <time>2017-05-21T12:06:40Z</time>
      </trkpt>
      <trkpt lat="42.64037" lon="1.77798">
        <ele>2335.66</ele>
        <time>2017-05-21T12:06:49Z</time>
      </trkpt>
      <trkpt lat="42.64037" lon="1.77786">
        <ele>2337.1</ele>
        <time>2017-05-21T12:07:00Z</time>
      </trkpt>
      <trkpt lat="42.6404" lon="1.77773">
        <ele>2337.1</ele>
        <time>2017-05-21T12:07:10Z</time>
      </trkpt>
      <trkpt lat="42.64042" lon="1.77761">
        <ele>2337.58</ele>
        <time>2017-05-21T12:07:21Z</time>
      </trkpt>
      <trkpt lat="42.64044" lon="1.77749">
        <ele>2338.54</ele>
        <time>2017-05-21T12:07:32Z</time>
      </trkpt>
      <trkpt lat="42.64047" lon="1.7774">
        <ele>2339.02</ele>
        <time>2017-05-21T12:07:44Z</time>
      </trkpt>
      <trkpt lat="42.64049" lon="1.77727">
        <ele>2340.47</ele>
        <time>2017-05-21T12:07:58Z</time>
      </trkpt>
      <trkpt lat="42.64049" lon="1.77715">
        <ele>2341.43</ele>
        <time>2017-05-21T12:08:13Z</time>
      </trkpt>
      <trkpt lat="42.64051" lon="1.77703">
        <ele>2341.91</ele>
        <time>2017-05-21T12:08:27Z</time>
      </trkpt>
      <trkpt lat="42.64052" lon="1.77691">
        <ele>2343.35</ele>
        <time>2017-05-21T12:08:41Z</time>
      </trkpt>
      <trkpt lat="42.64058" lon="1.77681">
        <ele>2344.31</ele>
        <time>2017-05-21T12:08:55Z</time>
      </trkpt>
      <trkpt lat="42.64056" lon="1.77668">
        <ele>2344.79</ele>
        <time>2017-05-21T12:09:09Z</time>
      </trkpt>
      <trkpt lat="42.64053" lon="1.77656">
        <ele>2345.75</ele>
        <time>2017-05-21T12:09:22Z</time>
      </trkpt>
      <trkpt lat="42.64051" lon="1.77644">
        <ele>2345.75</ele>
        <time>2017-05-21T12:09:37Z</time>
      </trkpt>
      <trkpt lat="42.64049" lon="1.7763">
        <ele>2346.72</ele>
        <time>2017-05-21T12:09:51Z</time>
      </trkpt>
      <trkpt lat="42.64049" lon="1.77617">
        <ele>2346.72</ele>
        <time>2017-05-21T12:10:04Z</time>
      </trkpt>
      <trkpt lat="42.64051" lon="1.77604">
        <ele>2347.68</ele>
        <time>2017-05-21T12:10:38Z</time>
      </trkpt>
      <trkpt lat="42.6405" lon="1.77591">
        <ele>2348.16</ele>
        <time>2017-05-21T12:10:49Z</time>
      </trkpt>
      <trkpt lat="42.6405" lon="1.77578">
        <ele>2350.08</ele>
        <time>2017-05-21T12:11:00Z</time>
      </trkpt>
      <trkpt lat="42.64054" lon="1.77566">
        <ele>2350.56</ele>
        <time>2017-05-21T12:11:10Z</time>
      </trkpt>
      <trkpt lat="42.64056" lon="1.77554">
        <ele>2351.04</ele>
        <time>2017-05-21T12:11:20Z</time>
      </trkpt>
      <trkpt lat="42.64054" lon="1.77543">
        <ele>2351.52</ele>
        <time>2017-05-21T12:11:30Z</time>
      </trkpt>
      <trkpt lat="42.64053" lon="1.77531">
        <ele>2352.48</ele>
        <time>2017-05-21T12:11:41Z</time>
      </trkpt>
      <trkpt lat="42.64052" lon="1.77518">
        <ele>2352</ele>
        <time>2017-05-21T12:11:53Z</time>
      </trkpt>
      <trkpt lat="42.64047" lon="1.77506">
        <ele>2352.48</ele>
        <time>2017-05-21T12:12:05Z</time>
      </trkpt>
      <trkpt lat="42.64043" lon="1.77494">
        <ele>2352.96</ele>
        <time>2017-05-21T12:12:16Z</time>
      </trkpt>
      <trkpt lat="42.64039" lon="1.77482">
        <ele>2353.93</ele>
        <time>2017-05-21T12:12:27Z</time>
      </trkpt>
      <trkpt lat="42.6403" lon="1.77472">
        <ele>2353.93</ele>
        <time>2017-05-21T12:12:37Z</time>
      </trkpt>
      <trkpt lat="42.64025" lon="1.77462">
        <ele>2355.37</ele>
        <time>2017-05-21T12:12:48Z</time>
      </trkpt>
      <trkpt lat="42.64019" lon="1.77452">
        <ele>2356.33</ele>
        <time>2017-05-21T12:13:00Z</time>
      </trkpt>
      <trkpt lat="42.64014" lon="1.77441">
        <ele>2357.29</ele>
        <time>2017-05-21T12:13:13Z</time>
      </trkpt>
      <trkpt lat="42.64009" lon="1.77429">
        <ele>2358.25</ele>
        <time>2017-05-21T12:13:27Z</time>
      </trkpt>
      <trkpt lat="42.64007" lon="1.77419">
        <ele>2360.65</ele>
        <time>2017-05-21T12:13:50Z</time>
      </trkpt>
      <trkpt lat="42.64003" lon="1.77406">
        <ele>2362.58</ele>
        <time>2017-05-21T12:14:04Z</time>
      </trkpt>
      <trkpt lat="42.63998" lon="1.77396">
        <ele>2363.54</ele>
        <time>2017-05-21T12:14:18Z</time>
      </trkpt>
      <trkpt lat="42.63994" lon="1.77384">
        <ele>2364.98</ele>
        <time>2017-05-21T12:14:31Z</time>
      </trkpt>
      <trkpt lat="42.6399" lon="1.77374">
        <ele>2366.42</ele>
        <time>2017-05-21T12:14:43Z</time>
      </trkpt>
      <trkpt lat="42.63986" lon="1.77364">
        <ele>2368.83</ele>
        <time>2017-05-21T12:14:57Z</time>
      </trkpt>
      <trkpt lat="42.63985" lon="1.77352">
        <ele>2368.83</ele>
        <time>2017-05-21T12:15:11Z</time>
      </trkpt>
      <trkpt lat="42.63983" lon="1.7734">
        <ele>2370.27</ele>
        <time>2017-05-21T12:15:24Z</time>
      </trkpt>
      <trkpt lat="42.63984" lon="1.77327">
        <ele>2371.71</ele>
        <time>2017-05-21T12:15:37Z</time>
      </trkpt>
      <trkpt lat="42.63987" lon="1.77316">
        <ele>2371.71</ele>
        <time>2017-05-21T12:15:49Z</time>
      </trkpt>
      <trkpt lat="42.63991" lon="1.77304">
        <ele>2373.15</ele>
        <time>2017-05-21T12:16:02Z</time>
      </trkpt>
      <trkpt lat="42.63997" lon="1.77294">
        <ele>2373.63</ele>
        <time>2017-05-21T12:16:13Z</time>
      </trkpt>
      <trkpt lat="42.64001" lon="1.77283">
        <ele>2374.59</ele>
        <time>2017-05-21T12:16:23Z</time>
      </trkpt>
      <trkpt lat="42.64" lon="1.77269">
        <ele>2375.07</ele>
        <time>2017-05-21T12:16:35Z</time>
      </trkpt>
      <trkpt lat="42.63998" lon="1.77257">
        <ele>2375.55</ele>
        <time>2017-05-21T12:16:45Z</time>
      </trkpt>
      <trkpt lat="42.63996" lon="1.77246">
        <ele>2376.04</ele>
        <time>2017-05-21T12:16:57Z</time>
      </trkpt>
      <trkpt lat="42.63992" lon="1.77232">
        <ele>2376.52</ele>
        <time>2017-05-21T12:17:08Z</time>
      </trkpt>
      <trkpt lat="42.63985" lon="1.77221">
        <ele>2376.04</ele>
        <time>2017-05-21T12:17:18Z</time>
      </trkpt>
      <trkpt lat="42.63981" lon="1.77211">
        <ele>2377.48</ele>
        <time>2017-05-21T12:17:30Z</time>
      </trkpt>
      <trkpt lat="42.63977" lon="1.77199">
        <ele>2378.44</ele>
        <time>2017-05-21T12:17:43Z</time>
      </trkpt>
      <trkpt lat="42.63974" lon="1.77187">
        <ele>2378.92</ele>
        <time>2017-05-21T12:17:55Z</time>
      </trkpt>
      <trkpt lat="42.63973" lon="1.77173">
        <ele>2378.92</ele>
        <time>2017-05-21T12:18:08Z</time>
      </trkpt>
      <trkpt lat="42.63974" lon="1.7716">
        <ele>2379.88</ele>
        <time>2017-05-21T12:18:21Z</time>
      </trkpt>
      <trkpt lat="42.63973" lon="1.77148">
        <ele>2380.84</ele>
        <time>2017-05-21T12:18:36Z</time>
      </trkpt>
      <trkpt lat="42.63976" lon="1.77135">
        <ele>2381.32</ele>
        <time>2017-05-21T12:18:52Z</time>
      </trkpt>
      <trkpt lat="42.6398" lon="1.77124">
        <ele>2382.28</ele>
        <time>2017-05-21T12:19:07Z</time>
      </trkpt>
      <trkpt lat="42.63985" lon="1.77112">
        <ele>2383.25</ele>
        <time>2017-05-21T12:19:20Z</time>
      </trkpt>
      <trkpt lat="42.63988" lon="1.77101">
        <ele>2384.69</ele>
        <time>2017-05-21T12:19:33Z</time>
      </trkpt>
      <trkpt lat="42.6399" lon="1.77088">
        <ele>2385.17</ele>
        <time>2017-05-21T12:19:49Z</time>
      </trkpt>
      <trkpt lat="42.63987" lon="1.77076">
        <ele>2387.09</ele>
        <time>2017-05-21T12:20:02Z</time>
      </trkpt>
      <trkpt lat="42.63987" lon="1.77062">
        <ele>2389.01</ele>
        <time>2017-05-21T12:20:16Z</time>
      </trkpt>
      <trkpt lat="42.63986" lon="1.7705">
        <ele>2389.97</ele>
        <time>2017-05-21T12:20:30Z</time>
      </trkpt>
      <trkpt lat="42.63981" lon="1.77038">
        <ele>2389.97</ele>
        <time>2017-05-21T12:20:42Z</time>
      </trkpt>
      <trkpt lat="42.63977" lon="1.77028">
        <ele>2389.01</ele>
        <time>2017-05-21T12:20:52Z</time>
      </trkpt>
      <trkpt lat="42.63975" lon="1.77017">
        <ele>2389.49</ele>
        <time>2017-05-21T12:21:03Z</time>
      </trkpt>
      <trkpt lat="42.6397" lon="1.77009">
        <ele>2389.01</ele>
        <time>2017-05-21T12:21:11Z</time>
      </trkpt>
      <trkpt lat="42.63964" lon="1.76998">
        <ele>2388.53</ele>
        <time>2017-05-21T12:21:21Z</time>
      </trkpt>
      <trkpt lat="42.6396" lon="1.76986">
        <ele>2388.53</ele>
        <time>2017-05-21T12:21:30Z</time>
      </trkpt>
      <trkpt lat="42.63957" lon="1.76977">
        <ele>2387.57</ele>
        <time>2017-05-21T12:21:38Z</time>
      </trkpt>
      <trkpt lat="42.63952" lon="1.76967">
        <ele>2387.57</ele>
        <time>2017-05-21T12:21:45Z</time>
      </trkpt>
      <trkpt lat="42.6395" lon="1.76957">
        <ele>2387.09</ele>
        <time>2017-05-21T12:21:54Z</time>
      </trkpt>
      <trkpt lat="42.63947" lon="1.76946">
        <ele>2386.61</ele>
        <time>2017-05-21T12:22:01Z</time>
      </trkpt>
      <trkpt lat="42.6394" lon="1.7694">
        <ele>2387.09</ele>
        <time>2017-05-21T12:22:08Z</time>
      </trkpt>
      <trkpt lat="42.63933" lon="1.76942">
        <ele>2386.61</ele>
        <time>2017-05-21T12:22:21Z</time>
      </trkpt>
      <trkpt lat="42.63935" lon="1.76934">
        <ele>2387.09</ele>
        <time>2017-05-21T12:22:45Z</time>
      </trkpt>
      <trkpt lat="42.63932" lon="1.76922">
        <ele>2386.61</ele>
        <time>2017-05-21T12:22:55Z</time>
      </trkpt>
      <trkpt lat="42.63927" lon="1.76912">
        <ele>2386.13</ele>
        <time>2017-05-21T12:23:21Z</time>
      </trkpt>
      <trkpt lat="42.63927" lon="1.769">
        <ele>2386.61</ele>
        <time>2017-05-21T12:23:34Z</time>
      </trkpt>
      <trkpt lat="42.63927" lon="1.76888">
        <ele>2386.13</ele>
        <time>2017-05-21T12:23:43Z</time>
      </trkpt>
      <trkpt lat="42.63928" lon="1.76875">
        <ele>2387.09</ele>
        <time>2017-05-21T12:23:52Z</time>
      </trkpt>
      <trkpt lat="42.63927" lon="1.76861">
        <ele>2387.57</ele>
        <time>2017-05-21T12:24:03Z</time>
      </trkpt>
      <trkpt lat="42.63923" lon="1.76849">
        <ele>2388.53</ele>
        <time>2017-05-21T12:24:13Z</time>
      </trkpt>
      <trkpt lat="42.63916" lon="1.76839">
        <ele>2389.49</ele>
        <time>2017-05-21T12:24:25Z</time>
      </trkpt>
      <trkpt lat="42.63919" lon="1.76828">
        <ele>2391.42</ele>
        <time>2017-05-21T12:24:46Z</time>
      </trkpt>
      <trkpt lat="42.63918" lon="1.76814">
        <ele>2393.82</ele>
        <time>2017-05-21T12:25:05Z</time>
      </trkpt>
      <trkpt lat="42.63916" lon="1.76802">
        <ele>2396.7</ele>
        <time>2017-05-21T12:25:23Z</time>
      </trkpt>
      <trkpt lat="42.63913" lon="1.76791">
        <ele>2398.15</ele>
        <time>2017-05-21T12:25:41Z</time>
      </trkpt>
      <trkpt lat="42.63908" lon="1.76782">
        <ele>2401.51</ele>
        <time>2017-05-21T12:26:08Z</time>
      </trkpt>
      <trkpt lat="42.63902" lon="1.76773">
        <ele>2404.39</ele>
        <time>2017-05-21T12:26:28Z</time>
      </trkpt>
      <trkpt lat="42.63898" lon="1.76764">
        <ele>2406.32</ele>
        <time>2017-05-21T12:26:49Z</time>
      </trkpt>
      <trkpt lat="42.63892" lon="1.76759">
        <ele>2407.28</ele>
        <time>2017-05-21T12:27:03Z</time>
      </trkpt>
      <trkpt lat="42.63889" lon="1.76754">
        <ele>2408.72</ele>
        <time>2017-05-21T12:27:19Z</time>
      </trkpt>
      <trkpt lat="42.63879" lon="1.76752">
        <ele>2410.64</ele>
        <time>2017-05-21T12:27:35Z</time>
      </trkpt>
      <trkpt lat="42.63868" lon="1.76751">
        <ele>2411.12</ele>
        <time>2017-05-21T12:27:50Z</time>
      </trkpt>
      <trkpt lat="42.6386" lon="1.7675">
        <ele>2412.57</ele>
        <time>2017-05-21T12:28:05Z</time>
      </trkpt>
      <trkpt lat="42.63851" lon="1.76748">
        <ele>2414.01</ele>
        <time>2017-05-21T12:28:21Z</time>
      </trkpt>
      <trkpt lat="42.63847" lon="1.76748">
        <ele>2416.41</ele>
        <time>2017-05-21T12:28:36Z</time>
      </trkpt>
      <trkpt lat="42.6384" lon="1.76746">
        <ele>2417.37</ele>
        <time>2017-05-21T12:28:48Z</time>
      </trkpt>
      <trkpt lat="42.63831" lon="1.76743">
        <ele>2419.78</ele>
        <time>2017-05-21T12:29:05Z</time>
      </trkpt>
      <trkpt lat="42.63825" lon="1.76741">
        <ele>2420.74</ele>
        <time>2017-05-21T12:29:51Z</time>
      </trkpt>
      <trkpt lat="42.63815" lon="1.76738">
        <ele>2420.74</ele>
        <time>2017-05-21T12:30:47Z</time>
      </trkpt>
      <trkpt lat="42.63809" lon="1.76737">
        <ele>2421.22</ele>
        <time>2017-05-21T12:30:58Z</time>
      </trkpt>
      <trkpt lat="42.63803" lon="1.76736">
        <ele>2422.18</ele>
        <time>2017-05-21T12:32:12Z</time>
      </trkpt>
      <trkpt lat="42.63798" lon="1.76735">
        <ele>2422.66</ele>
        <time>2017-05-21T12:32:22Z</time>
      </trkpt>
      <trkpt lat="42.63788" lon="1.76728">
        <ele>2401.51</ele>
        <time>2017-05-21T12:59:56Z</time>
      </trkpt>
      <trkpt lat="42.63783" lon="1.76727">
        <ele>2396.7</ele>
        <time>2017-05-21T13:00:59Z</time>
      </trkpt>
      <trkpt lat="42.6378" lon="1.76725">
        <ele>2395.74</ele>
        <time>2017-05-21T13:01:16Z</time>
      </trkpt>
      <trkpt lat="42.63775" lon="1.76724">
        <ele>2394.3</ele>
        <time>2017-05-21T13:01:30Z</time>
      </trkpt>
      <trkpt lat="42.63768" lon="1.7672">
        <ele>2391.9</ele>
        <time>2017-05-21T13:01:46Z</time>
      </trkpt>
      <trkpt lat="42.6376" lon="1.76714">
        <ele>2389.01</ele>
        <time>2017-05-21T13:02:02Z</time>
      </trkpt>
      <trkpt lat="42.63754" lon="1.76705">
        <ele>2386.61</ele>
        <time>2017-05-21T13:02:15Z</time>
      </trkpt>
      <trkpt lat="42.63745" lon="1.767">
        <ele>2384.69</ele>
        <time>2017-05-21T13:02:28Z</time>
      </trkpt>
      <trkpt lat="42.63736" lon="1.76694">
        <ele>2383.25</ele>
        <time>2017-05-21T13:02:40Z</time>
      </trkpt>
      <trkpt lat="42.63728" lon="1.76688">
        <ele>2381.32</ele>
        <time>2017-05-21T13:02:52Z</time>
      </trkpt>
      <trkpt lat="42.63718" lon="1.76684">
        <ele>2378.92</ele>
        <time>2017-05-21T13:03:04Z</time>
      </trkpt>
      <trkpt lat="42.63708" lon="1.7668">
        <ele>2376.04</ele>
        <time>2017-05-21T13:03:17Z</time>
      </trkpt>
      <trkpt lat="42.63699" lon="1.76682">
        <ele>2374.11</ele>
        <time>2017-05-21T13:03:30Z</time>
      </trkpt>
      <trkpt lat="42.6369" lon="1.76683">
        <ele>2370.75</ele>
        <time>2017-05-21T13:03:45Z</time>
      </trkpt>
      <trkpt lat="42.63681" lon="1.76687">
        <ele>2367.86</ele>
        <time>2017-05-21T13:04:02Z</time>
      </trkpt>
      <trkpt lat="42.63671" lon="1.76691">
        <ele>2364.5</ele>
        <time>2017-05-21T13:04:29Z</time>
      </trkpt>
      <trkpt lat="42.63668" lon="1.76699">
        <ele>2360.17</ele>
        <time>2017-05-21T13:05:06Z</time>
      </trkpt>
      <trkpt lat="42.63663" lon="1.76708">
        <ele>2356.33</ele>
        <time>2017-05-21T13:05:41Z</time>
      </trkpt>
      <trkpt lat="42.63657" lon="1.7672">
        <ele>2352.48</ele>
        <time>2017-05-21T13:05:55Z</time>
      </trkpt>
      <trkpt lat="42.63653" lon="1.76727">
        <ele>2349.6</ele>
        <time>2017-05-21T13:06:12Z</time>
      </trkpt>
      <trkpt lat="42.6365" lon="1.76741">
        <ele>2345.75</ele>
        <time>2017-05-21T13:06:23Z</time>
      </trkpt>
      <trkpt lat="42.63651" lon="1.76746">
        <ele>2342.39</ele>
        <time>2017-05-21T13:06:57Z</time>
      </trkpt>
      <trkpt lat="42.63663" lon="1.76751">
        <ele>2339.51</ele>
        <time>2017-05-21T13:07:15Z</time>
      </trkpt>
      <trkpt lat="42.63672" lon="1.76755">
        <ele>2337.1</ele>
        <time>2017-05-21T13:07:57Z</time>
      </trkpt>
      <trkpt lat="42.63677" lon="1.76765">
        <ele>2334.7</ele>
        <time>2017-05-21T13:08:06Z</time>
      </trkpt>
      <trkpt lat="42.6368" lon="1.76775">
        <ele>2331.81</ele>
        <time>2017-05-21T13:09:51Z</time>
      </trkpt>
      <trkpt lat="42.63687" lon="1.76782">
        <ele>2328.45</ele>
        <time>2017-05-21T13:10:03Z</time>
      </trkpt>
      <trkpt lat="42.63693" lon="1.76796">
        <ele>2326.53</ele>
        <time>2017-05-21T13:10:19Z</time>
      </trkpt>
      <trkpt lat="42.63697" lon="1.76807">
        <ele>2324.12</ele>
        <time>2017-05-21T13:10:30Z</time>
      </trkpt>
      <trkpt lat="42.63699" lon="1.76816">
        <ele>2323.16</ele>
        <time>2017-05-21T13:11:06Z</time>
      </trkpt>
      <trkpt lat="42.63704" lon="1.76824">
        <ele>2321.24</ele>
        <time>2017-05-21T13:11:16Z</time>
      </trkpt>
      <trkpt lat="42.63711" lon="1.76832">
        <ele>2320.28</ele>
        <time>2017-05-21T13:11:25Z</time>
      </trkpt>
      <trkpt lat="42.63719" lon="1.76839">
        <ele>2318.84</ele>
        <time>2017-05-21T13:11:37Z</time>
      </trkpt>
      <trkpt lat="42.63727" lon="1.76846">
        <ele>2316.91</ele>
        <time>2017-05-21T13:11:46Z</time>
      </trkpt>
      <trkpt lat="42.63733" lon="1.76856">
        <ele>2314.51</ele>
        <time>2017-05-21T13:11:56Z</time>
      </trkpt>
      <trkpt lat="42.63738" lon="1.76866">
        <ele>2312.11</ele>
        <time>2017-05-21T13:12:07Z</time>
      </trkpt>
      <trkpt lat="42.63743" lon="1.76878">
        <ele>2309.22</ele>
        <time>2017-05-21T13:12:16Z</time>
      </trkpt>
      <trkpt lat="42.6375" lon="1.76885">
        <ele>2305.38</ele>
        <time>2017-05-21T13:12:25Z</time>
      </trkpt>
      <trkpt lat="42.63756" lon="1.76896">
        <ele>2302.98</ele>
        <time>2017-05-21T13:12:33Z</time>
      </trkpt>
      <trkpt lat="42.63764" lon="1.76904">
        <ele>2300.57</ele>
        <time>2017-05-21T13:12:42Z</time>
      </trkpt>
      <trkpt lat="42.6377" lon="1.76917">
        <ele>2298.65</ele>
        <time>2017-05-21T13:12:50Z</time>
      </trkpt>
      <trkpt lat="42.63777" lon="1.76929">
        <ele>2295.77</ele>
        <time>2017-05-21T13:12:58Z</time>
      </trkpt>
      <trkpt lat="42.63783" lon="1.7694">
        <ele>2292.88</ele>
        <time>2017-05-21T13:13:07Z</time>
      </trkpt>
      <trkpt lat="42.63789" lon="1.76951">
        <ele>2290.96</ele>
        <time>2017-05-21T13:13:16Z</time>
      </trkpt>
      <trkpt lat="42.63792" lon="1.76963">
        <ele>2288.08</ele>
        <time>2017-05-21T13:13:26Z</time>
      </trkpt>
      <trkpt lat="42.63796" lon="1.76976">
        <ele>2285.19</ele>
        <time>2017-05-21T13:13:36Z</time>
      </trkpt>
      <trkpt lat="42.63799" lon="1.76986">
        <ele>2282.79</ele>
        <time>2017-05-21T13:13:45Z</time>
      </trkpt>
      <trkpt lat="42.63802" lon="1.76999">
        <ele>2279.42</ele>
        <time>2017-05-21T13:13:55Z</time>
      </trkpt>
      <trkpt lat="42.63805" lon="1.77012">
        <ele>2277.5</ele>
        <time>2017-05-21T13:14:05Z</time>
      </trkpt>
      <trkpt lat="42.63809" lon="1.77026">
        <ele>2275.58</ele>
        <time>2017-05-21T13:14:14Z</time>
      </trkpt>
      <trkpt lat="42.63813" lon="1.77039">
        <ele>2273.17</ele>
        <time>2017-05-21T13:14:24Z</time>
      </trkpt>
      <trkpt lat="42.63817" lon="1.77053">
        <ele>2270.77</ele>
        <time>2017-05-21T13:14:34Z</time>
      </trkpt>
      <trkpt lat="42.63815" lon="1.77066">
        <ele>2269.81</ele>
        <time>2017-05-21T13:14:42Z</time>
      </trkpt>
      <trkpt lat="42.63814" lon="1.77078">
        <ele>2268.37</ele>
        <time>2017-05-21T13:14:50Z</time>
      </trkpt>
      <trkpt lat="42.63811" lon="1.77091">
        <ele>2267.89</ele>
        <time>2017-05-21T13:14:58Z</time>
      </trkpt>
      <trkpt lat="42.63807" lon="1.77102">
        <ele>2266.45</ele>
        <time>2017-05-21T13:15:06Z</time>
      </trkpt>
      <trkpt lat="42.63803" lon="1.77113">
        <ele>2265.48</ele>
        <time>2017-05-21T13:15:15Z</time>
      </trkpt>
      <trkpt lat="42.63797" lon="1.77124">
        <ele>2263.56</ele>
        <time>2017-05-21T13:15:35Z</time>
      </trkpt>
      <trkpt lat="42.63793" lon="1.77136">
        <ele>2262.12</ele>
        <time>2017-05-21T13:15:43Z</time>
      </trkpt>
      <trkpt lat="42.63789" lon="1.77149">
        <ele>2260.2</ele>
        <time>2017-05-21T13:15:52Z</time>
      </trkpt>
      <trkpt lat="42.63784" lon="1.77161">
        <ele>2258.75</ele>
        <time>2017-05-21T13:16:00Z</time>
      </trkpt>
      <trkpt lat="42.63782" lon="1.77173">
        <ele>2257.31</ele>
        <time>2017-05-21T13:16:09Z</time>
      </trkpt>
      <trkpt lat="42.63787" lon="1.77184">
        <ele>2254.91</ele>
        <time>2017-05-21T13:16:19Z</time>
      </trkpt>
      <trkpt lat="42.63782" lon="1.77195">
        <ele>2253.47</ele>
        <time>2017-05-21T13:16:28Z</time>
      </trkpt>
      <trkpt lat="42.63777" lon="1.77205">
        <ele>2251.54</ele>
        <time>2017-05-21T13:16:37Z</time>
      </trkpt>
      <trkpt lat="42.6377" lon="1.77211">
        <ele>2249.62</ele>
        <time>2017-05-21T13:16:47Z</time>
      </trkpt>
      <trkpt lat="42.63765" lon="1.77219">
        <ele>2247.7</ele>
        <time>2017-05-21T13:16:55Z</time>
      </trkpt>
      <trkpt lat="42.63757" lon="1.77229">
        <ele>2245.78</ele>
        <time>2017-05-21T13:17:05Z</time>
      </trkpt>
      <trkpt lat="42.63751" lon="1.77236">
        <ele>2243.37</ele>
        <time>2017-05-21T13:17:26Z</time>
      </trkpt>
      <trkpt lat="42.63743" lon="1.77238">
        <ele>2242.89</ele>
        <time>2017-05-21T13:17:36Z</time>
      </trkpt>
      <trkpt lat="42.63741" lon="1.77236">
        <ele>2241.93</ele>
        <time>2017-05-21T13:18:44Z</time>
      </trkpt>
      <trkpt lat="42.63732" lon="1.77236">
        <ele>2241.45</ele>
        <time>2017-05-21T13:21:47Z</time>
      </trkpt>
      <trkpt lat="42.63721" lon="1.77242">
        <ele>2239.53</ele>
        <time>2017-05-21T13:22:40Z</time>
      </trkpt>
      <trkpt lat="42.63719" lon="1.77253">
        <ele>2238.09</ele>
        <time>2017-05-21T13:22:51Z</time>
      </trkpt>
      <trkpt lat="42.63716" lon="1.77265">
        <ele>2234.72</ele>
        <time>2017-05-21T13:23:06Z</time>
      </trkpt>
      <trkpt lat="42.63716" lon="1.77278">
        <ele>2231.36</ele>
        <time>2017-05-21T13:23:24Z</time>
      </trkpt>
      <trkpt lat="42.63718" lon="1.77293">
        <ele>2229.92</ele>
        <time>2017-05-21T13:23:36Z</time>
      </trkpt>
      <trkpt lat="42.63723" lon="1.77308">
        <ele>2227.99</ele>
        <time>2017-05-21T13:23:50Z</time>
      </trkpt>
      <trkpt lat="42.63724" lon="1.77323">
        <ele>2226.55</ele>
        <time>2017-05-21T13:24:07Z</time>
      </trkpt>
      <trkpt lat="42.63725" lon="1.77337">
        <ele>2224.15</ele>
        <time>2017-05-21T13:24:21Z</time>
      </trkpt>
      <trkpt lat="42.63728" lon="1.77351">
        <ele>2223.19</ele>
        <time>2017-05-21T13:24:32Z</time>
      </trkpt>
      <trkpt lat="42.63732" lon="1.77365">
        <ele>2222.22</ele>
        <time>2017-05-21T13:24:43Z</time>
      </trkpt>
      <trkpt lat="42.63738" lon="1.77377">
        <ele>2220.3</ele>
        <time>2017-05-21T13:24:54Z</time>
      </trkpt>
      <trkpt lat="42.63735" lon="1.77389">
        <ele>2216.94</ele>
        <time>2017-05-21T13:25:08Z</time>
      </trkpt>
      <trkpt lat="42.63735" lon="1.77403">
        <ele>2214.05</ele>
        <time>2017-05-21T13:25:20Z</time>
      </trkpt>
      <trkpt lat="42.63737" lon="1.77415">
        <ele>2211.17</ele>
        <time>2017-05-21T13:25:34Z</time>
      </trkpt>
      <trkpt lat="42.63737" lon="1.77428">
        <ele>2210.21</ele>
        <time>2017-05-21T13:25:48Z</time>
      </trkpt>
      <trkpt lat="42.63739" lon="1.77442">
        <ele>2207.81</ele>
        <time>2017-05-21T13:26:00Z</time>
      </trkpt>
      <trkpt lat="42.63743" lon="1.77456">
        <ele>2206.36</ele>
        <time>2017-05-21T13:26:12Z</time>
      </trkpt>
      <trkpt lat="42.63746" lon="1.77471">
        <ele>2204.44</ele>
        <time>2017-05-21T13:26:24Z</time>
      </trkpt>
      <trkpt lat="42.63749" lon="1.77486">
        <ele>2204.44</ele>
        <time>2017-05-21T13:26:37Z</time>
      </trkpt>
      <trkpt lat="42.63751" lon="1.775">
        <ele>2203</ele>
        <time>2017-05-21T13:26:49Z</time>
      </trkpt>
      <trkpt lat="42.63757" lon="1.77514">
        <ele>2203.96</ele>
        <time>2017-05-21T13:27:03Z</time>
      </trkpt>
      <trkpt lat="42.63765" lon="1.77522">
        <ele>2204.44</ele>
        <time>2017-05-21T13:27:20Z</time>
      </trkpt>
      <trkpt lat="42.63767" lon="1.77534">
        <ele>2203</ele>
        <time>2017-05-21T13:27:39Z</time>
      </trkpt>
      <trkpt lat="42.63769" lon="1.77545">
        <ele>2201.08</ele>
        <time>2017-05-21T13:27:53Z</time>
      </trkpt>
      <trkpt lat="42.63772" lon="1.77557">
        <ele>2198.67</ele>
        <time>2017-05-21T13:28:08Z</time>
      </trkpt>
      <trkpt lat="42.63779" lon="1.77568">
        <ele>2197.23</ele>
        <time>2017-05-21T13:28:25Z</time>
      </trkpt>
      <trkpt lat="42.63781" lon="1.7758">
        <ele>2193.87</ele>
        <time>2017-05-21T13:29:00Z</time>
      </trkpt>
      <trkpt lat="42.63775" lon="1.7759">
        <ele>2190.5</ele>
        <time>2017-05-21T13:29:12Z</time>
      </trkpt>
      <trkpt lat="42.63772" lon="1.77601">
        <ele>2188.1</ele>
        <time>2017-05-21T13:29:25Z</time>
      </trkpt>
      <trkpt lat="42.63765" lon="1.77611">
        <ele>2184.25</ele>
        <time>2017-05-21T13:29:41Z</time>
      </trkpt>
      <trkpt lat="42.63759" lon="1.7762">
        <ele>2181.85</ele>
        <time>2017-05-21T13:29:52Z</time>
      </trkpt>
      <trkpt lat="42.6376" lon="1.77633">
        <ele>2178.97</ele>
        <time>2017-05-21T13:30:03Z</time>
      </trkpt>
      <trkpt lat="42.63759" lon="1.77647">
        <ele>2176.08</ele>
        <time>2017-05-21T13:30:16Z</time>
      </trkpt>
      <trkpt lat="42.63758" lon="1.77657">
        <ele>2173.2</ele>
        <time>2017-05-21T13:30:29Z</time>
      </trkpt>
      <trkpt lat="42.6376" lon="1.7767">
        <ele>2169.83</ele>
        <time>2017-05-21T13:30:46Z</time>
      </trkpt>
      <trkpt lat="42.63756" lon="1.77682">
        <ele>2168.39</ele>
        <time>2017-05-21T13:31:03Z</time>
      </trkpt>
      <trkpt lat="42.63755" lon="1.77695">
        <ele>2164.06</ele>
        <time>2017-05-21T13:31:22Z</time>
      </trkpt>
      <trkpt lat="42.63753" lon="1.7771">
        <ele>2160.22</ele>
        <time>2017-05-21T13:31:35Z</time>
      </trkpt>
      <trkpt lat="42.63759" lon="1.77721">
        <ele>2156.86</ele>
        <time>2017-05-21T13:31:51Z</time>
      </trkpt>
      <trkpt lat="42.63765" lon="1.7773">
        <ele>2153.01</ele>
        <time>2017-05-21T13:31:58Z</time>
      </trkpt>
      <trkpt lat="42.63769" lon="1.77744">
        <ele>2150.13</ele>
        <time>2017-05-21T13:32:09Z</time>
      </trkpt>
      <trkpt lat="42.63771" lon="1.77758">
        <ele>2147.72</ele>
        <time>2017-05-21T13:32:20Z</time>
      </trkpt>
      <trkpt lat="42.63775" lon="1.77771">
        <ele>2146.28</ele>
        <time>2017-05-21T13:32:31Z</time>
      </trkpt>
      <trkpt lat="42.63779" lon="1.77781">
        <ele>2146.76</ele>
        <time>2017-05-21T13:32:40Z</time>
      </trkpt>
      <trkpt lat="42.6378" lon="1.77792">
        <ele>2146.28</ele>
        <time>2017-05-21T13:32:50Z</time>
      </trkpt>
      <trkpt lat="42.63781" lon="1.77806">
        <ele>2146.28</ele>
        <time>2017-05-21T13:33:04Z</time>
      </trkpt>
      <trkpt lat="42.63795" lon="1.77814">
        <ele>2145.32</ele>
        <time>2017-05-21T13:33:19Z</time>
      </trkpt>
      <trkpt lat="42.63797" lon="1.77826">
        <ele>2144.84</ele>
        <time>2017-05-21T13:33:30Z</time>
      </trkpt>
      <trkpt lat="42.63803" lon="1.77837">
        <ele>2144.36</ele>
        <time>2017-05-21T13:33:41Z</time>
      </trkpt>
      <trkpt lat="42.63805" lon="1.77853">
        <ele>2145.32</ele>
        <time>2017-05-21T13:33:56Z</time>
      </trkpt>
      <trkpt lat="42.63807" lon="1.7787">
        <ele>2145.32</ele>
        <time>2017-05-21T13:34:16Z</time>
      </trkpt>
      <trkpt lat="42.63801" lon="1.77882">
        <ele>2144.36</ele>
        <time>2017-05-21T13:34:26Z</time>
      </trkpt>
      <trkpt lat="42.63796" lon="1.77895">
        <ele>2142.92</ele>
        <time>2017-05-21T13:34:39Z</time>
      </trkpt>
      <trkpt lat="42.63799" lon="1.77907">
        <ele>2143.88</ele>
        <time>2017-05-21T13:34:54Z</time>
      </trkpt>
      <trkpt lat="42.63809" lon="1.77921">
        <ele>2144.36</ele>
        <time>2017-05-21T13:35:15Z</time>
      </trkpt>
      <trkpt lat="42.63813" lon="1.77936">
        <ele>2145.8</ele>
        <time>2017-05-21T13:35:35Z</time>
      </trkpt>
      <trkpt lat="42.63819" lon="1.77951">
        <ele>2146.76</ele>
        <time>2017-05-21T13:35:59Z</time>
      </trkpt>
      <trkpt lat="42.63813" lon="1.77973">
        <ele>2145.32</ele>
        <time>2017-05-21T13:36:23Z</time>
      </trkpt>
      <trkpt lat="42.6381" lon="1.77988">
        <ele>2143.4</ele>
        <time>2017-05-21T13:36:45Z</time>
      </trkpt>
      <trkpt lat="42.63805" lon="1.78004">
        <ele>2141.95</ele>
        <time>2017-05-21T13:37:07Z</time>
      </trkpt>
      <trkpt lat="42.63795" lon="1.78016">
        <ele>2139.55</ele>
        <time>2017-05-21T13:37:27Z</time>
      </trkpt>
      <trkpt lat="42.63787" lon="1.78033">
        <ele>2138.59</ele>
        <time>2017-05-21T13:37:51Z</time>
      </trkpt>
      <trkpt lat="42.63778" lon="1.78045">
        <ele>2135.71</ele>
        <time>2017-05-21T13:38:19Z</time>
      </trkpt>
      <trkpt lat="42.63776" lon="1.78059">
        <ele>2129.94</ele>
        <time>2017-05-21T13:38:46Z</time>
      </trkpt>
      <trkpt lat="42.63773" lon="1.78074">
        <ele>2123.21</ele>
        <time>2017-05-21T13:39:33Z</time>
      </trkpt>
      <trkpt lat="42.63772" lon="1.78089">
        <ele>2119.84</ele>
        <time>2017-05-21T13:39:54Z</time>
      </trkpt>
      <trkpt lat="42.6377" lon="1.78104">
        <ele>2118.4</ele>
        <time>2017-05-21T13:40:07Z</time>
      </trkpt>
      <trkpt lat="42.63768" lon="1.78124">
        <ele>2113.6</ele>
        <time>2017-05-21T13:40:28Z</time>
      </trkpt>
      <trkpt lat="42.63773" lon="1.78136">
        <ele>2112.15</ele>
        <time>2017-05-21T13:40:41Z</time>
      </trkpt>
      <trkpt lat="42.63765" lon="1.78153">
        <ele>2110.71</ele>
        <time>2017-05-21T13:41:03Z</time>
      </trkpt>
      <trkpt lat="42.63758" lon="1.78167">
        <ele>2108.79</ele>
        <time>2017-05-21T13:42:51Z</time>
      </trkpt>
      <trkpt lat="42.63754" lon="1.78177">
        <ele>2104.94</ele>
        <time>2017-05-21T13:43:20Z</time>
      </trkpt>
      <trkpt lat="42.6375" lon="1.7819">
        <ele>2100.62</ele>
        <time>2017-05-21T13:43:44Z</time>
      </trkpt>
      <trkpt lat="42.63744" lon="1.78197">
        <ele>2096.29</ele>
        <time>2017-05-21T13:44:00Z</time>
      </trkpt>
      <trkpt lat="42.63739" lon="1.7821">
        <ele>2092.93</ele>
        <time>2017-05-21T13:44:13Z</time>
      </trkpt>
      <trkpt lat="42.63737" lon="1.78228">
        <ele>2091</ele>
        <time>2017-05-21T13:44:27Z</time>
      </trkpt>
      <trkpt lat="42.63737" lon="1.78242">
        <ele>2089.56</ele>
        <time>2017-05-21T13:44:39Z</time>
      </trkpt>
      <trkpt lat="42.63734" lon="1.78255">
        <ele>2086.68</ele>
        <time>2017-05-21T13:44:53Z</time>
      </trkpt>
      <trkpt lat="42.63725" lon="1.78258">
        <ele>2082.83</ele>
        <time>2017-05-21T13:45:13Z</time>
      </trkpt>
      <trkpt lat="42.63715" lon="1.78265">
        <ele>2078.03</ele>
        <time>2017-05-21T13:46:01Z</time>
      </trkpt>
      <trkpt lat="42.63706" lon="1.7826">
        <ele>2073.22</ele>
        <time>2017-05-21T13:46:27Z</time>
      </trkpt>
      <trkpt lat="42.63697" lon="1.78262">
        <ele>2070.34</ele>
        <time>2017-05-21T13:46:45Z</time>
      </trkpt>
      <trkpt lat="42.63687" lon="1.78258">
        <ele>2065.53</ele>
        <time>2017-05-21T13:47:08Z</time>
      </trkpt>
      <trkpt lat="42.63683" lon="1.7827">
        <ele>2063.61</ele>
        <time>2017-05-21T13:47:45Z</time>
      </trkpt>
      <trkpt lat="42.63678" lon="1.78283">
        <ele>2061.68</ele>
        <time>2017-05-21T13:47:57Z</time>
      </trkpt>
      <trkpt lat="42.63673" lon="1.78293">
        <ele>2060.24</ele>
        <time>2017-05-21T13:48:07Z</time>
      </trkpt>
      <trkpt lat="42.63667" lon="1.78304">
        <ele>2059.28</ele>
        <time>2017-05-21T13:48:18Z</time>
      </trkpt>
      <trkpt lat="42.63663" lon="1.78317">
        <ele>2058.32</ele>
        <time>2017-05-21T13:48:30Z</time>
      </trkpt>
      <trkpt lat="42.63657" lon="1.78329">
        <ele>2057.36</ele>
        <time>2017-05-21T13:48:40Z</time>
      </trkpt>
      <trkpt lat="42.6365" lon="1.78339">
        <ele>2057.84</ele>
        <time>2017-05-21T13:48:50Z</time>
      </trkpt>
      <trkpt lat="42.63645" lon="1.78351">
        <ele>2057.36</ele>
        <time>2017-05-21T13:49:01Z</time>
      </trkpt>
      <trkpt lat="42.6364" lon="1.78363">
        <ele>2056.88</ele>
        <time>2017-05-21T13:49:10Z</time>
      </trkpt>
      <trkpt lat="42.63633" lon="1.78372">
        <ele>2055.92</ele>
        <time>2017-05-21T13:49:21Z</time>
      </trkpt>
      <trkpt lat="42.63628" lon="1.78382">
        <ele>2054.47</ele>
        <time>2017-05-21T13:49:31Z</time>
      </trkpt>
      <trkpt lat="42.63623" lon="1.78394">
        <ele>2053.03</ele>
        <time>2017-05-21T13:49:42Z</time>
      </trkpt>
      <trkpt lat="42.63617" lon="1.78405">
        <ele>2052.07</ele>
        <time>2017-05-21T13:49:51Z</time>
      </trkpt>
      <trkpt lat="42.63612" lon="1.78416">
        <ele>2049.67</ele>
        <time>2017-05-21T13:50:00Z</time>
      </trkpt>
      <trkpt lat="42.63609" lon="1.78426">
        <ele>2048.23</ele>
        <time>2017-05-21T13:50:10Z</time>
      </trkpt>
      <trkpt lat="42.63602" lon="1.78434">
        <ele>2044.86</ele>
        <time>2017-05-21T13:50:22Z</time>
      </trkpt>
      <trkpt lat="42.63596" lon="1.78442">
        <ele>2043.9</ele>
        <time>2017-05-21T13:50:33Z</time>
      </trkpt>
      <trkpt lat="42.6359" lon="1.78452">
        <ele>2041.5</ele>
        <time>2017-05-21T13:50:53Z</time>
      </trkpt>
      <trkpt lat="42.63582" lon="1.78461">
        <ele>2038.61</ele>
        <time>2017-05-21T13:51:11Z</time>
      </trkpt>
      <trkpt lat="42.63577" lon="1.78472">
        <ele>2036.21</ele>
        <time>2017-05-21T13:51:24Z</time>
      </trkpt>
      <trkpt lat="42.63573" lon="1.78484">
        <ele>2033.81</ele>
        <time>2017-05-21T13:51:39Z</time>
      </trkpt>
      <trkpt lat="42.6357" lon="1.78497">
        <ele>2029.48</ele>
        <time>2017-05-21T13:52:03Z</time>
      </trkpt>
      <trkpt lat="42.63568" lon="1.7851">
        <ele>2025.15</ele>
        <time>2017-05-21T13:52:22Z</time>
      </trkpt>
      <trkpt lat="42.63569" lon="1.78524">
        <ele>2021.31</ele>
        <time>2017-05-21T13:52:39Z</time>
      </trkpt>
      <trkpt lat="42.63567" lon="1.78534">
        <ele>2016.98</ele>
        <time>2017-05-21T13:53:00Z</time>
      </trkpt>
      <trkpt lat="42.63567" lon="1.78547">
        <ele>2012.66</ele>
        <time>2017-05-21T13:53:19Z</time>
      </trkpt>
      <trkpt lat="42.6357" lon="1.78557">
        <ele>2008.33</ele>
        <time>2017-05-21T13:53:39Z</time>
      </trkpt>
      <trkpt lat="42.63571" lon="1.78569">
        <ele>2004.97</ele>
        <time>2017-05-21T13:54:00Z</time>
      </trkpt>
      <trkpt lat="42.6358" lon="1.78578">
        <ele>2001.6</ele>
        <time>2017-05-21T13:54:16Z</time>
      </trkpt>
      <trkpt lat="42.6357" lon="1.7858">
        <ele>1998.24</ele>
        <time>2017-05-21T13:54:32Z</time>
      </trkpt>
      <trkpt lat="42.63563" lon="1.78583">
        <ele>1995.83</ele>
        <time>2017-05-21T13:54:47Z</time>
      </trkpt>
      <trkpt lat="42.63567" lon="1.78595">
        <ele>1992.47</ele>
        <time>2017-05-21T13:55:01Z</time>
      </trkpt>
      <trkpt lat="42.63573" lon="1.78606">
        <ele>1989.1</ele>
        <time>2017-05-21T13:55:17Z</time>
      </trkpt>
      <trkpt lat="42.63564" lon="1.78608">
        <ele>1986.7</ele>
        <time>2017-05-21T13:55:31Z</time>
      </trkpt>
      <trkpt lat="42.6357" lon="1.7862">
        <ele>1984.3</ele>
        <time>2017-05-21T13:55:45Z</time>
      </trkpt>
      <trkpt lat="42.63566" lon="1.78624">
        <ele>1981.41</ele>
        <time>2017-05-21T13:56:01Z</time>
      </trkpt>
      <trkpt lat="42.63559" lon="1.78624">
        <ele>1978.05</ele>
        <time>2017-05-21T13:56:15Z</time>
      </trkpt>
      <trkpt lat="42.63562" lon="1.78638">
        <ele>1973.72</ele>
        <time>2017-05-21T13:56:29Z</time>
      </trkpt>
      <trkpt lat="42.63565" lon="1.78649">
        <ele>1971.32</ele>
        <time>2017-05-21T13:56:43Z</time>
      </trkpt>
      <trkpt lat="42.63566" lon="1.78663">
        <ele>1966.99</ele>
        <time>2017-05-21T13:57:00Z</time>
      </trkpt>
      <trkpt lat="42.63565" lon="1.78677">
        <ele>1964.11</ele>
        <time>2017-05-21T13:57:16Z</time>
      </trkpt>
      <trkpt lat="42.63563" lon="1.7869">
        <ele>1961.71</ele>
        <time>2017-05-21T13:57:30Z</time>
      </trkpt>
      <trkpt lat="42.63561" lon="1.78702">
        <ele>1956.9</ele>
        <time>2017-05-21T13:57:44Z</time>
      </trkpt>
      <trkpt lat="42.63556" lon="1.78713">
        <ele>1955.94</ele>
        <time>2017-05-21T13:57:59Z</time>
      </trkpt>
      <trkpt lat="42.63552" lon="1.78724">
        <ele>1951.61</ele>
        <time>2017-05-21T13:58:13Z</time>
      </trkpt>
      <trkpt lat="42.6355" lon="1.78735">
        <ele>1949.69</ele>
        <time>2017-05-21T13:58:27Z</time>
      </trkpt>
      <trkpt lat="42.63548" lon="1.78747">
        <ele>1947.29</ele>
        <time>2017-05-21T13:58:41Z</time>
      </trkpt>
      <trkpt lat="42.63548" lon="1.78759">
        <ele>1945.36</ele>
        <time>2017-05-21T13:58:52Z</time>
      </trkpt>
      <trkpt lat="42.63547" lon="1.78771">
        <ele>1942.96</ele>
        <time>2017-05-21T13:59:03Z</time>
      </trkpt>
      <trkpt lat="42.63548" lon="1.7878">
        <ele>1940.56</ele>
        <time>2017-05-21T13:59:17Z</time>
      </trkpt>
      <trkpt lat="42.6355" lon="1.78794">
        <ele>1939.6</ele>
        <time>2017-05-21T13:59:34Z</time>
      </trkpt>
      <trkpt lat="42.63557" lon="1.78804">
        <ele>1938.64</ele>
        <time>2017-05-21T13:59:52Z</time>
      </trkpt>
      <trkpt lat="42.63562" lon="1.78815">
        <ele>1936.23</ele>
        <time>2017-05-21T14:00:15Z</time>
      </trkpt>
      <trkpt lat="42.63565" lon="1.78826">
        <ele>1934.79</ele>
        <time>2017-05-21T14:00:31Z</time>
      </trkpt>
      <trkpt lat="42.63573" lon="1.78837">
        <ele>1935.27</ele>
        <time>2017-05-21T14:00:42Z</time>
      </trkpt>
      <trkpt lat="42.63579" lon="1.78847">
        <ele>1934.79</ele>
        <time>2017-05-21T14:00:53Z</time>
      </trkpt>
      <trkpt lat="42.63586" lon="1.78856">
        <ele>1935.27</ele>
        <time>2017-05-21T14:01:03Z</time>
      </trkpt>
      <trkpt lat="42.63593" lon="1.78867">
        <ele>1935.27</ele>
        <time>2017-05-21T14:01:14Z</time>
      </trkpt>
      <trkpt lat="42.63598" lon="1.78878">
        <ele>1935.27</ele>
        <time>2017-05-21T14:01:25Z</time>
      </trkpt>
      <trkpt lat="42.63604" lon="1.78889">
        <ele>1935.27</ele>
        <time>2017-05-21T14:01:37Z</time>
      </trkpt>
      <trkpt lat="42.6361" lon="1.78898">
        <ele>1934.79</ele>
        <time>2017-05-21T14:01:47Z</time>
      </trkpt>
      <trkpt lat="42.63618" lon="1.78906">
        <ele>1935.27</ele>
        <time>2017-05-21T14:01:58Z</time>
      </trkpt>
      <trkpt lat="42.63624" lon="1.78915">
        <ele>1934.31</ele>
        <time>2017-05-21T14:02:11Z</time>
      </trkpt>
      <trkpt lat="42.6363" lon="1.78927">
        <ele>1932.87</ele>
        <time>2017-05-21T14:02:29Z</time>
      </trkpt>
      <trkpt lat="42.63633" lon="1.78939">
        <ele>1930.95</ele>
        <time>2017-05-21T14:03:02Z</time>
      </trkpt>
      <trkpt lat="42.63634" lon="1.78952">
        <ele>1929.5</ele>
        <time>2017-05-21T14:03:18Z</time>
      </trkpt>
      <trkpt lat="42.63628" lon="1.78962">
        <ele>1927.1</ele>
        <time>2017-05-21T14:03:31Z</time>
      </trkpt>
      <trkpt lat="42.63621" lon="1.7897">
        <ele>1925.18</ele>
        <time>2017-05-21T14:03:42Z</time>
      </trkpt>
      <trkpt lat="42.63619" lon="1.7898">
        <ele>1924.7</ele>
        <time>2017-05-21T14:03:55Z</time>
      </trkpt>
      <trkpt lat="42.63625" lon="1.78984">
        <ele>1924.22</ele>
        <time>2017-05-21T14:04:29Z</time>
      </trkpt>
      <trkpt lat="42.63632" lon="1.78994">
        <ele>1922.29</ele>
        <time>2017-05-21T14:04:40Z</time>
      </trkpt>
      <trkpt lat="42.63638" lon="1.79002">
        <ele>1923.25</ele>
        <time>2017-05-21T14:04:52Z</time>
      </trkpt>
      <trkpt lat="42.63643" lon="1.7901">
        <ele>1921.33</ele>
        <time>2017-05-21T14:05:08Z</time>
      </trkpt>
      <trkpt lat="42.63649" lon="1.79021">
        <ele>1918.93</ele>
        <time>2017-05-21T14:05:23Z</time>
      </trkpt>
      <trkpt lat="42.63655" lon="1.79031">
        <ele>1916.53</ele>
        <time>2017-05-21T14:05:35Z</time>
      </trkpt>
      <trkpt lat="42.63659" lon="1.79042">
        <ele>1916.04</ele>
        <time>2017-05-21T14:05:45Z</time>
      </trkpt>
      <trkpt lat="42.63665" lon="1.79052">
        <ele>1913.64</ele>
        <time>2017-05-21T14:05:57Z</time>
      </trkpt>
      <trkpt lat="42.63672" lon="1.79059">
        <ele>1913.16</ele>
        <time>2017-05-21T14:06:10Z</time>
      </trkpt>
      <trkpt lat="42.6368" lon="1.79068">
        <ele>1912.68</ele>
        <time>2017-05-21T14:06:23Z</time>
      </trkpt>
      <trkpt lat="42.63685" lon="1.79081">
        <ele>1910.28</ele>
        <time>2017-05-21T14:06:37Z</time>
      </trkpt>
      <trkpt lat="42.63694" lon="1.7909">
        <ele>1910.28</ele>
        <time>2017-05-21T14:06:59Z</time>
      </trkpt>
      <trkpt lat="42.63698" lon="1.79102">
        <ele>1907.87</ele>
        <time>2017-05-21T14:07:13Z</time>
      </trkpt>
      <trkpt lat="42.63701" lon="1.79114">
        <ele>1904.99</ele>
        <time>2017-05-21T14:07:32Z</time>
      </trkpt>
      <trkpt lat="42.63703" lon="1.79126">
        <ele>1900.66</ele>
        <time>2017-05-21T14:07:50Z</time>
      </trkpt>
      <trkpt lat="42.63703" lon="1.79139">
        <ele>1896.82</ele>
        <time>2017-05-21T14:08:35Z</time>
      </trkpt>
      <trkpt lat="42.63699" lon="1.79141">
        <ele>1892.97</ele>
        <time>2017-05-21T14:09:09Z</time>
      </trkpt>
      <trkpt lat="42.63695" lon="1.79151">
        <ele>1887.69</ele>
        <time>2017-05-21T14:09:30Z</time>
      </trkpt>
      <trkpt lat="42.63692" lon="1.79164">
        <ele>1883.36</ele>
        <time>2017-05-21T14:09:53Z</time>
      </trkpt>
      <trkpt lat="42.63695" lon="1.79177">
        <ele>1880</ele>
        <time>2017-05-21T14:10:07Z</time>
      </trkpt>
      <trkpt lat="42.63703" lon="1.79182">
        <ele>1877.59</ele>
        <time>2017-05-21T14:10:21Z</time>
      </trkpt>
      <trkpt lat="42.63712" lon="1.79188">
        <ele>1875.67</ele>
        <time>2017-05-21T14:10:35Z</time>
      </trkpt>
      <trkpt lat="42.63718" lon="1.79197">
        <ele>1871.82</ele>
        <time>2017-05-21T14:10:55Z</time>
      </trkpt>
      <trkpt lat="42.63725" lon="1.79206">
        <ele>1868.46</ele>
        <time>2017-05-21T14:11:13Z</time>
      </trkpt>
      <trkpt lat="42.63731" lon="1.79213">
        <ele>1865.58</ele>
        <time>2017-05-21T14:11:29Z</time>
      </trkpt>
      <trkpt lat="42.63737" lon="1.79222">
        <ele>1863.17</ele>
        <time>2017-05-21T14:11:44Z</time>
      </trkpt>
      <trkpt lat="42.63742" lon="1.79232">
        <ele>1858.85</ele>
        <time>2017-05-21T14:11:59Z</time>
      </trkpt>
      <trkpt lat="42.6375" lon="1.79242">
        <ele>1858.37</ele>
        <time>2017-05-21T14:12:14Z</time>
      </trkpt>
      <trkpt lat="42.6376" lon="1.79244">
        <ele>1853.08</ele>
        <time>2017-05-21T14:12:42Z</time>
      </trkpt>
      <trkpt lat="42.63766" lon="1.79254">
        <ele>1849.23</ele>
        <time>2017-05-21T14:13:02Z</time>
      </trkpt>
      <trkpt lat="42.63777" lon="1.79257">
        <ele>1846.35</ele>
        <time>2017-05-21T14:13:22Z</time>
      </trkpt>
      <trkpt lat="42.63776" lon="1.79269">
        <ele>1842.02</ele>
        <time>2017-05-21T14:13:42Z</time>
      </trkpt>
      <trkpt lat="42.63784" lon="1.79271">
        <ele>1838.66</ele>
        <time>2017-05-21T14:14:12Z</time>
      </trkpt>
      <trkpt lat="42.63793" lon="1.79277">
        <ele>1835.77</ele>
        <time>2017-05-21T14:14:38Z</time>
      </trkpt>
      <trkpt lat="42.63794" lon="1.79285">
        <ele>1831.93</ele>
        <time>2017-05-21T14:14:56Z</time>
      </trkpt>
      <trkpt lat="42.63785" lon="1.79288">
        <ele>1827.6</ele>
        <time>2017-05-21T14:15:13Z</time>
      </trkpt>
      <trkpt lat="42.63778" lon="1.79297">
        <ele>1823.76</ele>
        <time>2017-05-21T14:15:33Z</time>
      </trkpt>
      <trkpt lat="42.63769" lon="1.79302">
        <ele>1819.91</ele>
        <time>2017-05-21T14:15:49Z</time>
      </trkpt>
      <trkpt lat="42.63761" lon="1.79313">
        <ele>1817.03</ele>
        <time>2017-05-21T14:16:05Z</time>
      </trkpt>
      <trkpt lat="42.63754" lon="1.79319">
        <ele>1815.59</ele>
        <time>2017-05-21T14:16:16Z</time>
      </trkpt>
      <trkpt lat="42.63754" lon="1.79329">
        <ele>1813.18</ele>
        <time>2017-05-21T14:16:30Z</time>
      </trkpt>
      <trkpt lat="42.63754" lon="1.79343">
        <ele>1809.82</ele>
        <time>2017-05-21T14:16:47Z</time>
      </trkpt>
      <trkpt lat="42.63761" lon="1.79352">
        <ele>1805.97</ele>
        <time>2017-05-21T14:17:05Z</time>
      </trkpt>
      <trkpt lat="42.63769" lon="1.79351">
        <ele>1802.13</ele>
        <time>2017-05-21T14:17:24Z</time>
      </trkpt>
      <trkpt lat="42.63774" lon="1.79353">
        <ele>1797.32</ele>
        <time>2017-05-21T14:17:45Z</time>
      </trkpt>
      <trkpt lat="42.63778" lon="1.79359">
        <ele>1793.96</ele>
        <time>2017-05-21T14:18:03Z</time>
      </trkpt>
      <trkpt lat="42.6379" lon="1.79363">
        <ele>1789.63</ele>
        <time>2017-05-21T14:18:30Z</time>
      </trkpt>
      <trkpt lat="42.63795" lon="1.79372">
        <ele>1784.82</ele>
        <time>2017-05-21T14:18:53Z</time>
      </trkpt>
      <trkpt lat="42.63801" lon="1.79383">
        <ele>1780.5</ele>
        <time>2017-05-21T14:19:17Z</time>
      </trkpt>
      <trkpt lat="42.63797" lon="1.79387">
        <ele>1777.13</ele>
        <time>2017-05-21T14:19:40Z</time>
      </trkpt>
      <trkpt lat="42.63789" lon="1.79389">
        <ele>1774.73</ele>
        <time>2017-05-21T14:19:56Z</time>
      </trkpt>
      <trkpt lat="42.63793" lon="1.79399">
        <ele>1771.37</ele>
        <time>2017-05-21T14:20:11Z</time>
      </trkpt>
      <trkpt lat="42.63799" lon="1.7941">
        <ele>1767.04</ele>
        <time>2017-05-21T14:20:27Z</time>
      </trkpt>
      <trkpt lat="42.63794" lon="1.79414">
        <ele>1764.16</ele>
        <time>2017-05-21T14:20:44Z</time>
      </trkpt>
      <trkpt lat="42.63785" lon="1.79416">
        <ele>1760.79</ele>
        <time>2017-05-21T14:20:57Z</time>
      </trkpt>
      <trkpt lat="42.63777" lon="1.79419">
        <ele>1757.91</ele>
        <time>2017-05-21T14:21:12Z</time>
      </trkpt>
      <trkpt lat="42.63782" lon="1.79432">
        <ele>1753.1</ele>
        <time>2017-05-21T14:21:29Z</time>
      </trkpt>
      <trkpt lat="42.63788" lon="1.79445">
        <ele>1748.78</ele>
        <time>2017-05-21T14:21:46Z</time>
      </trkpt>
      <trkpt lat="42.63796" lon="1.79457">
        <ele>1745.89</ele>
        <time>2017-05-21T14:22:02Z</time>
      </trkpt>
      <trkpt lat="42.63788" lon="1.79461">
        <ele>1742.53</ele>
        <time>2017-05-21T14:22:19Z</time>
      </trkpt>
      <trkpt lat="42.63779" lon="1.7946">
        <ele>1739.64</ele>
        <time>2017-05-21T14:22:33Z</time>
      </trkpt>
      <trkpt lat="42.63769" lon="1.79461">
        <ele>1736.76</ele>
        <time>2017-05-21T14:22:49Z</time>
      </trkpt>
      <trkpt lat="42.6376" lon="1.7946">
        <ele>1733.39</ele>
        <time>2017-05-21T14:23:05Z</time>
      </trkpt>
      <trkpt lat="42.63759" lon="1.79472">
        <ele>1729.55</ele>
        <time>2017-05-21T14:23:20Z</time>
      </trkpt>
      <trkpt lat="42.63762" lon="1.79489">
        <ele>1726.67</ele>
        <time>2017-05-21T14:23:36Z</time>
      </trkpt>
      <trkpt lat="42.63765" lon="1.79502">
        <ele>1723.78</ele>
        <time>2017-05-21T14:24:10Z</time>
      </trkpt>
      <trkpt lat="42.6377" lon="1.79514">
        <ele>1719.46</ele>
        <time>2017-05-21T14:24:26Z</time>
      </trkpt>
      <trkpt lat="42.63775" lon="1.79528">
        <ele>1716.09</ele>
        <time>2017-05-21T14:24:43Z</time>
      </trkpt>
      <trkpt lat="42.63782" lon="1.79538">
        <ele>1711.76</ele>
        <time>2017-05-21T14:25:00Z</time>
      </trkpt>
      <trkpt lat="42.63791" lon="1.79548">
        <ele>1707.92</ele>
        <time>2017-05-21T14:25:16Z</time>
      </trkpt>
      <trkpt lat="42.638" lon="1.79558">
        <ele>1705.04</ele>
        <time>2017-05-21T14:25:34Z</time>
      </trkpt>
      <trkpt lat="42.6381" lon="1.79569">
        <ele>1701.19</ele>
        <time>2017-05-21T14:25:52Z</time>
      </trkpt>
      <trkpt lat="42.63821" lon="1.79576">
        <ele>1697.83</ele>
        <time>2017-05-21T14:26:10Z</time>
      </trkpt>
      <trkpt lat="42.6383" lon="1.79587">
        <ele>1694.46</ele>
        <time>2017-05-21T14:26:30Z</time>
      </trkpt>
      <trkpt lat="42.63835" lon="1.796">
        <ele>1690.62</ele>
        <time>2017-05-21T14:26:48Z</time>
      </trkpt>
      <trkpt lat="42.63836" lon="1.79612">
        <ele>1687.25</ele>
        <time>2017-05-21T14:27:02Z</time>
      </trkpt>
      <trkpt lat="42.63834" lon="1.79622">
        <ele>1683.89</ele>
        <time>2017-05-21T14:27:20Z</time>
      </trkpt>
      <trkpt lat="42.63835" lon="1.79635">
        <ele>1680.52</ele>
        <time>2017-05-21T14:27:33Z</time>
      </trkpt>
      <trkpt lat="42.63833" lon="1.79648">
        <ele>1678.12</ele>
        <time>2017-05-21T14:27:44Z</time>
      </trkpt>
      <trkpt lat="42.63835" lon="1.7966">
        <ele>1676.2</ele>
        <time>2017-05-21T14:27:54Z</time>
      </trkpt>
      <trkpt lat="42.63836" lon="1.79674">
        <ele>1673.79</ele>
        <time>2017-05-21T14:28:04Z</time>
      </trkpt>
      <trkpt lat="42.63838" lon="1.79687">
        <ele>1671.87</ele>
        <time>2017-05-21T14:28:14Z</time>
      </trkpt>
      <trkpt lat="42.63838" lon="1.797">
        <ele>1669.47</ele>
        <time>2017-05-21T14:28:24Z</time>
      </trkpt>
      <trkpt lat="42.63838" lon="1.79713">
        <ele>1670.91</ele>
        <time>2017-05-21T14:28:34Z</time>
      </trkpt>
      <trkpt lat="42.63842" lon="1.79725">
        <ele>1670.43</ele>
        <time>2017-05-21T14:28:43Z</time>
      </trkpt>
      <trkpt lat="42.63847" lon="1.79738">
        <ele>1669.95</ele>
        <time>2017-05-21T14:28:52Z</time>
      </trkpt>
      <trkpt lat="42.63849" lon="1.79749">
        <ele>1668.99</ele>
        <time>2017-05-21T14:29:01Z</time>
      </trkpt>
      <trkpt lat="42.63856" lon="1.79757">
        <ele>1669.95</ele>
        <time>2017-05-21T14:29:11Z</time>
      </trkpt>
      <trkpt lat="42.63865" lon="1.79762">
        <ele>1669.95</ele>
        <time>2017-05-21T14:29:29Z</time>
      </trkpt>
      <trkpt lat="42.63872" lon="1.79771">
        <ele>1670.43</ele>
        <time>2017-05-21T14:29:38Z</time>
      </trkpt>
      <trkpt lat="42.63877" lon="1.79782">
        <ele>1669.47</ele>
        <time>2017-05-21T14:29:48Z</time>
      </trkpt>
      <trkpt lat="42.63884" lon="1.79791">
        <ele>1669.47</ele>
        <time>2017-05-21T14:29:57Z</time>
      </trkpt>
      <trkpt lat="42.63888" lon="1.79803">
        <ele>1668.51</ele>
        <time>2017-05-21T14:30:08Z</time>
      </trkpt>
      <trkpt lat="42.63896" lon="1.79803">
        <ele>1668.02</ele>
        <time>2017-05-21T14:30:43Z</time>
      </trkpt>
      <trkpt lat="42.63903" lon="1.79815">
        <ele>1669.47</ele>
        <time>2017-05-21T14:30:56Z</time>
      </trkpt>
      <trkpt lat="42.63908" lon="1.79826">
        <ele>1668.99</ele>
        <time>2017-05-21T14:31:09Z</time>
      </trkpt>
      <trkpt lat="42.63911" lon="1.79837">
        <ele>1668.51</ele>
        <time>2017-05-21T14:31:21Z</time>
      </trkpt>
      <trkpt lat="42.63918" lon="1.79846">
        <ele>1667.54</ele>
        <time>2017-05-21T14:31:31Z</time>
      </trkpt>
      <trkpt lat="42.63927" lon="1.79854">
        <ele>1667.06</ele>
        <time>2017-05-21T14:31:41Z</time>
      </trkpt>
      <trkpt lat="42.63937" lon="1.79858">
        <ele>1668.02</ele>
        <time>2017-05-21T14:31:52Z</time>
      </trkpt>
      <trkpt lat="42.63947" lon="1.79863">
        <ele>1668.51</ele>
        <time>2017-05-21T14:32:02Z</time>
      </trkpt>
      <trkpt lat="42.63954" lon="1.79873">
        <ele>1667.54</ele>
        <time>2017-05-21T14:32:12Z</time>
      </trkpt>
      <trkpt lat="42.63962" lon="1.7988">
        <ele>1668.02</ele>
        <time>2017-05-21T14:32:23Z</time>
      </trkpt>
      <trkpt lat="42.63972" lon="1.79888">
        <ele>1666.58</ele>
        <time>2017-05-21T14:32:34Z</time>
      </trkpt>
      <trkpt lat="42.63981" lon="1.79891">
        <ele>1666.58</ele>
        <time>2017-05-21T14:32:44Z</time>
      </trkpt>
      <trkpt lat="42.6399" lon="1.79895">
        <ele>1666.1</ele>
        <time>2017-05-21T14:32:55Z</time>
      </trkpt>
      <trkpt lat="42.64" lon="1.799">
        <ele>1665.62</ele>
        <time>2017-05-21T14:33:09Z</time>
      </trkpt>
      <trkpt lat="42.64011" lon="1.79902">
        <ele>1666.58</ele>
        <time>2017-05-21T14:33:20Z</time>
      </trkpt>
      <trkpt lat="42.64018" lon="1.7991">
        <ele>1664.66</ele>
        <time>2017-05-21T14:33:32Z</time>
      </trkpt>
      <trkpt lat="42.64026" lon="1.79916">
        <ele>1663.22</ele>
        <time>2017-05-21T14:33:44Z</time>
      </trkpt>
      <trkpt lat="42.6403" lon="1.79926">
        <ele>1663.7</ele>
        <time>2017-05-21T14:33:56Z</time>
      </trkpt>
      <trkpt lat="42.6403" lon="1.79943">
        <ele>1663.7</ele>
        <time>2017-05-21T14:34:17Z</time>
      </trkpt>
      <trkpt lat="42.64039" lon="1.79949">
        <ele>1663.7</ele>
        <time>2017-05-21T14:34:31Z</time>
      </trkpt>
      <trkpt lat="42.64047" lon="1.79958">
        <ele>1663.22</ele>
        <time>2017-05-21T14:34:41Z</time>
      </trkpt>
      <trkpt lat="42.64054" lon="1.7997">
        <ele>1662.26</ele>
        <time>2017-05-21T14:34:54Z</time>
      </trkpt>
      <trkpt lat="42.64063" lon="1.79981">
        <ele>1661.78</ele>
        <time>2017-05-21T14:35:07Z</time>
      </trkpt>
      <trkpt lat="42.64072" lon="1.7999">
        <ele>1662.74</ele>
        <time>2017-05-21T14:35:18Z</time>
      </trkpt>
      <trkpt lat="42.64079" lon="1.79998">
        <ele>1662.74</ele>
        <time>2017-05-21T14:35:30Z</time>
      </trkpt>
      <trkpt lat="42.64081" lon="1.80007">
        <ele>1662.74</ele>
        <time>2017-05-21T14:36:03Z</time>
      </trkpt>
      <trkpt lat="42.6409" lon="1.8002">
        <ele>1664.18</ele>
        <time>2017-05-21T14:36:17Z</time>
      </trkpt>
      <trkpt lat="42.641" lon="1.80029">
        <ele>1663.7</ele>
        <time>2017-05-21T14:36:30Z</time>
      </trkpt>
      <trkpt lat="42.64105" lon="1.80044">
        <ele>1661.3</ele>
        <time>2017-05-21T14:36:47Z</time>
      </trkpt>
      <trkpt lat="42.64114" lon="1.80057">
        <ele>1659.37</ele>
        <time>2017-05-21T14:37:03Z</time>
      </trkpt>
      <trkpt lat="42.64127" lon="1.80063">
        <ele>1656.01</ele>
        <time>2017-05-21T14:37:21Z</time>
      </trkpt>
      <trkpt lat="42.64141" lon="1.80071">
        <ele>1654.09</ele>
        <time>2017-05-21T14:37:37Z</time>
      </trkpt>
      <trkpt lat="42.64154" lon="1.80076">
        <ele>1651.68</ele>
        <time>2017-05-21T14:37:55Z</time>
      </trkpt>
      <trkpt lat="42.64162" lon="1.8009">
        <ele>1646.88</ele>
        <time>2017-05-21T14:38:14Z</time>
      </trkpt>
      <trkpt lat="42.64173" lon="1.80101">
        <ele>1643.99</ele>
        <time>2017-05-21T14:38:34Z</time>
      </trkpt>
      <trkpt lat="42.64184" lon="1.80104">
        <ele>1642.55</ele>
        <time>2017-05-21T14:38:47Z</time>
      </trkpt>
      <trkpt lat="42.64188" lon="1.80119">
        <ele>1640.63</ele>
        <time>2017-05-21T14:39:02Z</time>
      </trkpt>
      <trkpt lat="42.64193" lon="1.8013">
        <ele>1638.7</ele>
        <time>2017-05-21T14:39:16Z</time>
      </trkpt>
      <trkpt lat="42.642" lon="1.80138">
        <ele>1636.3</ele>
        <time>2017-05-21T14:39:28Z</time>
      </trkpt>
      <trkpt lat="42.642" lon="1.80153">
        <ele>1634.86</ele>
        <time>2017-05-21T14:39:39Z</time>
      </trkpt>
      <trkpt lat="42.64199" lon="1.80167">
        <ele>1632.94</ele>
        <time>2017-05-21T14:39:53Z</time>
      </trkpt>
      <trkpt lat="42.64202" lon="1.8018">
        <ele>1629.57</ele>
        <time>2017-05-21T14:40:07Z</time>
      </trkpt>
      <trkpt lat="42.64211" lon="1.80191">
        <ele>1628.13</ele>
        <time>2017-05-21T14:40:19Z</time>
      </trkpt>
      <trkpt lat="42.64222" lon="1.802">
        <ele>1628.13</ele>
        <time>2017-05-21T14:40:33Z</time>
      </trkpt>
      <trkpt lat="42.64233" lon="1.80206">
        <ele>1624.28</ele>
        <time>2017-05-21T14:40:50Z</time>
      </trkpt>
      <trkpt lat="42.64237" lon="1.80222">
        <ele>1621.4</ele>
        <time>2017-05-21T14:41:02Z</time>
      </trkpt>
      <trkpt lat="42.64243" lon="1.80235">
        <ele>1619</ele>
        <time>2017-05-21T14:41:13Z</time>
      </trkpt>
      <trkpt lat="42.64251" lon="1.80245">
        <ele>1619.96</ele>
        <time>2017-05-21T14:41:26Z</time>
      </trkpt>
      <trkpt lat="42.64261" lon="1.80253">
        <ele>1618.04</ele>
        <time>2017-05-21T14:41:39Z</time>
      </trkpt>
      <trkpt lat="42.64267" lon="1.80264">
        <ele>1615.63</ele>
        <time>2017-05-21T14:41:50Z</time>
      </trkpt>
      <trkpt lat="42.64276" lon="1.80266">
        <ele>1615.15</ele>
        <time>2017-05-21T14:42:02Z</time>
      </trkpt>
      <trkpt lat="42.64286" lon="1.80278">
        <ele>1610.83</ele>
        <time>2017-05-21T14:42:25Z</time>
      </trkpt>
      <trkpt lat="42.64296" lon="1.80285">
        <ele>1609.38</ele>
        <time>2017-05-21T14:42:40Z</time>
      </trkpt>
      <trkpt lat="42.64304" lon="1.80296">
        <ele>1607.46</ele>
        <time>2017-05-21T14:42:52Z</time>
      </trkpt>
      <trkpt lat="42.64312" lon="1.80304">
        <ele>1605.54</ele>
        <time>2017-05-21T14:43:15Z</time>
      </trkpt>
      <trkpt lat="42.64324" lon="1.80308">
        <ele>1604.58</ele>
        <time>2017-05-21T14:43:30Z</time>
      </trkpt>
      <trkpt lat="42.64332" lon="1.80316">
        <ele>1604.58</ele>
        <time>2017-05-21T14:43:41Z</time>
      </trkpt>
      <trkpt lat="42.6434" lon="1.80325">
        <ele>1605.06</ele>
        <time>2017-05-21T14:43:51Z</time>
      </trkpt>
      <trkpt lat="42.64347" lon="1.80334">
        <ele>1605.06</ele>
        <time>2017-05-21T14:44:01Z</time>
      </trkpt>
      <trkpt lat="42.64354" lon="1.80343">
        <ele>1606.02</ele>
        <time>2017-05-21T14:44:12Z</time>
      </trkpt>
      <trkpt lat="42.64363" lon="1.8035">
        <ele>1606.5</ele>
        <time>2017-05-21T14:44:24Z</time>
      </trkpt>
      <trkpt lat="42.64371" lon="1.80357">
        <ele>1605.54</ele>
        <time>2017-05-21T14:44:35Z</time>
      </trkpt>
      <trkpt lat="42.64377" lon="1.80368">
        <ele>1602.66</ele>
        <time>2017-05-21T14:44:56Z</time>
      </trkpt>
      <trkpt lat="42.64385" lon="1.80378">
        <ele>1599.77</ele>
        <time>2017-05-21T14:45:09Z</time>
      </trkpt>
      <trkpt lat="42.64387" lon="1.80392">
        <ele>1597.37</ele>
        <time>2017-05-21T14:45:24Z</time>
      </trkpt>
      <trkpt lat="42.64397" lon="1.80401">
        <ele>1594.96</ele>
        <time>2017-05-21T14:45:39Z</time>
      </trkpt>
      <trkpt lat="42.64405" lon="1.80407">
        <ele>1593.04</ele>
        <time>2017-05-21T14:45:52Z</time>
      </trkpt>
      <trkpt lat="42.64411" lon="1.80414">
        <ele>1589.68</ele>
        <time>2017-05-21T14:46:13Z</time>
      </trkpt>
      <trkpt lat="42.64417" lon="1.80435">
        <ele>1584.87</ele>
        <time>2017-05-21T14:46:38Z</time>
      </trkpt>
      <trkpt lat="42.64422" lon="1.80453">
        <ele>1580.06</ele>
        <time>2017-05-21T14:47:00Z</time>
      </trkpt>
      <trkpt lat="42.6443" lon="1.80476">
        <ele>1576.7</ele>
        <time>2017-05-21T14:47:22Z</time>
      </trkpt>
      <trkpt lat="42.64441" lon="1.80496">
        <ele>1571.89</ele>
        <time>2017-05-21T14:47:55Z</time>
      </trkpt>
      <trkpt lat="42.6445" lon="1.80511">
        <ele>1569.97</ele>
        <time>2017-05-21T14:48:12Z</time>
      </trkpt>
      <trkpt lat="42.64458" lon="1.80525">
        <ele>1568.05</ele>
        <time>2017-05-21T14:48:30Z</time>
      </trkpt>
      <trkpt lat="42.64461" lon="1.80538">
        <ele>1567.57</ele>
        <time>2017-05-21T14:48:45Z</time>
      </trkpt>
      <trkpt lat="42.64462" lon="1.80554">
        <ele>1565.16</ele>
        <time>2017-05-21T14:48:56Z</time>
      </trkpt>
      <trkpt lat="42.64463" lon="1.80575">
        <ele>1562.76</ele>
        <time>2017-05-21T14:49:11Z</time>
      </trkpt>
      <trkpt lat="42.6447" lon="1.80593">
        <ele>1562.76</ele>
        <time>2017-05-21T14:49:24Z</time>
      </trkpt>
      <trkpt lat="42.64478" lon="1.806">
        <ele>1561.8</ele>
        <time>2017-05-21T14:49:34Z</time>
      </trkpt>
      <trkpt lat="42.64488" lon="1.80604">
        <ele>1561.8</ele>
        <time>2017-05-21T14:49:45Z</time>
      </trkpt>
      <trkpt lat="42.64499" lon="1.80617">
        <ele>1559.88</ele>
        <time>2017-05-21T14:50:04Z</time>
      </trkpt>
      <trkpt lat="42.64501" lon="1.80634">
        <ele>1558.92</ele>
        <time>2017-05-21T14:51:01Z</time>
      </trkpt>
      <trkpt lat="42.64517" lon="1.80644">
        <ele>1558.92</ele>
        <time>2017-05-21T14:51:19Z</time>
      </trkpt>
      <trkpt lat="42.64523" lon="1.80664">
        <ele>1559.88</ele>
        <time>2017-05-21T14:51:33Z</time>
      </trkpt>
      <trkpt lat="42.64525" lon="1.80681">
        <ele>1558.43</ele>
        <time>2017-05-21T14:51:45Z</time>
      </trkpt>
      <trkpt lat="42.64529" lon="1.80697">
        <ele>1556.99</ele>
        <time>2017-05-21T14:51:59Z</time>
      </trkpt>
      <trkpt lat="42.64537" lon="1.80721">
        <ele>1557.47</ele>
        <time>2017-05-21T14:52:17Z</time>
      </trkpt>
      <trkpt lat="42.6454" lon="1.80743">
        <ele>1556.03</ele>
        <time>2017-05-21T14:52:33Z</time>
      </trkpt>
      <trkpt lat="42.6455" lon="1.80759">
        <ele>1554.59</ele>
        <time>2017-05-21T14:52:49Z</time>
      </trkpt>
      <trkpt lat="42.64559" lon="1.80771">
        <ele>1553.15</ele>
        <time>2017-05-21T14:53:05Z</time>
      </trkpt>
      <trkpt lat="42.6457" lon="1.80779">
        <ele>1551.71</ele>
        <time>2017-05-21T14:53:18Z</time>
      </trkpt>
      <trkpt lat="42.6458" lon="1.80788">
        <ele>1549.78</ele>
        <time>2017-05-21T14:53:29Z</time>
      </trkpt>
      <trkpt lat="42.64589" lon="1.80801">
        <ele>1549.78</ele>
        <time>2017-05-21T14:53:41Z</time>
      </trkpt>
      <trkpt lat="42.64596" lon="1.80811">
        <ele>1549.3</ele>
        <time>2017-05-21T14:53:52Z</time>
      </trkpt>
      <trkpt lat="42.64602" lon="1.80825">
        <ele>1549.3</ele>
        <time>2017-05-21T14:54:06Z</time>
      </trkpt>
      <trkpt lat="42.64613" lon="1.80844">
        <ele>1549.78</ele>
        <time>2017-05-21T14:54:26Z</time>
      </trkpt>
      <trkpt lat="42.64619" lon="1.80862">
        <ele>1548.82</ele>
        <time>2017-05-21T14:54:43Z</time>
      </trkpt>
      <trkpt lat="42.64622" lon="1.80881">
        <ele>1548.34</ele>
        <time>2017-05-21T14:54:56Z</time>
      </trkpt>
      <trkpt lat="42.64635" lon="1.8089">
        <ele>1548.34</ele>
        <time>2017-05-21T14:55:09Z</time>
      </trkpt>
      <trkpt lat="42.64651" lon="1.809">
        <ele>1548.34</ele>
        <time>2017-05-21T14:55:28Z</time>
      </trkpt>
      <trkpt lat="42.64663" lon="1.80911">
        <ele>1547.38</ele>
        <time>2017-05-21T14:55:42Z</time>
      </trkpt>
      <trkpt lat="42.64669" lon="1.80928">
        <ele>1546.42</ele>
        <time>2017-05-21T14:55:56Z</time>
      </trkpt>
      <trkpt lat="42.64677" lon="1.80942">
        <ele>1545.94</ele>
        <time>2017-05-21T14:56:10Z</time>
      </trkpt>
      <trkpt lat="42.64667" lon="1.80949">
        <ele>1545.94</ele>
        <time>2017-05-21T14:56:23Z</time>
      </trkpt>
      <trkpt lat="42.64657" lon="1.80958">
        <ele>1546.9</ele>
        <time>2017-05-21T14:56:39Z</time>
      </trkpt>
      <trkpt lat="42.64648" lon="1.8099">
        <ele>1548.82</ele>
        <time>2017-05-21T14:57:16Z</time>
      </trkpt>
      <trkpt lat="42.6466" lon="1.8101">
        <ele>1547.86</ele>
        <time>2017-05-21T14:57:35Z</time>
      </trkpt>
      <trkpt lat="42.64673" lon="1.81024">
        <ele>1548.34</ele>
        <time>2017-05-21T14:57:51Z</time>
      </trkpt>
      <trkpt lat="42.64681" lon="1.81038">
        <ele>1545.46</ele>
        <time>2017-05-21T14:58:08Z</time>
      </trkpt>
      <trkpt lat="42.64685" lon="1.81054">
        <ele>1543.05</ele>
        <time>2017-05-21T14:58:23Z</time>
      </trkpt>
      <trkpt lat="42.64692" lon="1.81083">
        <ele>1534.4</ele>
        <time>2017-05-21T14:59:13Z</time>
      </trkpt>
      <trkpt lat="42.64701" lon="1.81123">
        <ele>1523.83</ele>
        <time>2017-05-21T15:00:10Z</time>
      </trkpt>
      <trkpt lat="42.6471" lon="1.81187">
        <ele>1511.33</ele>
        <time>2017-05-21T15:01:33Z</time>
      </trkpt>
      <trkpt lat="42.64715" lon="1.81224">
        <ele>1504.6</ele>
        <time>2017-05-21T15:02:24Z</time>
      </trkpt>
      <trkpt lat="42.64718" lon="1.81256">
        <ele>1498.83</ele>
        <time>2017-05-21T15:03:04Z</time>
      </trkpt>
      <trkpt lat="42.64721" lon="1.81287">
        <ele>1491.62</ele>
        <time>2017-05-21T15:03:51Z</time>
      </trkpt>
      <trkpt lat="42.64724" lon="1.81314">
        <ele>1487.78</ele>
        <time>2017-05-21T15:04:26Z</time>
      </trkpt>
      <trkpt lat="42.64738" lon="1.81337">
        <ele>1481.53</ele>
        <time>2017-05-21T15:05:03Z</time>
      </trkpt>
      <trkpt lat="42.6475" lon="1.81352">
        <ele>1477.68</ele>
        <time>2017-05-21T15:05:25Z</time>
      </trkpt>
      <trkpt lat="42.6476" lon="1.81367">
        <ele>1472.88</ele>
        <time>2017-05-21T15:05:54Z</time>
      </trkpt>
      <trkpt lat="42.64776" lon="1.81392">
        <ele>1466.15</ele>
        <time>2017-05-21T15:06:31Z</time>
      </trkpt>
      <trkpt lat="42.64786" lon="1.8141">
        <ele>1460.86</ele>
        <time>2017-05-21T15:07:03Z</time>
      </trkpt>
      <trkpt lat="42.64798" lon="1.81424">
        <ele>1455.09</ele>
        <time>2017-05-21T15:07:31Z</time>
      </trkpt>
      <trkpt lat="42.648" lon="1.81409">
        <ele>1452.69</ele>
        <time>2017-05-21T15:07:46Z</time>
      </trkpt>
      <trkpt lat="42.64797" lon="1.81391">
        <ele>1451.73</ele>
        <time>2017-05-21T15:08:01Z</time>
      </trkpt>
      <trkpt lat="42.64799" lon="1.81375">
        <ele>1450.77</ele>
        <time>2017-05-21T15:08:18Z</time>
      </trkpt>
      <trkpt lat="42.64796" lon="1.81353">
        <ele>1450.77</ele>
        <time>2017-05-21T15:08:36Z</time>
      </trkpt>
      <trkpt lat="42.64787" lon="1.81331">
        <ele>1450.77</ele>
        <time>2017-05-21T15:08:52Z</time>
      </trkpt>
      <trkpt lat="42.64789" lon="1.81313">
        <ele>1451.25</ele>
        <time>2017-05-21T15:09:05Z</time>
      </trkpt>
      <trkpt lat="42.64784" lon="1.81288">
        <ele>1453.17</ele>
        <time>2017-05-21T15:09:28Z</time>
      </trkpt>
    </trkseg>
  </trk>
</gpx>